Darstellungsparameter: Aktuell verwendete Einstellungen:
Skalierung der Graphiken ... ?
xyx+y,   Skalierungsfaktor:      Skalierung: Modus: x, Faktor: 1
Darstellungszeitraum ... ?
Vom - - bis: - -   Zeitraum: 03.03.2019 - 02.09.2019
Min/Max/Avg-Anzeige ... ?
Zeige MMA aktuell
Zeige MMA Monat
Zeige MMA alles
Zeige --A aktuell
Zeige --A Monat
Zeige --A alles
Keine MMA-Anzeige
MMA:
Keine MMA-Graphiken
MMA-Basis: 03.03.2019 - 02.09.2019
Quicknavigation für Darstellung... ?
Tage:      1T, 2T, 3T, 5T -1T -2T -3T -5T +1T +2T +3T +5T
Wochen: 1W, 2W, 3W -1W -2W -3W +1W +2W +3W
Monate: 1M, 3M, 6M -1M -3M -6M +1M +3M +6M
Jahre:    1J, 3J, 5J, 10J -1J -3J -5J -10J +1J +3J +5J +10J
Nutze für die Darstellung ... ?
Originaldaten oder Mittelwerte auf ...
Stundenbasis Tagesbasis Wochenbasis
Monatsbasis Jahresbasis      Datenbasis: Original-Daten
Darstellen als:
Statistik (Auto) Statistik J:M      Darstellung:
Zur Graphik,    zurück zur Übersicht aller Sensoren.
 
Tabellarische Datenbersicht: ?
 
Sensor: Nr:Datum:Temp:Feuchte:Taupunkt:
Aussen-T/F 1 03-03-2019 00:00:00 9.6 C 82 % 6.68 C
2 03-03-2019 00:05:00 9.5 C 82 % 6.59 C
3 03-03-2019 00:10:00 9.5 C 82 % 6.59 C
4 03-03-2019 00:15:00 9.5 C 82 % 6.59 C
5 03-03-2019 00:20:00 9.4 C 82 % 6.49 C
6 03-03-2019 00:25:00 9.3 C 82 % 6.39 C
7 03-03-2019 00:30:00 9.2 C 82 % 6.29 C
8 03-03-2019 00:35:00 8.9 C 82 % 6 C
9 03-03-2019 00:40:00 8.7 C 83 % 5.98 C
10 03-03-2019 00:45:00 8.5 C 84 % 5.96 C
11 03-03-2019 00:50:00 8.3 C 85 % 5.93 C
12 03-03-2019 00:55:00 8.3 C 86 % 6.1 C
13 03-03-2019 01:00:00 8.3 C 87 % 6.27 C
14 03-03-2019 01:05:00 8.4 C 87 % 6.37 C
15 03-03-2019 01:10:00 8.6 C 87 % 6.56 C
16 03-03-2019 01:15:00 8.8 C 87 % 6.76 C
17 03-03-2019 01:20:00 8.9 C 86 % 6.69 C
18 03-03-2019 01:25:00 9.1 C 86 % 6.89 C
19 03-03-2019 01:30:00 9.3 C 86 % 7.08 C
20 03-03-2019 01:35:00 9.4 C 85 % 7.01 C
21 03-03-2019 01:40:00 9.7 C 84 % 7.13 C
22 03-03-2019 01:45:00 9.8 C 83 % 7.05 C
23 03-03-2019 01:50:00 9.9 C 83 % 7.15 C
24 03-03-2019 01:55:00 9.9 C 82 % 6.98 C
25 03-03-2019 02:00:00 10 C 82 % 7.07 C
Sensor: Nr:Datum:Temp:Feuchte:Taupunkt:
Aussen-T/F 26 03-03-2019 02:05:00 10 C 82 % 7.07 C
27 03-03-2019 02:10:00 10.1 C 81 % 6.99 C
28 03-03-2019 02:15:00 10.1 C 81 % 6.99 C
29 03-03-2019 02:20:00 10.1 C 81 % 6.99 C
30 03-03-2019 02:25:00 10.1 C 81 % 6.99 C
31 03-03-2019 02:30:00 10.1 C 81 % 6.99 C
32 03-03-2019 02:35:00 9.9 C 81 % 6.8 C
33 03-03-2019 02:40:00 9.9 C 81 % 6.8 C
34 03-03-2019 02:45:00 9.9 C 81 % 6.8 C
35 03-03-2019 02:50:00 9.8 C 81 % 6.7 C
36 03-03-2019 02:55:00 9.8 C 82 % 6.88 C
37 03-03-2019 03:00:00 9.8 C 81 % 6.7 C
38 03-03-2019 03:05:00 9.8 C 81 % 6.7 C
39 03-03-2019 03:10:00 9.9 C 81 % 6.8 C
40 03-03-2019 03:15:00 9.9 C 81 % 6.8 C
41 03-03-2019 03:20:00 9.9 C 81 % 6.8 C
42 03-03-2019 03:25:00 10 C 81 % 6.89 C
43 03-03-2019 03:30:00 10 C 81 % 6.89 C
44 03-03-2019 03:35:00 10.1 C 81 % 6.99 C
45 03-03-2019 03:40:00 10.1 C 81 % 6.99 C
46 03-03-2019 03:45:00 10.1 C 81 % 6.99 C
47 03-03-2019 03:50:00 10.2 C 81 % 7.09 C
48 03-03-2019 03:55:00 10.2 C 81 % 7.09 C
49 03-03-2019 04:00:00 10.2 C 81 % 7.09 C
50 03-03-2019 04:05:00 10.2 C 81 % 7.09 C
Sensor: Nr:Datum:Temp:Feuchte:Taupunkt:
Aussen-T/F 51 03-03-2019 04:10:00 10.2 C 81 % 7.09 C
52 03-03-2019 04:15:00 10.2 C 81 % 7.09 C
53 03-03-2019 04:20:00 10.2 C 81 % 7.09 C
54 03-03-2019 04:25:00 10.3 C 81 % 7.19 C
55 03-03-2019 04:30:00 10.3 C 81 % 7.19 C
56 03-03-2019 04:35:00 10.3 C 81 % 7.19 C
57 03-03-2019 04:40:00 10.2 C 81 % 7.09 C
58 03-03-2019 04:45:00 10.2 C 81 % 7.09 C
59 03-03-2019 04:50:00 10.2 C 81 % 7.09 C
60 03-03-2019 04:55:00 10.2 C 80 % 6.91 C
61 03-03-2019 05:00:00 10.2 C 80 % 6.91 C
62 03-03-2019 05:05:00 10.3 C 80 % 7.01 C
63 03-03-2019 05:10:00 10.2 C 80 % 6.91 C
64 03-03-2019 05:15:00 10.2 C 80 % 6.91 C
65 03-03-2019 05:20:00 10.2 C 80 % 6.91 C
66 03-03-2019 05:25:00 10.2 C 80 % 6.91 C
67 03-03-2019 05:30:00 10.2 C 80 % 6.91 C
68 03-03-2019 05:35:00 10.2 C 80 % 6.91 C
69 03-03-2019 05:40:00 10.2 C 79 % 6.73 C
70 03-03-2019 05:45:00 10.2 C 79 % 6.73 C
71 03-03-2019 05:50:00 10.2 C 80 % 6.91 C
72 03-03-2019 05:55:00 10.2 C 80 % 6.91 C
73 03-03-2019 06:00:00 10.2 C 80 % 6.91 C
74 03-03-2019 06:05:00 10.1 C 80 % 6.81 C
75 03-03-2019 06:10:00 10.1 C 81 % 6.99 C
Sensor: Nr:Datum:Temp:Feuchte:Taupunkt:
Aussen-T/F 76 03-03-2019 06:15:00 10.1 C 81 % 6.99 C
77 03-03-2019 06:20:00 10.1 C 81 % 6.99 C
78 03-03-2019 06:25:00 10.1 C 81 % 6.99 C
79 03-03-2019 06:30:00 10.1 C 81 % 6.99 C
80 03-03-2019 06:35:00 10.1 C 81 % 6.99 C
81 03-03-2019 06:40:00 10.1 C 81 % 6.99 C
82 03-03-2019 06:45:00 10.1 C 81 % 6.99 C
83 03-03-2019 06:50:00 10.1 C 81 % 6.99 C
84 03-03-2019 06:55:00 10.1 C 81 % 6.99 C
85 03-03-2019 07:00:00 10.1 C 81 % 6.99 C
86 03-03-2019 07:05:00 10.1 C 81 % 6.99 C
87 03-03-2019 07:10:00 10.1 C 81 % 6.99 C
88 03-03-2019 07:15:00 10.1 C 81 % 6.99 C
89 03-03-2019 07:20:00 10.1 C 81 % 6.99 C
90 03-03-2019 07:25:00 10.1 C 81 % 6.99 C
91 03-03-2019 07:30:00 10.1 C 81 % 6.99 C
92 03-03-2019 07:35:00 10.1 C 81 % 6.99 C
93 03-03-2019 07:40:00 10.2 C 81 % 7.09 C
94 03-03-2019 07:45:00 10.2 C 81 % 7.09 C
95 03-03-2019 07:50:00 10.2 C 81 % 7.09 C
96 03-03-2019 07:55:00 10.2 C 81 % 7.09 C
97 03-03-2019 08:00:00 10.2 C 81 % 7.09 C
98 03-03-2019 08:05:00 10.2 C 81 % 7.09 C
99 03-03-2019 08:10:00 10.3 C 81 % 7.19 C
100 03-03-2019 08:15:00 10.3 C 81 % 7.19 C
Sensor: Nr:Datum:Temp:Feuchte:Taupunkt:
Aussen-T/F 101 03-03-2019 08:20:00 10.3 C 81 % 7.19 C
102 03-03-2019 08:25:00 10.3 C 81 % 7.19 C
103 03-03-2019 08:30:00 10.3 C 82 % 7.37 C
104 03-03-2019 08:35:00 10.3 C 82 % 7.37 C
105 03-03-2019 08:40:00 10.3 C 82 % 7.37 C
106 03-03-2019 08:45:00 10.4 C 82 % 7.46 C
107 03-03-2019 08:50:00 10.4 C 82 % 7.46 C
108 03-03-2019 08:55:00 10.5 C 82 % 7.56 C
109 03-03-2019 09:00:00 10.6 C 82 % 7.66 C
110 03-03-2019 09:05:00 10.7 C 81 % 7.58 C
111 03-03-2019 09:10:00 10.8 C 82 % 7.85 C
112 03-03-2019 09:15:00 10.9 C 81 % 7.77 C
113 03-03-2019 09:20:00 10.9 C 81 % 7.77 C
114 03-03-2019 09:25:00 11 C 81 % 7.87 C
115 03-03-2019 09:30:00 10.9 C 81 % 7.77 C
116 03-03-2019 09:35:00 10.9 C 81 % 7.77 C
117 03-03-2019 09:40:00 10.9 C 81 % 7.77 C
118 03-03-2019 09:45:00 10.9 C 81 % 7.77 C
119 03-03-2019 09:50:00 10.9 C 81 % 7.77 C
120 03-03-2019 09:55:00 11.1 C 81 % 7.97 C
121 03-03-2019 10:00:00 11.1 C 81 % 7.97 C
122 03-03-2019 10:05:00 11.1 C 81 % 7.97 C
123 03-03-2019 10:10:00 11.2 C 81 % 8.06 C
124 03-03-2019 10:15:00 11.2 C 81 % 8.06 C
125 03-03-2019 10:20:00 11.1 C 81 % 7.97 C
Sensor: Nr:Datum:Temp:Feuchte:Taupunkt:
Aussen-T/F 126 03-03-2019 10:25:00 11.1 C 81 % 7.97 C
127 03-03-2019 10:30:00 11.1 C 81 % 7.97 C
128 03-03-2019 10:35:00 11.2 C 81 % 8.06 C
129 03-03-2019 10:40:00 11.2 C 81 % 8.06 C
130 03-03-2019 10:45:00 11.2 C 81 % 8.06 C
131 03-03-2019 10:50:00 11.2 C 81 % 8.06 C
132 03-03-2019 10:55:00 11.2 C 81 % 8.06 C
133 03-03-2019 11:00:00 11.1 C 81 % 7.97 C
134 03-03-2019 11:05:00 11.1 C 82 % 8.15 C
135 03-03-2019 11:10:00 11 C 82 % 8.05 C
136 03-03-2019 11:15:00 10.9 C 82 % 7.95 C
137 03-03-2019 11:20:00 10.9 C 82 % 7.95 C
138 03-03-2019 11:25:00 10.9 C 82 % 7.95 C
139 03-03-2019 11:30:00 11 C 82 % 8.05 C
140 03-03-2019 11:35:00 11 C 82 % 8.05 C
141 03-03-2019 11:40:00 11 C 82 % 8.05 C
142 03-03-2019 11:45:00 11 C 82 % 8.05 C
143 03-03-2019 11:50:00 11.1 C 83 % 8.33 C
144 03-03-2019 11:55:00 11.1 C 82 % 8.15 C
145 03-03-2019 12:00:00 11.1 C 83 % 8.33 C
146 03-03-2019 12:05:00 11.1 C 82 % 8.15 C
147 03-03-2019 12:10:00 11.1 C 82 % 8.15 C
148 03-03-2019 12:15:00 11.1 C 82 % 8.15 C
149 03-03-2019 12:20:00 11.2 C 82 % 8.25 C
150 03-03-2019 12:25:00 11.2 C 82 % 8.25 C
Sensor: Nr:Datum:Temp:Feuchte:Taupunkt:
Aussen-T/F 151 03-03-2019 12:30:00 11.3 C 82 % 8.34 C
152 03-03-2019 12:35:00 11.3 C 82 % 8.34 C
153 03-03-2019 12:40:00 11.3 C 82 % 8.34 C
154 03-03-2019 12:45:00 11.3 C 82 % 8.34 C
155 03-03-2019 12:50:00 11.3 C 82 % 8.34 C
156 03-03-2019 12:55:00 11.4 C 82 % 8.44 C
157 03-03-2019 13:00:00 11.4 C 82 % 8.44 C
158 03-03-2019 13:05:00 11.6 C 81 % 8.45 C
159 03-03-2019 13:10:00 11.6 C 81 % 8.45 C
160 03-03-2019 13:15:00 11.7 C 81 % 8.55 C
161 03-03-2019 13:20:00 11.7 C 81 % 8.55 C
162 03-03-2019 13:25:00 11.8 C 80 % 8.47 C
163 03-03-2019 13:30:00 11.8 C 80 % 8.47 C
164 03-03-2019 13:35:00 11.8 C 80 % 8.47 C
165 03-03-2019 13:40:00 11.8 C 80 % 8.47 C
166 03-03-2019 13:45:00 11.8 C 80 % 8.47 C
167 03-03-2019 13:50:00 11.9 C 80 % 8.56 C
168 03-03-2019 13:55:00 11.9 C 80 % 8.56 C
169 03-03-2019 14:00:00 11.9 C 79 % 8.38 C
170 03-03-2019 14:05:00 11.9 C 79 % 8.38 C
171 03-03-2019 14:10:00 11.9 C 80 % 8.56 C
172 03-03-2019 14:15:00 11.9 C 80 % 8.56 C
173 03-03-2019 14:20:00 11.8 C 80 % 8.47 C
174 03-03-2019 14:25:00 11.8 C 80 % 8.47 C
175 03-03-2019 14:30:00 11.8 C 80 % 8.47 C
Sensor: Nr:Datum:Temp:Feuchte:Taupunkt:
Aussen-T/F 176 03-03-2019 14:35:00 11.7 C 80 % 8.37 C
177 03-03-2019 14:40:00 11.7 C 80 % 8.37 C
178 03-03-2019 14:45:00 11.7 C 80 % 8.37 C
179 03-03-2019 14:50:00 11.7 C 81 % 8.55 C
180 03-03-2019 14:55:00 11.7 C 81 % 8.55 C
181 03-03-2019 15:00:00 11.7 C 81 % 8.55 C
182 03-03-2019 15:05:00 11.7 C 80 % 8.37 C
183 03-03-2019 15:10:00 11.7 C 80 % 8.37 C
184 03-03-2019 15:15:00 11.8 C 81 % 8.65 C
185 03-03-2019 15:20:00 11.8 C 81 % 8.65 C
186 03-03-2019 15:25:00 11.8 C 81 % 8.65 C
187 03-03-2019 15:30:00 11.7 C 81 % 8.55 C
188 03-03-2019 15:35:00 11.7 C 82 % 8.73 C
189 03-03-2019 15:40:00 11.7 C 82 % 8.73 C
190 03-03-2019 15:45:00 11.6 C 82 % 8.64 C
191 03-03-2019 15:50:00 11.6 C 82 % 8.64 C
192 03-03-2019 15:55:00 11.6 C 82 % 8.64 C
193 03-03-2019 16:00:00 11.6 C 82 % 8.64 C
194 03-03-2019 16:05:00 11.6 C 82 % 8.64 C
195 03-03-2019 16:10:00 11.6 C 82 % 8.64 C
196 03-03-2019 16:15:00 11.6 C 82 % 8.64 C
197 03-03-2019 16:20:00 11.6 C 82 % 8.64 C
198 03-03-2019 16:25:00 11.7 C 82 % 8.73 C
199 03-03-2019 16:30:00 11.7 C 81 % 8.55 C
200 03-03-2019 16:35:00 11.8 C 81 % 8.65 C
Sensor: Nr:Datum:Temp:Feuchte:Taupunkt:
Aussen-T/F 201 03-03-2019 16:40:00 11.8 C 81 % 8.65 C
202 03-03-2019 16:45:00 11.8 C 81 % 8.65 C
203 03-03-2019 16:50:00 11.8 C 81 % 8.65 C
204 03-03-2019 16:55:00 11.8 C 81 % 8.65 C
205 03-03-2019 17:00:00 11.8 C 81 % 8.65 C
206 03-03-2019 17:05:00 11.8 C 81 % 8.65 C
207 03-03-2019 17:10:00 11.8 C 80 % 8.47 C
208 03-03-2019 17:15:00 11.8 C 80 % 8.47 C
209 03-03-2019 17:20:00 11.8 C 80 % 8.47 C
210 03-03-2019 17:25:00 11.8 C 80 % 8.47 C
211 03-03-2019 17:30:00 11.9 C 79 % 8.38 C
212 03-03-2019 17:35:00 11.9 C 79 % 8.38 C
213 03-03-2019 17:40:00 11.9 C 79 % 8.38 C
214 03-03-2019 17:45:00 12 C 78 % 8.29 C
215 03-03-2019 17:50:00 12.1 C 78 % 8.38 C
216 03-03-2019 17:55:00 12.2 C 78 % 8.48 C
217 03-03-2019 18:00:00 12.2 C 78 % 8.48 C
218 03-03-2019 18:05:00 12.2 C 78 % 8.48 C
219 03-03-2019 18:10:00 12.2 C 78 % 8.48 C
220 03-03-2019 18:15:00 12.2 C 78 % 8.48 C
221 03-03-2019 18:20:00 12.2 C 78 % 8.48 C
222 03-03-2019 18:25:00 12.2 C 78 % 8.48 C
223 03-03-2019 18:30:00 12.2 C 77 % 8.29 C
224 03-03-2019 18:35:00 12.2 C 77 % 8.29 C
225 03-03-2019 18:40:00 12.2 C 77 % 8.29 C
Sensor: Nr:Datum:Temp:Feuchte:Taupunkt:
Aussen-T/F 226 03-03-2019 18:45:00 12.2 C 77 % 8.29 C
227 03-03-2019 18:50:00 12.1 C 77 % 8.2 C
228 03-03-2019 18:55:00 12.1 C 77 % 8.2 C
229 03-03-2019 19:00:00 12.1 C 77 % 8.2 C
230 03-03-2019 19:05:00 12.2 C 77 % 8.29 C
231 03-03-2019 19:10:00 12.2 C 77 % 8.29 C
232 03-03-2019 19:15:00 12.2 C 76 % 8.1 C
233 03-03-2019 19:20:00 12.3 C 76 % 8.2 C
234 03-03-2019 19:25:00 12.3 C 76 % 8.2 C
235 03-03-2019 19:30:00 12.3 C 76 % 8.2 C
236 03-03-2019 19:35:00 12.3 C 76 % 8.2 C
237 03-03-2019 19:40:00 12.3 C 75 % 8 C
238 03-03-2019 19:45:00 12.4 C 75 % 8.1 C
239 03-03-2019 19:50:00 12.4 C 75 % 8.1 C
240 03-03-2019 19:55:00 12.4 C 75 % 8.1 C
241 03-03-2019 20:00:00 12.3 C 75 % 8 C
242 03-03-2019 20:05:00 12.3 C 75 % 8 C
243 03-03-2019 20:10:00 12.3 C 75 % 8 C
244 03-03-2019 20:15:00 12.3 C 76 % 8.2 C
245 03-03-2019 20:20:00 12.3 C 76 % 8.2 C
246 03-03-2019 20:25:00 12.4 C 76 % 8.29 C
247 03-03-2019 20:30:00 12.4 C 76 % 8.29 C
248 03-03-2019 20:35:00 12.4 C 76 % 8.29 C
249 03-03-2019 20:40:00 12.4 C 76 % 8.29 C
250 03-03-2019 20:45:00 12.3 C 77 % 8.39 C
Sensor: Nr:Datum:Temp:Feuchte:Taupunkt:
Aussen-T/F 251 03-03-2019 20:50:00 12.3 C 77 % 8.39 C
252 03-03-2019 20:55:00 12.3 C 77 % 8.39 C
253 03-03-2019 21:00:00 12.3 C 77 % 8.39 C
254 03-03-2019 21:05:00 12.3 C 77 % 8.39 C
255 03-03-2019 21:10:00 12.3 C 77 % 8.39 C
256 03-03-2019 21:15:00 12.3 C 77 % 8.39 C
257 03-03-2019 21:20:00 12.3 C 77 % 8.39 C
258 03-03-2019 21:25:00 12.3 C 77 % 8.39 C
259 03-03-2019 21:30:00 12.3 C 77 % 8.39 C
260 03-03-2019 21:35:00 12.3 C 77 % 8.39 C
261 03-03-2019 21:40:00 12.4 C 77 % 8.49 C
262 03-03-2019 21:45:00 12.4 C 77 % 8.49 C
263 03-03-2019 21:50:00 12.4 C 77 % 8.49 C
264 03-03-2019 21:55:00 12.4 C 78 % 8.68 C
265 03-03-2019 22:00:00 12.4 C 78 % 8.68 C
266 03-03-2019 22:05:00 12.4 C 78 % 8.68 C
267 03-03-2019 22:10:00 12.4 C 78 % 8.68 C
268 03-03-2019 22:15:00 12.4 C 77 % 8.49 C
269 03-03-2019 22:20:00 12.4 C 77 % 8.49 C
270 03-03-2019 22:25:00 12.5 C 77 % 8.58 C
271 03-03-2019 22:30:00 12.5 C 77 % 8.58 C
272 03-03-2019 22:35:00 12.6 C 76 % 8.49 C
273 03-03-2019 22:40:00 12.6 C 76 % 8.49 C
274 03-03-2019 22:45:00 12.7 C 75 % 8.39 C
275 03-03-2019 22:50:00 12.7 C 75 % 8.39 C
Sensor: Nr:Datum:Temp:Feuchte:Taupunkt:
Aussen-T/F 276 03-03-2019 22:55:00 12.7 C 75 % 8.39 C
277 03-03-2019 23:00:00 12.7 C 74 % 8.19 C
278 03-03-2019 23:05:00 12.8 C 74 % 8.29 C
279 03-03-2019 23:10:00 12.8 C 74 % 8.29 C
280 03-03-2019 23:15:00 12.8 C 74 % 8.29 C
281 03-03-2019 23:20:00 12.7 C 74 % 8.19 C
282 03-03-2019 23:25:00 12.7 C 74 % 8.19 C
283 03-03-2019 23:30:00 12.7 C 74 % 8.19 C
284 03-03-2019 23:35:00 12.7 C 74 % 8.19 C
285 03-03-2019 23:40:00 12.8 C 73 % 8.09 C
286 03-03-2019 23:45:00 12.8 C 74 % 8.29 C
287 03-03-2019 23:50:00 12.8 C 73 % 8.09 C
288 03-03-2019 23:55:00 12.8 C 73 % 8.09 C
289 04-03-2019 00:00:00 12.9 C 73 % 8.18 C
290 04-03-2019 00:05:00 12.9 C 73 % 8.18 C
291 04-03-2019 00:10:00 12.9 C 72 % 7.98 C
292 04-03-2019 00:15:00 13 C 72 % 8.08 C
293 04-03-2019 00:20:00 13.1 C 72 % 8.17 C
294 04-03-2019 00:25:00 13.1 C 71 % 7.97 C
295 04-03-2019 00:30:00 13.2 C 71 % 8.06 C
296 04-03-2019 00:35:00 13.2 C 70 % 7.86 C
297 04-03-2019 00:40:00 13.2 C 71 % 8.06 C
298 04-03-2019 00:45:00 13.2 C 70 % 7.86 C
299 04-03-2019 00:50:00 13.3 C 70 % 7.95 C
300 04-03-2019 00:55:00 13.3 C 70 % 7.95 C
Sensor: Nr:Datum:Temp:Feuchte:Taupunkt:
Aussen-T/F 301 04-03-2019 01:00:00 13.3 C 69 % 7.74 C
302 04-03-2019 01:05:00 13.3 C 70 % 7.95 C
303 04-03-2019 01:10:00 13.3 C 70 % 7.95 C
304 04-03-2019 01:15:00 13.3 C 70 % 7.95 C
305 04-03-2019 01:20:00 13.3 C 69 % 7.74 C
306 04-03-2019 01:25:00 13.3 C 69 % 7.74 C
307 04-03-2019 01:30:00 13.4 C 68 % 7.62 C
308 04-03-2019 01:35:00 13.6 C 67 % 7.6 C
309 04-03-2019 01:40:00 13.8 C 67 % 7.79 C
310 04-03-2019 01:45:00 13.8 C 67 % 7.79 C
311 04-03-2019 01:50:00 13.9 C 67 % 7.88 C
312 04-03-2019 01:55:00 13.8 C 69 % 8.22 C
313 04-03-2019 02:00:00 13.6 C 70 % 8.24 C
314 04-03-2019 02:05:00 13.3 C 71 % 8.16 C
315 04-03-2019 02:10:00 13.2 C 72 % 8.27 C
316 04-03-2019 02:15:00 12.9 C 74 % 8.38 C
317 04-03-2019 02:20:00 12.8 C 75 % 8.48 C
318 04-03-2019 02:25:00 12.6 C 76 % 8.49 C
319 04-03-2019 02:30:00 12.5 C 77 % 8.58 C
320 04-03-2019 02:35:00 12.3 C 77 % 8.39 C
321 04-03-2019 02:40:00 12.3 C 78 % 8.58 C
322 04-03-2019 02:45:00 12.2 C 78 % 8.48 C
323 04-03-2019 02:50:00 12.2 C 78 % 8.48 C
324 04-03-2019 02:55:00 12.1 C 79 % 8.57 C
325 04-03-2019 03:00:00 12.1 C 79 % 8.57 C
Sensor: Nr:Datum:Temp:Feuchte:Taupunkt:
Aussen-T/F 326 04-03-2019 03:05:00 12 C 79 % 8.48 C
327 04-03-2019 03:10:00 11.9 C 80 % 8.56 C
328 04-03-2019 03:15:00 11.8 C 80 % 8.47 C
329 04-03-2019 03:20:00 11.8 C 80 % 8.47 C
330 04-03-2019 03:25:00 11.7 C 81 % 8.55 C
331 04-03-2019 03:30:00 11.7 C 81 % 8.55 C
332 04-03-2019 03:35:00 11.7 C 81 % 8.55 C
333 04-03-2019 03:40:00 11.7 C 81 % 8.55 C
334 04-03-2019 03:45:00 11.7 C 81 % 8.55 C
335 04-03-2019 03:50:00 11.7 C 81 % 8.55 C
336 04-03-2019 03:55:00 11.7 C 81 % 8.55 C
337 04-03-2019 04:00:00 11.7 C 81 % 8.55 C
338 04-03-2019 04:05:00 11.7 C 81 % 8.55 C
339 04-03-2019 04:10:00 11.6 C 81 % 8.45 C
340 04-03-2019 04:15:00 11.6 C 81 % 8.45 C
341 04-03-2019 04:20:00 11.6 C 81 % 8.45 C
342 04-03-2019 04:25:00 11.7 C 82 % 8.73 C
343 04-03-2019 04:30:00 11.7 C 82 % 8.73 C
344 04-03-2019 04:35:00 11.7 C 82 % 8.73 C
345 04-03-2019 04:40:00 11.7 C 82 % 8.73 C
346 04-03-2019 04:45:00 11.7 C 82 % 8.73 C
347 04-03-2019 04:50:00 11.7 C 82 % 8.73 C
348 04-03-2019 04:55:00 11.7 C 81 % 8.55 C
349 04-03-2019 05:00:00 11.7 C 81 % 8.55 C
350 04-03-2019 05:05:00 11.7 C 80 % 8.37 C
Sensor: Nr:Datum:Temp:Feuchte:Taupunkt:
Aussen-T/F 351 04-03-2019 05:10:00 11.8 C 80 % 8.47 C
352 04-03-2019 05:15:00 11.8 C 80 % 8.47 C
353 04-03-2019 05:20:00 11.8 C 80 % 8.47 C
354 04-03-2019 05:25:00 11.8 C 80 % 8.47 C
355 04-03-2019 05:30:00 11.7 C 80 % 8.37 C
356 04-03-2019 05:35:00 11.6 C 79 % 8.09 C
357 04-03-2019 05:40:00 11.6 C 80 % 8.27 C
358 04-03-2019 05:45:00 11.4 C 80 % 8.08 C
359 04-03-2019 05:50:00 11.4 C 80 % 8.08 C
360 04-03-2019 05:55:00 11.3 C 81 % 8.16 C
361 04-03-2019 06:00:00 11.3 C 81 % 8.16 C
362 04-03-2019 06:05:00 11.4 C 80 % 8.08 C
363 04-03-2019 06:10:00 11.4 C 80 % 8.08 C
364 04-03-2019 06:15:00 11.3 C 80 % 7.98 C
365 04-03-2019 06:20:00 11.3 C 79 % 7.8 C
366 04-03-2019 06:25:00 11.3 C 78 % 7.61 C
367 04-03-2019 06:30:00 11.5 C 77 % 7.61 C
368 04-03-2019 06:35:00 11.6 C 79 % 8.09 C
369 04-03-2019 06:40:00 11.6 C 79 % 8.09 C
370 04-03-2019 06:45:00 11.5 C 78 % 7.8 C
371 04-03-2019 06:50:00 11.6 C 78 % 7.9 C
372 04-03-2019 06:55:00 11.6 C 78 % 7.9 C
373 04-03-2019 07:00:00 11.6 C 77 % 7.71 C
374 04-03-2019 07:05:00 11.7 C 76 % 7.62 C
375 04-03-2019 07:10:00 11.8 C 76 % 7.71 C
Sensor: Nr:Datum:Temp:Feuchte:Taupunkt:
Aussen-T/F 376 04-03-2019 07:15:00 11.9 C 75 % 7.62 C
377 04-03-2019 07:20:00 12 C 74 % 7.52 C
378 04-03-2019 07:25:00 12 C 74 % 7.52 C
379 04-03-2019 07:30:00 12.1 C 73 % 7.41 C
380 04-03-2019 07:35:00 12.1 C 73 % 7.41 C
381 04-03-2019 07:40:00 12.2 C 72 % 7.31 C
382 04-03-2019 07:45:00 12.2 C 72 % 7.31 C
383 04-03-2019 07:50:00 12.2 C 72 % 7.31 C
384 04-03-2019 07:55:00 12.2 C 72 % 7.31 C
385 04-03-2019 08:00:00 12.3 C 72 % 7.4 C
386 04-03-2019 08:05:00 12.3 C 71 % 7.2 C
387 04-03-2019 08:10:00 12.4 C 70 % 7.09 C
388 04-03-2019 08:15:00 12.4 C 69 % 6.88 C
389 04-03-2019 08:20:00 12.6 C 68 % 6.86 C
390 04-03-2019 08:25:00 12.7 C 68 % 6.95 C
391 04-03-2019 08:30:00 12.7 C 67 % 6.74 C
392 04-03-2019 08:35:00 12 C 75 % 7.71 C
393 04-03-2019 08:40:00 10.7 C 77 % 6.84 C
394 04-03-2019 08:45:00 9.7 C 80 % 6.42 C
395 04-03-2019 08:50:00 9.2 C 80 % 5.94 C
396 04-03-2019 08:55:00 8.9 C 81 % 5.82 C
397 04-03-2019 09:00:00 8.9 C 79 % 5.46 C
398 04-03-2019 09:05:00 9 C 77 % 5.19 C
399 04-03-2019 09:10:00 9.2 C 75 % 5.01 C
400 04-03-2019 09:15:00 9.4 C 74 % 5.01 C
Sensor: Nr:Datum:Temp:Feuchte:Taupunkt:
Aussen-T/F 401 04-03-2019 09:20:00 9.6 C 73 % 5.01 C
402 04-03-2019 09:25:00 9.6 C 73 % 5.01 C
403 04-03-2019 09:30:00 9.7 C 73 % 5.1 C
404 04-03-2019 09:35:00 9.8 C 75 % 5.59 C
405 04-03-2019 09:40:00 9.8 C 78 % 6.15 C
406 04-03-2019 09:45:00 9.4 C 79 % 5.95 C
407 04-03-2019 09:50:00 9.2 C 80 % 5.94 C
408 04-03-2019 09:55:00 9.1 C 80 % 5.84 C
409 04-03-2019 10:00:00 9.1 C 80 % 5.84 C
410 04-03-2019 10:05:00 9.2 C 80 % 5.94 C
411 04-03-2019 10:10:00 9.4 C 79 % 5.95 C
412 04-03-2019 10:15:00 9.6 C 78 % 5.96 C
413 04-03-2019 10:20:00 9.7 C 77 % 5.87 C
414 04-03-2019 10:25:00 9.9 C 77 % 6.06 C
415 04-03-2019 10:30:00 10 C 76 % 5.97 C
416 04-03-2019 10:35:00 10.1 C 76 % 6.07 C
417 04-03-2019 10:40:00 10.2 C 76 % 6.16 C
418 04-03-2019 10:45:00 10.3 C 75 % 6.07 C
419 04-03-2019 10:50:00 10.6 C 74 % 6.17 C
420 04-03-2019 10:55:00 10.8 C 71 % 5.76 C
421 04-03-2019 11:00:00 11.1 C 70 % 5.84 C
422 04-03-2019 11:05:00 11.3 C 68 % 5.62 C
423 04-03-2019 11:10:00 11.6 C 67 % 5.69 C
424 04-03-2019 11:15:00 11.7 C 66 % 5.57 C
425 04-03-2019 11:20:00 11.7 C 65 % 5.35 C
Sensor: Nr:Datum:Temp:Feuchte:Taupunkt:
Aussen-T/F 426 04-03-2019 11:25:00 11.6 C 68 % 5.9 C
427 04-03-2019 11:30:00 11.2 C 70 % 5.94 C
428 04-03-2019 11:35:00 10.9 C 71 % 5.86 C
429 04-03-2019 11:40:00 10.8 C 71 % 5.76 C
430 04-03-2019 11:45:00 10.9 C 72 % 6.06 C
431 04-03-2019 11:50:00 11 C 71 % 5.95 C
432 04-03-2019 11:55:00 11 C 71 % 5.95 C
433 04-03-2019 12:00:00 11.2 C 69 % 5.73 C
434 04-03-2019 12:05:00 11.3 C 68 % 5.62 C
435 04-03-2019 12:10:00 11.4 C 68 % 5.71 C
436 04-03-2019 12:15:00 11.6 C 68 % 5.9 C
437 04-03-2019 12:20:00 11.8 C 67 % 5.88 C
438 04-03-2019 12:25:00 12 C 67 % 6.07 C
439 04-03-2019 12:30:00 11.9 C 68 % 6.19 C
440 04-03-2019 12:35:00 11.4 C 73 % 6.74 C
441 04-03-2019 12:40:00 10.6 C 78 % 6.93 C
442 04-03-2019 12:45:00 9.8 C 82 % 6.88 C
443 04-03-2019 12:50:00 9.5 C 83 % 6.76 C
444 04-03-2019 12:55:00 9.3 C 84 % 6.74 C
445 04-03-2019 13:00:00 8.8 C 86 % 6.59 C
446 04-03-2019 13:05:00 8.7 C 88 % 6.83 C
447 04-03-2019 13:10:00 9.1 C 90 % 7.55 C
448 04-03-2019 13:15:00 9.3 C 87 % 7.25 C
449 04-03-2019 13:20:00 9.4 C 86 % 7.18 C
450 04-03-2019 13:25:00 9.7 C 85 % 7.3 C
Sensor: Nr:Datum:Temp:Feuchte:Taupunkt:
Aussen-T/F 451 04-03-2019 13:30:00 9.9 C 83 % 7.15 C
452 04-03-2019 13:35:00 10.3 C 81 % 7.19 C
453 04-03-2019 13:40:00 10.5 C 80 % 7.2 C
454 04-03-2019 13:45:00 10.4 C 81 % 7.28 C
455 04-03-2019 13:50:00 10.4 C 81 % 7.28 C
456 04-03-2019 13:55:00 10.3 C 81 % 7.19 C
457 04-03-2019 14:00:00 10.2 C 82 % 7.27 C
458 04-03-2019 14:05:00 10.2 C 82 % 7.27 C
459 04-03-2019 14:10:00 10.1 C 84 % 7.52 C
460 04-03-2019 14:15:00 9.9 C 83 % 7.15 C
461 04-03-2019 14:20:00 9.9 C 83 % 7.15 C
462 04-03-2019 14:25:00 9.9 C 81 % 6.8 C
463 04-03-2019 14:30:00 9.8 C 81 % 6.7 C
464 04-03-2019 14:35:00 9.6 C 82 % 6.68 C
465 04-03-2019 14:40:00 9.1 C 84 % 6.54 C
466 04-03-2019 14:45:00 8.6 C 86 % 6.39 C
467 04-03-2019 14:50:00 8.2 C 86 % 6 C
468 04-03-2019 14:55:00 7.8 C 86 % 5.61 C
469 04-03-2019 15:00:00 7.6 C 85 % 5.24 C
470 04-03-2019 15:05:00 7.4 C 85 % 5.05 C
471 04-03-2019 15:10:00 7.2 C 86 % 5.02 C
472 04-03-2019 15:15:00 7.2 C 86 % 5.02 C
473 04-03-2019 15:20:00 7.1 C 86 % 4.92 C
474 04-03-2019 15:25:00 7.1 C 86 % 4.92 C
475 04-03-2019 15:30:00 6.9 C 85 % 4.56 C
Sensor: Nr:Datum:Temp:Feuchte:Taupunkt:
Aussen-T/F 476 04-03-2019 15:35:00 6.9 C 84 % 4.39 C
477 04-03-2019 15:40:00 6.9 C 84 % 4.39 C
478 04-03-2019 15:45:00 6.9 C 83 % 4.22 C
479 04-03-2019 15:50:00 6.9 C 82 % 4.05 C
480 04-03-2019 15:55:00 7.1 C 81 % 4.07 C
481 04-03-2019 16:00:00 7.3 C 81 % 4.26 C
482 04-03-2019 16:05:00 7.4 C 81 % 4.36 C
483 04-03-2019 16:10:00 7.4 C 81 % 4.36 C
484 04-03-2019 16:15:00 7.6 C 81 % 4.55 C
485 04-03-2019 16:20:00 7.6 C 80 % 4.38 C
486 04-03-2019 16:25:00 7.6 C 80 % 4.38 C
487 04-03-2019 16:30:00 7.6 C 79 % 4.2 C
488 04-03-2019 16:35:00 7.6 C 79 % 4.2 C
489 04-03-2019 16:40:00 7.6 C 78 % 4.02 C
490 04-03-2019 16:45:00 7.6 C 79 % 4.2 C
491 04-03-2019 16:50:00 7.6 C 79 % 4.2 C
492 04-03-2019 16:55:00 7.6 C 78 % 4.02 C
493 04-03-2019 17:00:00 7.6 C 78 % 4.02 C
494 04-03-2019 17:05:00 7.6 C 78 % 4.02 C
495 04-03-2019 17:10:00 7.6 C 78 % 4.02 C
496 04-03-2019 17:15:00 7.5 C 79 % 4.1 C
497 04-03-2019 17:20:00 7.4 C 78 % 3.82 C
498 04-03-2019 17:25:00 7.4 C 79 % 4 C
499 04-03-2019 17:30:00 7.3 C 79 % 3.91 C
500 04-03-2019 17:35:00 7.3 C 79 % 3.91 C
Sensor: Nr:Datum:Temp:Feuchte:Taupunkt:
Aussen-T/F 501 04-03-2019 17:40:00 7.3 C 79 % 3.91 C
502 04-03-2019 17:45:00 7.3 C 79 % 3.91 C
503 04-03-2019 17:50:00 7.3 C 79 % 3.91 C
504 04-03-2019 17:55:00 7.2 C 79 % 3.81 C
505 04-03-2019 18:00:00 7.2 C 79 % 3.81 C
506 04-03-2019 18:05:00 7.2 C 80 % 3.99 C
507 04-03-2019 18:10:00 7.1 C 80 % 3.89 C
508 04-03-2019 18:15:00 7 C 80 % 3.79 C
509 04-03-2019 18:20:00 6.9 C 81 % 3.87 C
510 04-03-2019 18:25:00 6.9 C 81 % 3.87 C
511 04-03-2019 18:30:00 7 C 80 % 3.79 C
512 04-03-2019 18:35:00 6.9 C 80 % 3.7 C
513 04-03-2019 18:40:00 6.9 C 81 % 3.87 C
514 04-03-2019 18:45:00 6.8 C 81 % 3.77 C
515 04-03-2019 18:50:00 6.8 C 81 % 3.77 C
516 04-03-2019 18:55:00 6.9 C 81 % 3.87 C
517 04-03-2019 19:00:00 6.9 C 81 % 3.87 C
518 04-03-2019 19:05:00 6.9 C 81 % 3.87 C
519 04-03-2019 19:10:00 6.9 C 81 % 3.87 C
520 04-03-2019 19:15:00 6.9 C 81 % 3.87 C
521 04-03-2019 19:20:00 6.9 C 81 % 3.87 C
522 04-03-2019 19:25:00 6.9 C 81 % 3.87 C
523 04-03-2019 19:30:00 6.9 C 81 % 3.87 C
524 04-03-2019 19:35:00 6.9 C 82 % 4.05 C
525 04-03-2019 19:40:00 6.8 C 82 % 3.95 C
Sensor: Nr:Datum:Temp:Feuchte:Taupunkt:
Aussen-T/F 526 04-03-2019 19:45:00 6.8 C 82 % 3.95 C
527 04-03-2019 19:50:00 6.8 C 82 % 3.95 C
528 04-03-2019 19:55:00 6.8 C 82 % 3.95 C
529 04-03-2019 20:00:00 6.9 C 82 % 4.05 C
530 04-03-2019 20:05:00 6.9 C 82 % 4.05 C
531 04-03-2019 20:10:00 6.9 C 82 % 4.05 C
532 04-03-2019 20:15:00 7 C 81 % 3.97 C
533 04-03-2019 20:20:00 7.1 C 81 % 4.07 C
534 04-03-2019 20:25:00 7.1 C 81 % 4.07 C
535 04-03-2019 20:30:00 7.1 C 81 % 4.07 C
536 04-03-2019 20:35:00 7.1 C 81 % 4.07 C
537 04-03-2019 20:40:00 6.9 C 81 % 3.87 C
538 04-03-2019 20:45:00 6.9 C 82 % 4.05 C
539 04-03-2019 20:50:00 6.8 C 82 % 3.95 C
540 04-03-2019 20:55:00 6.7 C 82 % 3.85 C
541 04-03-2019 21:00:00 6.6 C 83 % 3.92 C
542 04-03-2019 21:05:00 6.6 C 82 % 3.75 C
543 04-03-2019 21:10:00 6.6 C 83 % 3.92 C
544 04-03-2019 21:15:00 6.6 C 83 % 3.92 C
545 04-03-2019 21:20:00 6.6 C 83 % 3.92 C
546 04-03-2019 21:25:00 6.6 C 83 % 3.92 C
547 04-03-2019 21:30:00 6.6 C 83 % 3.92 C
548 04-03-2019 21:35:00 6.6 C 83 % 3.92 C
549 04-03-2019 21:40:00 6.6 C 84 % 4.1 C
550 04-03-2019 21:45:00 6.6 C 84 % 4.1 C
Sensor: Nr:Datum:Temp:Feuchte:Taupunkt:
Aussen-T/F 551 04-03-2019 21:50:00 6.7 C 84 % 4.19 C
552 04-03-2019 21:55:00 6.7 C 84 % 4.19 C
553 04-03-2019 22:00:00 6.9 C 85 % 4.56 C
554 04-03-2019 22:05:00 7 C 85 % 4.66 C
555 04-03-2019 22:10:00 7.1 C 84 % 4.58 C
556 04-03-2019 22:15:00 7.1 C 83 % 4.41 C
557 04-03-2019 22:20:00 7.2 C 82 % 4.34 C
558 04-03-2019 22:25:00 7.1 C 82 % 4.24 C
559 04-03-2019 22:30:00 7.1 C 82 % 4.24 C
560 04-03-2019 22:35:00 7.1 C 82 % 4.24 C
561 04-03-2019 22:40:00 7.1 C 82 % 4.24 C
562 04-03-2019 22:45:00 7.2 C 82 % 4.34 C
563 04-03-2019 22:50:00 7.1 C 82 % 4.24 C
564 04-03-2019 22:55:00 7.1 C 82 % 4.24 C
565 04-03-2019 23:00:00 7.1 C 82 % 4.24 C
566 04-03-2019 23:05:00 7.1 C 82 % 4.24 C
567 04-03-2019 23:10:00 6.9 C 82 % 4.05 C
568 04-03-2019 23:15:00 6.8 C 83 % 4.12 C
569 04-03-2019 23:20:00 6.7 C 83 % 4.02 C
570 04-03-2019 23:25:00 6.6 C 84 % 4.1 C
571 04-03-2019 23:30:00 6.6 C 84 % 4.1 C
572 04-03-2019 23:35:00 6.5 C 85 % 4.17 C
573 04-03-2019 23:40:00 6.5 C 85 % 4.17 C
574 04-03-2019 23:45:00 6.5 C 85 % 4.17 C
575 04-03-2019 23:50:00 6.5 C 85 % 4.17 C
Sensor: Nr:Datum:Temp:Feuchte:Taupunkt:
Aussen-T/F 576 04-03-2019 23:55:00 6.6 C 84 % 4.1 C
577 05-03-2019 00:00:00 6.6 C 84 % 4.1 C
578 05-03-2019 00:05:00 6.6 C 84 % 4.1 C
579 05-03-2019 00:10:00 6.7 C 83 % 4.02 C
580 05-03-2019 00:15:00 6.8 C 83 % 4.12 C
581 05-03-2019 00:20:00 6.9 C 82 % 4.05 C
582 05-03-2019 00:25:00 6.9 C 81 % 3.87 C
583 05-03-2019 00:30:00 7 C 81 % 3.97 C
584 05-03-2019 00:35:00 7 C 80 % 3.79 C
585 05-03-2019 00:40:00 7 C 80 % 3.79 C
586 05-03-2019 00:45:00 7 C 80 % 3.79 C
587 05-03-2019 00:50:00 7 C 80 % 3.79 C
588 05-03-2019 00:55:00 7 C 80 % 3.79 C
589 05-03-2019 01:00:00 6.9 C 80 % 3.7 C
590 05-03-2019 01:05:00 6.9 C 80 % 3.7 C
591 05-03-2019 01:10:00 6.9 C 80 % 3.7 C
592 05-03-2019 01:15:00 6.9 C 81 % 3.87 C
593 05-03-2019 01:20:00 6.9 C 80 % 3.7 C
594 05-03-2019 01:25:00 6.9 C 81 % 3.87 C
595 05-03-2019 01:30:00 6.8 C 81 % 3.77 C
596 05-03-2019 01:35:00 6.8 C 81 % 3.77 C
597 05-03-2019 01:40:00 6.9 C 81 % 3.87 C
598 05-03-2019 01:45:00 6.9 C 81 % 3.87 C
599 05-03-2019 01:50:00 6.9 C 80 % 3.7 C
600 05-03-2019 01:55:00 6.8 C 80 % 3.6 C
Sensor: Nr:Datum:Temp:Feuchte:Taupunkt:
Aussen-T/F 601 05-03-2019 02:00:00 6.8 C 80 % 3.6 C
602 05-03-2019 02:05:00 6.8 C 80 % 3.6 C
603 05-03-2019 02:10:00 6.8 C 80 % 3.6 C
604 05-03-2019 02:15:00 6.8 C 80 % 3.6 C
605 05-03-2019 02:20:00 6.7 C 80 % 3.5 C
606 05-03-2019 02:25:00 6.8 C 80 % 3.6 C
607 05-03-2019 02:30:00 6.8 C 80 % 3.6 C
608 05-03-2019 02:35:00 6.8 C 79 % 3.42 C
609 05-03-2019 02:40:00 6.8 C 80 % 3.6 C
610 05-03-2019 02:45:00 6.8 C 80 % 3.6 C
611 05-03-2019 02:50:00 6.8 C 80 % 3.6 C
612 05-03-2019 02:55:00 6.8 C 80 % 3.6 C
613 05-03-2019 03:00:00 6.8 C 80 % 3.6 C
614 05-03-2019 03:05:00 6.8 C 80 % 3.6 C
615 05-03-2019 03:10:00 6.8 C 80 % 3.6 C
616 05-03-2019 03:15:00 6.8 C 80 % 3.6 C
617 05-03-2019 03:20:00 6.8 C 80 % 3.6 C
618 05-03-2019 03:25:00 6.8 C 80 % 3.6 C
619 05-03-2019 03:30:00 6.8 C 81 % 3.77 C
620 05-03-2019 03:35:00 6.8 C 81 % 3.77 C
621 05-03-2019 03:40:00 6.7 C 81 % 3.68 C
622 05-03-2019 03:45:00 6.6 C 81 % 3.58 C
623 05-03-2019 03:50:00 6.6 C 81 % 3.58 C
624 05-03-2019 03:55:00 6.6 C 81 % 3.58 C
625 05-03-2019 04:00:00 6.6 C 81 % 3.58 C
Sensor: Nr:Datum:Temp:Feuchte:Taupunkt:
Aussen-T/F 626 05-03-2019 04:05:00 6.4 C 81 % 3.38 C
627 05-03-2019 04:10:00 6.4 C 81 % 3.38 C
628 05-03-2019 04:15:00 6.4 C 81 % 3.38 C
629 05-03-2019 04:20:00 6.4 C 81 % 3.38 C
630 05-03-2019 04:25:00 6.4 C 81 % 3.38 C
631 05-03-2019 04:30:00 6.4 C 81 % 3.38 C
632 05-03-2019 04:35:00 6.4 C 81 % 3.38 C
633 05-03-2019 04:40:00 6.4 C 81 % 3.38 C
634 05-03-2019 04:45:00 6.4 C 81 % 3.38 C
635 05-03-2019 04:50:00 6.4 C 81 % 3.38 C
636 05-03-2019 04:55:00 6.5 C 80 % 3.31 C
637 05-03-2019 05:00:00 6.5 C 81 % 3.48 C
638 05-03-2019 05:05:00 6.5 C 80 % 3.31 C
639 05-03-2019 05:10:00 6.4 C 81 % 3.38 C
640 05-03-2019 05:15:00 6.4 C 81 % 3.38 C
641 05-03-2019 05:20:00 6.3 C 81 % 3.29 C
642 05-03-2019 05:25:00 6.3 C 81 % 3.29 C
643 05-03-2019 05:30:00 6.3 C 81 % 3.29 C
644 05-03-2019 05:35:00 6.3 C 81 % 3.29 C
645 05-03-2019 05:40:00 6.3 C 81 % 3.29 C
646 05-03-2019 05:45:00 6.3 C 81 % 3.29 C
647 05-03-2019 05:50:00 6.3 C 81 % 3.29 C
648 05-03-2019 05:55:00 6.3 C 81 % 3.29 C
649 05-03-2019 06:00:00 6.3 C 80 % 3.11 C
650 05-03-2019 06:05:00 6.3 C 80 % 3.11 C
Sensor: Nr:Datum:Temp:Feuchte:Taupunkt:
Aussen-T/F 651 05-03-2019 06:10:00 6.3 C 80 % 3.11 C
652 05-03-2019 06:15:00 6.3 C 79 % 2.93 C
653 05-03-2019 06:20:00 6.2 C 80 % 3.01 C
654 05-03-2019 06:25:00 6.2 C 80 % 3.01 C
655 05-03-2019 06:30:00 6.1 C 80 % 2.92 C
656 05-03-2019 06:35:00 6.2 C 80 % 3.01 C
657 05-03-2019 06:40:00 6.2 C 80 % 3.01 C
658 05-03-2019 06:45:00 6.2 C 80 % 3.01 C
659 05-03-2019 06:50:00 6.3 C 79 % 2.93 C
660 05-03-2019 06:55:00 6.3 C 79 % 2.93 C
661 05-03-2019 07:00:00 6.3 C 79 % 2.93 C
662 05-03-2019 07:05:00 6.3 C 79 % 2.93 C
663 05-03-2019 07:10:00 6.3 C 80 % 3.11 C
664 05-03-2019 07:15:00 6.3 C 80 % 3.11 C
665 05-03-2019 07:20:00 6.4 C 80 % 3.21 C
666 05-03-2019 07:25:00 6.4 C 79 % 3.03 C
667 05-03-2019 07:30:00 6.5 C 79 % 3.13 C
668 05-03-2019 07:35:00 6.6 C 79 % 3.23 C
669 05-03-2019 07:40:00 6.6 C 79 % 3.23 C
670 05-03-2019 07:45:00 6.6 C 79 % 3.23 C
671 05-03-2019 07:50:00 6.7 C 79 % 3.32 C
672 05-03-2019 07:55:00 6.7 C 79 % 3.32 C
673 05-03-2019 08:00:00 6.7 C 80 % 3.5 C
674 05-03-2019 08:05:00 6.6 C 80 % 3.4 C
675 05-03-2019 08:10:00 6.6 C 80 % 3.4 C
Sensor: Nr:Datum:Temp:Feuchte:Taupunkt:
Aussen-T/F 676 05-03-2019 08:15:00 6.6 C 80 % 3.4 C
677 05-03-2019 08:20:00 6.6 C 80 % 3.4 C
678 05-03-2019 08:25:00 6.6 C 80 % 3.4 C
679 05-03-2019 08:30:00 6.6 C 80 % 3.4 C
680 05-03-2019 08:35:00 6.7 C 81 % 3.68 C
681 05-03-2019 08:40:00 6.7 C 80 % 3.5 C
682 05-03-2019 08:45:00 6.7 C 80 % 3.5 C
683 05-03-2019 08:50:00 6.7 C 80 % 3.5 C
684 05-03-2019 08:55:00 6.6 C 82 % 3.75 C
685 05-03-2019 09:00:00 6.6 C 83 % 3.92 C
686 05-03-2019 09:05:00 6.5 C 83 % 3.83 C
687 05-03-2019 09:10:00 6.5 C 82 % 3.66 C
688 05-03-2019 09:15:00 6.6 C 82 % 3.75 C
689 05-03-2019 09:20:00 6.6 C 82 % 3.75 C
690 05-03-2019 09:25:00 6.6 C 83 % 3.92 C
691 05-03-2019 09:30:00 6.6 C 83 % 3.92 C
692 05-03-2019 09:35:00 6.5 C 84 % 4 C
693 05-03-2019 09:40:00 6.4 C 84 % 3.9 C
694 05-03-2019 09:45:00 6.4 C 84 % 3.9 C
695 05-03-2019 09:50:00 6.4 C 85 % 4.07 C
696 05-03-2019 09:55:00 6.4 C 85 % 4.07 C
697 05-03-2019 10:00:00 6.4 C 85 % 4.07 C
698 05-03-2019 10:05:00 6.5 C 85 % 4.17 C
699 05-03-2019 10:10:00 6.5 C 86 % 4.33 C
700 05-03-2019 10:15:00 6.6 C 86 % 4.43 C
Sensor: Nr:Datum:Temp:Feuchte:Taupunkt:
Aussen-T/F 701 05-03-2019 10:20:00 6.6 C 85 % 4.26 C
702 05-03-2019 10:25:00 6.6 C 85 % 4.26 C
703 05-03-2019 10:30:00 6.7 C 85 % 4.36 C
704 05-03-2019 10:35:00 6.7 C 85 % 4.36 C
705 05-03-2019 10:40:00 6.7 C 85 % 4.36 C
706 05-03-2019 10:45:00 6.7 C 85 % 4.36 C
707 05-03-2019 10:50:00 6.7 C 85 % 4.36 C
708 05-03-2019 10:55:00 6.8 C 85 % 4.46 C
709 05-03-2019 11:00:00 6.8 C 85 % 4.46 C
710 05-03-2019 11:05:00 6.9 C 85 % 4.56 C
711 05-03-2019 11:10:00 6.9 C 85 % 4.56 C
712 05-03-2019 11:15:00 6.9 C 85 % 4.56 C
713 05-03-2019 11:20:00 6.9 C 84 % 4.39 C
714 05-03-2019 11:25:00 7 C 85 % 4.66 C
715 05-03-2019 11:30:00 7 C 85 % 4.66 C
716 05-03-2019 11:35:00 7 C 84 % 4.49 C
717 05-03-2019 11:40:00 7.1 C 84 % 4.58 C
718 05-03-2019 11:45:00 7.1 C 84 % 4.58 C
719 05-03-2019 11:50:00 7.1 C 83 % 4.41 C
720 05-03-2019 11:55:00 7.2 C 83 % 4.51 C
721 05-03-2019 12:00:00 7.2 C 83 % 4.51 C
722 05-03-2019 12:05:00 7.2 C 83 % 4.51 C
723 05-03-2019 12:10:00 7.3 C 82 % 4.44 C
724 05-03-2019 12:15:00 7.3 C 82 % 4.44 C
725 05-03-2019 12:20:00 7.3 C 81 % 4.26 C
Sensor: Nr:Datum:Temp:Feuchte:Taupunkt:
Aussen-T/F 726 05-03-2019 12:25:00 7.3 C 81 % 4.26 C
727 05-03-2019 12:30:00 7.3 C 81 % 4.26 C
728 05-03-2019 12:35:00 7.3 C 81 % 4.26 C
729 05-03-2019 12:40:00 7.3 C 81 % 4.26 C
730 05-03-2019 12:45:00 7.3 C 81 % 4.26 C
731 05-03-2019 12:50:00 7.4 C 82 % 4.53 C
732 05-03-2019 12:55:00 7.4 C 81 % 4.36 C
733 05-03-2019 13:00:00 7.5 C 81 % 4.46 C
734 05-03-2019 13:05:00 7.6 C 81 % 4.55 C
735 05-03-2019 13:10:00 7.7 C 81 % 4.65 C
736 05-03-2019 13:15:00 7.8 C 80 % 4.57 C
737 05-03-2019 13:20:00 7.9 C 80 % 4.67 C
738 05-03-2019 13:25:00 8 C 80 % 4.77 C
739 05-03-2019 13:30:00 8.1 C 80 % 4.86 C
740 05-03-2019 13:35:00 8.1 C 79 % 4.68 C
741 05-03-2019 13:40:00 8.2 C 79 % 4.78 C
742 05-03-2019 13:45:00 8.2 C 79 % 4.78 C
743 05-03-2019 13:50:00 8.2 C 79 % 4.78 C
744 05-03-2019 13:55:00 8.3 C 78 % 4.7 C
745 05-03-2019 14:00:00 8.3 C 78 % 4.7 C
746 05-03-2019 14:05:00 8.3 C 78 % 4.7 C
747 05-03-2019 14:10:00 8.5 C 78 % 4.89 C
748 05-03-2019 14:15:00 8.6 C 78 % 4.99 C
749 05-03-2019 14:20:00 8.7 C 78 % 5.08 C
750 05-03-2019 14:25:00 8.7 C 78 % 5.08 C
Sensor: Nr:Datum:Temp:Feuchte:Taupunkt:
Aussen-T/F 751 05-03-2019 14:30:00 8.7 C 78 % 5.08 C
752 05-03-2019 14:35:00 8.8 C 77 % 5 C
753 05-03-2019 14:40:00 8.8 C 77 % 5 C
754 05-03-2019 14:45:00 8.8 C 77 % 5 C
755 05-03-2019 14:50:00 8.8 C 76 % 4.81 C
756 05-03-2019 14:55:00 8.8 C 77 % 5 C
757 05-03-2019 15:00:00 8.8 C 76 % 4.81 C
758 05-03-2019 15:05:00 8.8 C 76 % 4.81 C
759 05-03-2019 15:10:00 8.8 C 76 % 4.81 C
760 05-03-2019 15:15:00 8.9 C 76 % 4.91 C
761 05-03-2019 15:20:00 8.8 C 76 % 4.81 C
762 05-03-2019 15:25:00 8.9 C 76 % 4.91 C
763 05-03-2019 15:30:00 9 C 75 % 4.81 C
764 05-03-2019 15:35:00 9.1 C 74 % 4.72 C
765 05-03-2019 15:40:00 9.1 C 73 % 4.52 C
766 05-03-2019 15:45:00 9.1 C 73 % 4.52 C
767 05-03-2019 15:50:00 9.1 C 74 % 4.72 C
768 05-03-2019 15:55:00 9.1 C 74 % 4.72 C
769 05-03-2019 16:00:00 9.1 C 75 % 4.91 C
770 05-03-2019 16:05:00 9.1 C 76 % 5.1 C
771 05-03-2019 16:10:00 9.2 C 76 % 5.2 C
772 05-03-2019 16:15:00 9.5 C 74 % 5.1 C
773 05-03-2019 16:20:00 9.9 C 72 % 5.1 C
774 05-03-2019 16:25:00 10.1 C 71 % 5.09 C
775 05-03-2019 16:30:00 10.1 C 71 % 5.09 C
Sensor: Nr:Datum:Temp:Feuchte:Taupunkt:
Aussen-T/F 776 05-03-2019 16:35:00 10.1 C 71 % 5.09 C
777 05-03-2019 16:40:00 10.1 C 72 % 5.29 C
778 05-03-2019 16:45:00 10.1 C 72 % 5.29 C
779 05-03-2019 16:50:00 10.2 C 71 % 5.18 C
780 05-03-2019 16:55:00 10.3 C 72 % 5.48 C
781 05-03-2019 17:00:00 10.3 C 71 % 5.28 C
782 05-03-2019 17:05:00 10.1 C 72 % 5.29 C
783 05-03-2019 17:10:00 10.1 C 72 % 5.29 C
784 05-03-2019 17:15:00 10.1 C 73 % 5.49 C
785 05-03-2019 17:20:00 10 C 71 % 4.99 C
786 05-03-2019 17:25:00 9.7 C 72 % 4.9 C
787 05-03-2019 17:30:00 9.3 C 74 % 4.91 C
788 05-03-2019 17:35:00 9.1 C 75 % 4.91 C
789 05-03-2019 17:40:00 8.7 C 76 % 4.71 C
790 05-03-2019 17:45:00 8.4 C 77 % 4.61 C
791 05-03-2019 17:50:00 8.2 C 78 % 4.6 C
792 05-03-2019 17:55:00 8.1 C 79 % 4.68 C
793 05-03-2019 18:00:00 7.8 C 79 % 4.39 C
794 05-03-2019 18:05:00 7.7 C 80 % 4.47 C
795 05-03-2019 18:10:00 7.5 C 80 % 4.28 C
796 05-03-2019 18:15:00 7.3 C 81 % 4.26 C
797 05-03-2019 18:20:00 7.2 C 81 % 4.16 C
798 05-03-2019 18:25:00 7.1 C 81 % 4.07 C
799 05-03-2019 18:30:00 7 C 81 % 3.97 C
800 05-03-2019 18:35:00 6.9 C 81 % 3.87 C
Sensor: Nr:Datum:Temp:Feuchte:Taupunkt:
Aussen-T/F 801 05-03-2019 18:40:00 6.8 C 81 % 3.77 C
802 05-03-2019 18:45:00 6.8 C 81 % 3.77 C
803 05-03-2019 18:50:00 6.8 C 81 % 3.77 C
804 05-03-2019 18:55:00 6.7 C 81 % 3.68 C
805 05-03-2019 19:00:00 6.7 C 82 % 3.85 C
806 05-03-2019 19:05:00 6.6 C 82 % 3.75 C
807 05-03-2019 19:10:00 6.7 C 82 % 3.85 C
808 05-03-2019 19:15:00 6.7 C 82 % 3.85 C
809 05-03-2019 19:20:00 6.6 C 82 % 3.75 C
810 05-03-2019 19:25:00 6.6 C 82 % 3.75 C
811 05-03-2019 19:30:00 6.6 C 83 % 3.92 C
812 05-03-2019 19:35:00 6.6 C 83 % 3.92 C
813 05-03-2019 19:40:00 6.4 C 83 % 3.73 C
814 05-03-2019 19:45:00 6.4 C 83 % 3.73 C
815 05-03-2019 19:50:00 6.4 C 83 % 3.73 C
816 05-03-2019 19:55:00 6.3 C 83 % 3.63 C
817 05-03-2019 20:00:00 6.3 C 83 % 3.63 C
818 05-03-2019 20:05:00 6.2 C 83 % 3.53 C
819 05-03-2019 20:10:00 6 C 84 % 3.51 C
820 05-03-2019 20:15:00 5.8 C 84 % 3.31 C
821 05-03-2019 20:20:00 5.7 C 84 % 3.21 C
822 05-03-2019 20:25:00 5.5 C 85 % 3.18 C
823 05-03-2019 20:30:00 5.3 C 85 % 2.99 C
824 05-03-2019 20:35:00 5.2 C 86 % 3.05 C
825 05-03-2019 20:40:00 5.1 C 87 % 3.12 C
Sensor: Nr:Datum:Temp:Feuchte:Taupunkt:
Aussen-T/F 826 05-03-2019 20:45:00 5 C 87 % 3.02 C
827 05-03-2019 20:50:00 4.8 C 87 % 2.82 C
828 05-03-2019 20:55:00 4.7 C 87 % 2.73 C
829 05-03-2019 21:00:00 4.6 C 87 % 2.63 C
830 05-03-2019 21:05:00 4.4 C 88 % 2.59 C
831 05-03-2019 21:10:00 4.3 C 88 % 2.49 C
832 05-03-2019 21:15:00 4.2 C 88 % 2.39 C
833 05-03-2019 21:20:00 4.2 C 89 % 2.55 C
834 05-03-2019 21:25:00 4.2 C 90 % 2.71 C
835 05-03-2019 21:30:00 4.2 C 90 % 2.71 C
836 05-03-2019 21:35:00 4.2 C 90 % 2.71 C
837 05-03-2019 21:40:00 4.2 C 91 % 2.87 C
838 05-03-2019 21:45:00 4.2 C 91 % 2.87 C
839 05-03-2019 21:50:00 4.3 C 91 % 2.96 C
840 05-03-2019 21:55:00 4.3 C 91 % 2.96 C
841 05-03-2019 22:00:00 4.3 C 92 % 3.12 C
842 05-03-2019 22:05:00 4.4 C 92 % 3.22 C
843 05-03-2019 22:10:00 4.6 C 92 % 3.42 C
844 05-03-2019 22:15:00 4.7 C 92 % 3.51 C
845 05-03-2019 22:20:00 4.7 C 92 % 3.51 C
846 05-03-2019 22:25:00 4.8 C 92 % 3.61 C
847 05-03-2019 22:30:00 4.8 C 92 % 3.61 C
848 05-03-2019 22:35:00 4.8 C 92 % 3.61 C
849 05-03-2019 22:40:00 4.8 C 92 % 3.61 C
850 05-03-2019 22:45:00 4.8 C 92 % 3.61 C
Sensor: Nr:Datum:Temp:Feuchte:Taupunkt:
Aussen-T/F 851 05-03-2019 22:50:00 4.9 C 92 % 3.71 C
852 05-03-2019 22:55:00 4.9 C 92 % 3.71 C
853 05-03-2019 23:00:00 4.9 C 92 % 3.71 C
854 05-03-2019 23:05:00 5 C 92 % 3.81 C
855 05-03-2019 23:10:00 5.1 C 92 % 3.91 C
856 05-03-2019 23:15:00 5.2 C 92 % 4.01 C
857 05-03-2019 23:20:00 5.2 C 92 % 4.01 C
858 05-03-2019 23:25:00 5.3 C 92 % 4.11 C
859 05-03-2019 23:30:00 5.4 C 92 % 4.21 C
860 05-03-2019 23:35:00 5.4 C 92 % 4.21 C
861 05-03-2019 23:40:00 5.4 C 92 % 4.21 C
862 05-03-2019 23:45:00 5.4 C 92 % 4.21 C
863 05-03-2019 23:50:00 5.4 C 92 % 4.21 C
864 05-03-2019 23:55:00 5.5 C 92 % 4.31 C
865 06-03-2019 00:00:00 5.5 C 92 % 4.31 C
866 06-03-2019 00:05:00 5.5 C 92 % 4.31 C
867 06-03-2019 00:10:00 5.5 C 92 % 4.31 C
868 06-03-2019 00:15:00 5.6 C 92 % 4.41 C
869 06-03-2019 00:20:00 5.6 C 92 % 4.41 C
870 06-03-2019 00:25:00 5.6 C 92 % 4.41 C
871 06-03-2019 00:30:00 5.7 C 91 % 4.35 C
872 06-03-2019 00:35:00 5.7 C 91 % 4.35 C
873 06-03-2019 00:40:00 5.7 C 91 % 4.35 C
874 06-03-2019 00:45:00 5.7 C 91 % 4.35 C
875 06-03-2019 00:50:00 5.8 C 92 % 4.6 C
Sensor: Nr:Datum:Temp:Feuchte:Taupunkt:
Aussen-T/F 876 06-03-2019 00:55:00 5.9 C 92 % 4.7 C
877 06-03-2019 01:00:00 5.9 C 92 % 4.7 C
878 06-03-2019 01:05:00 6.1 C 92 % 4.9 C
879 06-03-2019 01:10:00 6.1 C 92 % 4.9 C
880 06-03-2019 01:15:00 6.1 C 91 % 4.74 C
881 06-03-2019 01:20:00 6.1 C 91 % 4.74 C
882 06-03-2019 01:25:00 6.1 C 91 % 4.74 C
883 06-03-2019 01:30:00 6.1 C 91 % 4.74 C
884 06-03-2019 01:35:00 6.1 C 91 % 4.74 C
885 06-03-2019 01:40:00 6.1 C 92 % 4.9 C
886 06-03-2019 01:45:00 6.2 C 92 % 5 C
887 06-03-2019 01:50:00 6.4 C 92 % 5.2 C
888 06-03-2019 01:55:00 6.5 C 92 % 5.3 C
889 06-03-2019 02:00:00 6.7 C 91 % 5.34 C
890 06-03-2019 02:05:00 6.8 C 91 % 5.44 C
891 06-03-2019 02:10:00 6.8 C 91 % 5.44 C
892 06-03-2019 02:15:00 6.9 C 90 % 5.38 C
893 06-03-2019 02:20:00 7 C 90 % 5.48 C
894 06-03-2019 02:25:00 7.1 C 90 % 5.57 C
895 06-03-2019 02:30:00 7.1 C 90 % 5.57 C
896 06-03-2019 02:35:00 7.2 C 89 % 5.51 C
897 06-03-2019 02:40:00 7.2 C 89 % 5.51 C
898 06-03-2019 02:45:00 7.2 C 89 % 5.51 C
899 06-03-2019 02:50:00 7.2 C 89 % 5.51 C
900 06-03-2019 02:55:00 7.2 C 89 % 5.51 C
Sensor: Nr:Datum:Temp:Feuchte:Taupunkt:
Aussen-T/F 901 06-03-2019 03:00:00 7.2 C 89 % 5.51 C
902 06-03-2019 03:05:00 7.2 C 89 % 5.51 C
903 06-03-2019 03:10:00 7.2 C 89 % 5.51 C
904 06-03-2019 03:15:00 7.1 C 89 % 5.41 C
905 06-03-2019 03:20:00 7.1 C 89 % 5.41 C
906 06-03-2019 03:25:00 7 C 89 % 5.31 C
907 06-03-2019 03:30:00 6.9 C 90 % 5.38 C
908 06-03-2019 03:35:00 6.9 C 90 % 5.38 C
909 06-03-2019 03:40:00 6.9 C 90 % 5.38 C
910 06-03-2019 03:45:00 6.9 C 90 % 5.38 C
911 06-03-2019 03:50:00 6.8 C 90 % 5.28 C
912 06-03-2019 03:55:00 6.8 C 90 % 5.28 C
913 06-03-2019 04:00:00 6.8 C 91 % 5.44 C
914 06-03-2019 04:05:00 6.8 C 91 % 5.44 C
915 06-03-2019 04:10:00 6.8 C 91 % 5.44 C
916 06-03-2019 04:15:00 6.8 C 91 % 5.44 C
917 06-03-2019 04:20:00 6.7 C 91 % 5.34 C
918 06-03-2019 04:25:00 6.7 C 91 % 5.34 C
919 06-03-2019 04:30:00 6.6 C 91 % 5.24 C
920 06-03-2019 04:35:00 6.7 C 91 % 5.34 C
921 06-03-2019 04:40:00 6.8 C 92 % 5.59 C
922 06-03-2019 04:45:00 6.9 C 91 % 5.54 C
923 06-03-2019 04:50:00 7.1 C 91 % 5.73 C
924 06-03-2019 04:55:00 7.1 C 90 % 5.57 C
925 06-03-2019 05:00:00 7.2 C 90 % 5.67 C
Sensor: Nr:Datum:Temp:Feuchte:Taupunkt:
Aussen-T/F 926 06-03-2019 05:05:00 7.2 C 90 % 5.67 C
927 06-03-2019 05:10:00 7.3 C 90 % 5.77 C
928 06-03-2019 05:15:00 7.3 C 89 % 5.61 C
929 06-03-2019 05:20:00 7.3 C 89 % 5.61 C
930 06-03-2019 05:25:00 7.3 C 89 % 5.61 C
931 06-03-2019 05:30:00 7.2 C 89 % 5.51 C
932 06-03-2019 05:35:00 7.2 C 89 % 5.51 C
933 06-03-2019 05:40:00 7.1 C 89 % 5.41 C
934 06-03-2019 05:45:00 7.1 C 89 % 5.41 C
935 06-03-2019 05:50:00 7 C 89 % 5.31 C
936 06-03-2019 05:55:00 6.9 C 89 % 5.22 C
937 06-03-2019 06:00:00 6.8 C 89 % 5.12 C
938 06-03-2019 06:05:00 6.8 C 90 % 5.28 C
939 06-03-2019 06:10:00 6.8 C 90 % 5.28 C
940 06-03-2019 06:15:00 6.8 C 90 % 5.28 C
941 06-03-2019 06:20:00 6.7 C 89 % 5.02 C
942 06-03-2019 06:25:00 6.6 C 89 % 4.92 C
943 06-03-2019 06:30:00 6.4 C 89 % 4.72 C
944 06-03-2019 06:35:00 6.2 C 89 % 4.53 C
945 06-03-2019 06:40:00 6 C 89 % 4.33 C
946 06-03-2019 06:45:00 5.9 C 90 % 4.39 C
947 06-03-2019 06:50:00 5.9 C 91 % 4.55 C
948 06-03-2019 06:55:00 6 C 91 % 4.65 C
949 06-03-2019 07:00:00 5.9 C 90 % 4.39 C
950 06-03-2019 07:05:00 5.8 C 90 % 4.29 C
Sensor: Nr:Datum:Temp:Feuchte:Taupunkt:
Aussen-T/F 951 06-03-2019 07:10:00 5.6 C 90 % 4.09 C
952 06-03-2019 07:15:00 5.4 C 90 % 3.89 C
953 06-03-2019 07:20:00 5.4 C 91 % 4.05 C
954 06-03-2019 07:25:00 5.3 C 91 % 3.95 C
955 06-03-2019 07:30:00 5.3 C 92 % 4.11 C
956 06-03-2019 07:35:00 5.3 C 92 % 4.11 C
957 06-03-2019 07:40:00 5.3 C 92 % 4.11 C
958 06-03-2019 07:45:00 5.3 C 92 % 4.11 C
959 06-03-2019 07:50:00 5.3 C 92 % 4.11 C
960 06-03-2019 07:55:00 5.4 C 93 % 4.36 C
961 06-03-2019 08:00:00 5.4 C 93 % 4.36 C
962 06-03-2019 08:05:00 5.6 C 93 % 4.56 C
963 06-03-2019 08:10:00 5.8 C 93 % 4.76 C
964 06-03-2019 08:15:00 5.9 C 93 % 4.86 C
965 06-03-2019 08:20:00 6.1 C 93 % 5.06 C
966 06-03-2019 08:25:00 6.3 C 92 % 5.1 C
967 06-03-2019 08:30:00 6.5 C 91 % 5.14 C
968 06-03-2019 08:35:00 6.7 C 91 % 5.34 C
969 06-03-2019 08:40:00 6.9 C 90 % 5.38 C
970 06-03-2019 08:45:00 7.2 C 88 % 5.35 C
971 06-03-2019 08:50:00 7.3 C 88 % 5.45 C
972 06-03-2019 08:55:00 7.5 C 87 % 5.48 C
973 06-03-2019 09:00:00 7.6 C 86 % 5.41 C
974 06-03-2019 09:05:00 7.7 C 86 % 5.51 C
975 06-03-2019 09:10:00 7.8 C 86 % 5.61 C
Sensor: Nr:Datum:Temp:Feuchte:Taupunkt:
Aussen-T/F 976 06-03-2019 09:15:00 7.9 C 85 % 5.54 C
977 06-03-2019 09:20:00 8 C 85 % 5.64 C
978 06-03-2019 09:25:00 8.1 C 85 % 5.73 C
979 06-03-2019 09:30:00 8.2 C 84 % 5.66 C
980 06-03-2019 09:35:00 8.3 C 84 % 5.76 C
981 06-03-2019 09:40:00 8.4 C 83 % 5.69 C
982 06-03-2019 09:45:00 8.5 C 83 % 5.78 C
983 06-03-2019 09:50:00 8.6 C 83 % 5.88 C
984 06-03-2019 09:55:00 8.8 C 82 % 5.9 C
985 06-03-2019 10:00:00 8.9 C 82 % 6 C
986 06-03-2019 10:05:00 9.2 C 81 % 6.11 C
987 06-03-2019 10:10:00 9.3 C 80 % 6.03 C
988 06-03-2019 10:15:00 9.6 C 79 % 6.14 C
989 06-03-2019 10:20:00 9.7 C 78 % 6.06 C
990 06-03-2019 10:25:00 9.9 C 77 % 6.06 C
991 06-03-2019 10:30:00 10.2 C 76 % 6.16 C
992 06-03-2019 10:35:00 10.4 C 73 % 5.78 C
993 06-03-2019 10:40:00 10.6 C 73 % 5.97 C
994 06-03-2019 10:45:00 10.7 C 73 % 6.07 C
995 06-03-2019 10:50:00 10.8 C 72 % 5.96 C
996 06-03-2019 10:55:00 10.8 C 72 % 5.96 C
997 06-03-2019 11:00:00 10.9 C 71 % 5.86 C
998 06-03-2019 11:05:00 11.1 C 70 % 5.84 C
999 06-03-2019 11:10:00 11.3 C 69 % 5.83 C
1000 06-03-2019 11:15:00 11.6 C 68 % 5.9 C
Sensor: Nr:Datum:Temp:Feuchte:Taupunkt:
Aussen-T/F 1001 06-03-2019 11:20:00 11.8 C 67 % 5.88 C
1002 06-03-2019 11:25:00 12.1 C 66 % 5.95 C
1003 06-03-2019 11:30:00 12.4 C 65 % 6.01 C
1004 06-03-2019 11:35:00 12.7 C 64 % 6.07 C
1005 06-03-2019 11:40:00 13 C 62 % 5.9 C
1006 06-03-2019 11:45:00 13.3 C 61 % 5.95 C
1007 06-03-2019 11:50:00 13.5 C 62 % 6.37 C
1008 06-03-2019 11:55:00 13.6 C 60 % 5.99 C
1009 06-03-2019 12:00:00 13.6 C 59 % 5.75 C
1010 06-03-2019 12:05:00 13.5 C 58 % 5.41 C
1011 06-03-2019 12:10:00 13.4 C 59 % 5.56 C
1012 06-03-2019 12:15:00 13.4 C 59 % 5.56 C
1013 06-03-2019 12:20:00 13.3 C 58 % 5.22 C
1014 06-03-2019 12:25:00 13.4 C 60 % 5.8 C
1015 06-03-2019 12:30:00 13.3 C 58 % 5.22 C
1016 06-03-2019 12:35:00 13.2 C 59 % 5.37 C
1017 06-03-2019 12:40:00 13.2 C 59 % 5.37 C
1018 06-03-2019 12:45:00 13.2 C 59 % 5.37 C
1019 06-03-2019 12:50:00 13.1 C 61 % 5.76 C
1020 06-03-2019 12:55:00 13.2 C 62 % 6.09 C
1021 06-03-2019 13:00:00 13.2 C 61 % 5.85 C
1022 06-03-2019 13:05:00 13.2 C 59 % 5.37 C
1023 06-03-2019 13:10:00 13.3 C 60 % 5.71 C
1024 06-03-2019 13:15:00 13.3 C 63 % 6.41 C
1025 06-03-2019 13:20:00 13.4 C 61 % 6.04 C
Sensor: Nr:Datum:Temp:Feuchte:Taupunkt:
Aussen-T/F 1026 06-03-2019 13:25:00 13.4 C 60 % 5.8 C
1027 06-03-2019 13:30:00 13.4 C 61 % 6.04 C
1028 06-03-2019 13:35:00 13.4 C 60 % 5.8 C
1029 06-03-2019 13:40:00 13.4 C 62 % 6.28 C
1030 06-03-2019 13:45:00 13.4 C 60 % 5.8 C
1031 06-03-2019 13:50:00 13.5 C 62 % 6.37 C
1032 06-03-2019 13:55:00 13.6 C 63 % 6.7 C
1033 06-03-2019 14:00:00 13.6 C 63 % 6.7 C
1034 06-03-2019 14:05:00 13.6 C 61 % 6.23 C
1035 06-03-2019 14:10:00 13.6 C 62 % 6.47 C
1036 06-03-2019 14:15:00 13.5 C 62 % 6.37 C
1037 06-03-2019 14:20:00 13.5 C 62 % 6.37 C
1038 06-03-2019 14:25:00 13.5 C 62 % 6.37 C
1039 06-03-2019 14:30:00 13.5 C 62 % 6.37 C
1040 06-03-2019 14:35:00 13.6 C 63 % 6.7 C
1041 06-03-2019 14:40:00 13.8 C 62 % 6.65 C
1042 06-03-2019 14:45:00 13.9 C 61 % 6.51 C
1043 06-03-2019 14:50:00 14.1 C 61 % 6.7 C
1044 06-03-2019 14:55:00 14.2 C 60 % 6.56 C
1045 06-03-2019 15:00:00 14.3 C 60 % 6.65 C
1046 06-03-2019 15:05:00 14.4 C 61 % 6.98 C
1047 06-03-2019 15:10:00 14.4 C 60 % 6.74 C
1048 06-03-2019 15:15:00 14.5 C 60 % 6.84 C
1049 06-03-2019 15:20:00 14.6 C 59 % 6.69 C
1050 06-03-2019 15:25:00 14.6 C 58 % 6.44 C
Sensor: Nr:Datum:Temp:Feuchte:Taupunkt:
Aussen-T/F 1051 06-03-2019 15:30:00 14.6 C 57 % 6.19 C
1052 06-03-2019 15:35:00 14.6 C 59 % 6.69 C
1053 06-03-2019 15:40:00 14.7 C 59 % 6.78 C
1054 06-03-2019 15:45:00 14.7 C 58 % 6.53 C
1055 06-03-2019 15:50:00 14.7 C 58 % 6.53 C
1056 06-03-2019 15:55:00 14.7 C 56 % 6.02 C
1057 06-03-2019 16:00:00 14.8 C 55 % 5.86 C
1058 06-03-2019 16:05:00 15 C 54 % 5.78 C
1059 06-03-2019 16:10:00 15.1 C 56 % 6.4 C
1060 06-03-2019 16:15:00 15.2 C 56 % 6.49 C
1061 06-03-2019 16:20:00 15.2 C 55 % 6.23 C
1062 06-03-2019 16:25:00 15.3 C 55 % 6.32 C
1063 06-03-2019 16:30:00 15.4 C 53 % 5.88 C
1064 06-03-2019 16:35:00 15.4 C 54 % 6.15 C
1065 06-03-2019 16:40:00 15.4 C 56 % 6.68 C
1066 06-03-2019 16:45:00 15.4 C 62 % 8.16 C
1067 06-03-2019 16:50:00 15.2 C 64 % 8.44 C
1068 06-03-2019 16:55:00 14.9 C 69 % 9.27 C
1069 06-03-2019 17:00:00 14.6 C 70 % 9.2 C
1070 06-03-2019 17:05:00 14.3 C 71 % 9.12 C
1071 06-03-2019 17:10:00 14.1 C 71 % 8.93 C
1072 06-03-2019 17:15:00 13.9 C 72 % 8.94 C
1073 06-03-2019 17:20:00 13.8 C 68 % 8 C
1074 06-03-2019 17:25:00 13.7 C 67 % 7.69 C
1075 06-03-2019 17:30:00 13.8 C 66 % 7.57 C
Sensor: Nr:Datum:Temp:Feuchte:Taupunkt:
Aussen-T/F 1076 06-03-2019 17:35:00 13.8 C 66 % 7.57 C
1077 06-03-2019 17:40:00 13.8 C 66 % 7.57 C
1078 06-03-2019 17:45:00 13.8 C 67 % 7.79 C
1079 06-03-2019 17:50:00 13.8 C 67 % 7.79 C
1080 06-03-2019 17:55:00 13.8 C 68 % 8 C
1081 06-03-2019 18:00:00 13.7 C 69 % 8.12 C
1082 06-03-2019 18:05:00 13.6 C 70 % 8.24 C
1083 06-03-2019 18:10:00 13.4 C 70 % 8.05 C
1084 06-03-2019 18:15:00 13.3 C 70 % 7.95 C
1085 06-03-2019 18:20:00 13.2 C 71 % 8.06 C
1086 06-03-2019 18:25:00 13.1 C 73 % 8.38 C
1087 06-03-2019 18:30:00 12.9 C 74 % 8.38 C
1088 06-03-2019 18:35:00 12.7 C 74 % 8.19 C
1089 06-03-2019 18:40:00 12.6 C 75 % 8.29 C
1090 06-03-2019 18:45:00 12.6 C 74 % 8.09 C
1091 06-03-2019 18:50:00 12.5 C 75 % 8.19 C
1092 06-03-2019 18:55:00 12.5 C 76 % 8.39 C
1093 06-03-2019 19:00:00 12.4 C 77 % 8.49 C
1094 06-03-2019 19:05:00 12.2 C 79 % 8.67 C
1095 06-03-2019 19:10:00 12 C 77 % 8.1 C
1096 06-03-2019 19:15:00 12 C 79 % 8.48 C
1097 06-03-2019 19:20:00 11.9 C 81 % 8.75 C
1098 06-03-2019 19:25:00 11.7 C 82 % 8.73 C
1099 06-03-2019 19:30:00 11.5 C 82 % 8.54 C
1100 06-03-2019 19:35:00 11.4 C 83 % 8.62 C
Sensor: Nr:Datum:Temp:Feuchte:Taupunkt:
Aussen-T/F 1101 06-03-2019 19:40:00 11.3 C 83 % 8.52 C
1102 06-03-2019 19:45:00 11.3 C 84 % 8.7 C
1103 06-03-2019 19:50:00 11.2 C 84 % 8.6 C
1104 06-03-2019 19:55:00 11 C 84 % 8.4 C
1105 06-03-2019 20:00:00 11 C 84 % 8.4 C
1106 06-03-2019 20:05:00 10.9 C 84 % 8.31 C
1107 06-03-2019 20:10:00 10.9 C 84 % 8.31 C
1108 06-03-2019 20:15:00 10.8 C 85 % 8.38 C
1109 06-03-2019 20:20:00 10.7 C 85 % 8.28 C
1110 06-03-2019 20:25:00 10.6 C 85 % 8.19 C
1111 06-03-2019 20:30:00 10.6 C 85 % 8.19 C
1112 06-03-2019 20:35:00 10.6 C 85 % 8.19 C
1113 06-03-2019 20:40:00 10.5 C 85 % 8.09 C
1114 06-03-2019 20:45:00 10.4 C 85 % 7.99 C
1115 06-03-2019 20:50:00 10.4 C 85 % 7.99 C
1116 06-03-2019 20:55:00 10.4 C 86 % 8.16 C
1117 06-03-2019 21:00:00 10.4 C 85 % 7.99 C
1118 06-03-2019 21:05:00 10.6 C 84 % 8.01 C
1119 06-03-2019 21:10:00 10.7 C 85 % 8.28 C
1120 06-03-2019 21:15:00 10.7 C 84 % 8.11 C
1121 06-03-2019 21:20:00 10.7 C 84 % 8.11 C
1122 06-03-2019 21:25:00 10.7 C 84 % 8.11 C
1123 06-03-2019 21:30:00 10.8 C 83 % 8.03 C
1124 06-03-2019 21:35:00 10.8 C 84 % 8.21 C
1125 06-03-2019 21:40:00 10.7 C 84 % 8.11 C
Sensor: Nr:Datum:Temp:Feuchte:Taupunkt:
Aussen-T/F 1126 06-03-2019 21:45:00 10.7 C 84 % 8.11 C
1127 06-03-2019 21:50:00 10.7 C 84 % 8.11 C
1128 06-03-2019 21:55:00 10.6 C 84 % 8.01 C
1129 06-03-2019 22:00:00 10.6 C 85 % 8.19 C
1130 06-03-2019 22:05:00 10.6 C 84 % 8.01 C
1131 06-03-2019 22:10:00 10.6 C 85 % 8.19 C
1132 06-03-2019 22:15:00 10.6 C 84 % 8.01 C
1133 06-03-2019 22:20:00 10.7 C 84 % 8.11 C
1134 06-03-2019 22:25:00 10.7 C 84 % 8.11 C
1135 06-03-2019 22:30:00 10.7 C 84 % 8.11 C
1136 06-03-2019 22:35:00 10.7 C 84 % 8.11 C
1137 06-03-2019 22:40:00 10.7 C 84 % 8.11 C
1138 06-03-2019 22:45:00 10.7 C 84 % 8.11 C
1139 06-03-2019 22:50:00 10.7 C 84 % 8.11 C
1140 06-03-2019 22:55:00 10.7 C 84 % 8.11 C
1141 06-03-2019 23:00:00 10.7 C 84 % 8.11 C
1142 06-03-2019 23:05:00 10.8 C 84 % 8.21 C
1143 06-03-2019 23:10:00 10.8 C 84 % 8.21 C
1144 06-03-2019 23:15:00 10.8 C 83 % 8.03 C
1145 06-03-2019 23:20:00 10.9 C 81 % 7.77 C
1146 06-03-2019 23:25:00 11.1 C 81 % 7.97 C
1147 06-03-2019 23:30:00 11.2 C 80 % 7.88 C
1148 06-03-2019 23:35:00 11.4 C 80 % 8.08 C
1149 06-03-2019 23:40:00 11.5 C 80 % 8.17 C
1150 06-03-2019 23:45:00 11.6 C 79 % 8.09 C
Sensor: Nr:Datum:Temp:Feuchte:Taupunkt:
Aussen-T/F 1151 06-03-2019 23:50:00 11.7 C 79 % 8.18 C
1152 06-03-2019 23:55:00 11.6 C 81 % 8.45 C
1153 07-03-2019 00:00:00 11.4 C 81 % 8.26 C
1154 07-03-2019 00:05:00 11.3 C 82 % 8.34 C
1155 07-03-2019 00:10:00 11.1 C 83 % 8.33 C
1156 07-03-2019 00:15:00 11.1 C 83 % 8.33 C
1157 07-03-2019 00:20:00 11.1 C 82 % 8.15 C
1158 07-03-2019 00:25:00 11.2 C 83 % 8.42 C
1159 07-03-2019 00:30:00 11.2 C 84 % 8.6 C
1160 07-03-2019 00:35:00 11.1 C 85 % 8.68 C
1161 07-03-2019 00:40:00 10.9 C 85 % 8.48 C
1162 07-03-2019 00:45:00 10.8 C 85 % 8.38 C
1163 07-03-2019 00:50:00 10.7 C 85 % 8.28 C
1164 07-03-2019 00:55:00 10.8 C 86 % 8.56 C
1165 07-03-2019 01:00:00 10.8 C 86 % 8.56 C
1166 07-03-2019 01:05:00 10.8 C 86 % 8.56 C
1167 07-03-2019 01:10:00 10.9 C 86 % 8.65 C
1168 07-03-2019 01:15:00 10.9 C 87 % 8.82 C
1169 07-03-2019 01:20:00 11 C 87 % 8.92 C
1170 07-03-2019 01:25:00 11.1 C 87 % 9.02 C
1171 07-03-2019 01:30:00 11.1 C 87 % 9.02 C
1172 07-03-2019 01:35:00 11.1 C 88 % 9.19 C
1173 07-03-2019 01:40:00 11 C 88 % 9.09 C
1174 07-03-2019 01:45:00 10.9 C 89 % 9.16 C
1175 07-03-2019 01:50:00 10.8 C 89 % 9.06 C
Sensor: Nr:Datum:Temp:Feuchte:Taupunkt:
Aussen-T/F 1176 07-03-2019 01:55:00 10.8 C 90 % 9.23 C
1177 07-03-2019 02:00:00 10.7 C 91 % 9.29 C
1178 07-03-2019 02:05:00 10.6 C 91 % 9.19 C
1179 07-03-2019 02:10:00 10.4 C 91 % 9 C
1180 07-03-2019 02:15:00 10.3 C 91 % 8.9 C
1181 07-03-2019 02:20:00 10.1 C 91 % 8.7 C
1182 07-03-2019 02:25:00 9.9 C 91 % 8.5 C
1183 07-03-2019 02:30:00 9.8 C 91 % 8.4 C
1184 07-03-2019 02:35:00 9.7 C 92 % 8.46 C
1185 07-03-2019 02:40:00 9.7 C 92 % 8.46 C
1186 07-03-2019 02:45:00 9.7 C 93 % 8.62 C
1187 07-03-2019 02:50:00 9.7 C 93 % 8.62 C
1188 07-03-2019 02:55:00 9.7 C 93 % 8.62 C
1189 07-03-2019 03:00:00 9.7 C 93 % 8.62 C
1190 07-03-2019 03:05:00 9.7 C 93 % 8.62 C
1191 07-03-2019 03:10:00 9.7 C 93 % 8.62 C
1192 07-03-2019 03:15:00 9.6 C 93 % 8.53 C
1193 07-03-2019 03:20:00 9.6 C 93 % 8.53 C
1194 07-03-2019 03:25:00 9.6 C 93 % 8.53 C
1195 07-03-2019 03:30:00 9.6 C 93 % 8.53 C
1196 07-03-2019 03:35:00 9.6 C 92 % 8.37 C
1197 07-03-2019 03:40:00 9.5 C 92 % 8.27 C
1198 07-03-2019 03:45:00 9.5 C 92 % 8.27 C
1199 07-03-2019 03:50:00 9.4 C 92 % 8.17 C
1200 07-03-2019 03:55:00 9.5 C 92 % 8.27 C
Sensor: Nr:Datum:Temp:Feuchte:Taupunkt:
Aussen-T/F 1201 07-03-2019 04:00:00 9.6 C 92 % 8.37 C
1202 07-03-2019 04:05:00 9.7 C 91 % 8.3 C
1203 07-03-2019 04:10:00 9.8 C 90 % 8.24 C
1204 07-03-2019 04:15:00 9.9 C 90 % 8.34 C
1205 07-03-2019 04:20:00 10.1 C 89 % 8.37 C
1206 07-03-2019 04:25:00 10.2 C 89 % 8.47 C
1207 07-03-2019 04:30:00 10.2 C 88 % 8.3 C
1208 07-03-2019 04:35:00 10.3 C 88 % 8.4 C
1209 07-03-2019 04:40:00 10.3 C 88 % 8.4 C
1210 07-03-2019 04:45:00 10.2 C 87 % 8.14 C
1211 07-03-2019 04:50:00 10.3 C 86 % 8.06 C
1212 07-03-2019 04:55:00 10.4 C 85 % 7.99 C
1213 07-03-2019 05:00:00 10.4 C 85 % 7.99 C
1214 07-03-2019 05:05:00 10.6 C 84 % 8.01 C
1215 07-03-2019 05:10:00 10.8 C 83 % 8.03 C
1216 07-03-2019 05:15:00 10.9 C 82 % 7.95 C
1217 07-03-2019 05:20:00 11.3 C 81 % 8.16 C
1218 07-03-2019 05:25:00 11.6 C 80 % 8.27 C
1219 07-03-2019 05:30:00 11.7 C 78 % 8 C
1220 07-03-2019 05:35:00 11.8 C 78 % 8.09 C
1221 07-03-2019 05:40:00 11.9 C 77 % 8 C
1222 07-03-2019 05:45:00 12 C 77 % 8.1 C
1223 07-03-2019 05:50:00 12.2 C 76 % 8.1 C
1224 07-03-2019 05:55:00 12.2 C 75 % 7.91 C
1225 07-03-2019 06:00:00 12.3 C 75 % 8 C
Sensor: Nr:Datum:Temp:Feuchte:Taupunkt:
Aussen-T/F 1226 07-03-2019 06:05:00 12.3 C 75 % 8 C
1227 07-03-2019 06:10:00 12.3 C 75 % 8 C
1228 07-03-2019 06:15:00 12.2 C 74 % 7.71 C
1229 07-03-2019 06:20:00 12.2 C 74 % 7.71 C
1230 07-03-2019 06:25:00 12.1 C 73 % 7.41 C
1231 07-03-2019 06:30:00 12.1 C 73 % 7.41 C
1232 07-03-2019 06:35:00 11.9 C 73 % 7.22 C
1233 07-03-2019 06:40:00 11.9 C 73 % 7.22 C
1234 07-03-2019 06:45:00 11.8 C 74 % 7.32 C
1235 07-03-2019 06:50:00 11.8 C 74 % 7.32 C
1236 07-03-2019 06:55:00 11.8 C 74 % 7.32 C
1237 07-03-2019 07:00:00 11.7 C 74 % 7.23 C
1238 07-03-2019 07:05:00 11.6 C 75 % 7.33 C
1239 07-03-2019 07:10:00 11.6 C 75 % 7.33 C
1240 07-03-2019 07:15:00 11.6 C 75 % 7.33 C
1241 07-03-2019 07:20:00 11.5 C 74 % 7.03 C
1242 07-03-2019 07:25:00 11.4 C 74 % 6.94 C
1243 07-03-2019 07:30:00 11.4 C 74 % 6.94 C
1244 07-03-2019 07:35:00 11.2 C 74 % 6.74 C
1245 07-03-2019 07:40:00 11.1 C 74 % 6.65 C
1246 07-03-2019 07:45:00 11 C 74 % 6.55 C
1247 07-03-2019 07:50:00 10.9 C 74 % 6.45 C
1248 07-03-2019 07:55:00 10.9 C 74 % 6.45 C
1249 07-03-2019 08:00:00 10.8 C 74 % 6.36 C
1250 07-03-2019 08:05:00 10.8 C 74 % 6.36 C
Sensor: Nr:Datum:Temp:Feuchte:Taupunkt:
Aussen-T/F 1251 07-03-2019 08:10:00 10.8 C 75 % 6.55 C
1252 07-03-2019 08:15:00 10.7 C 75 % 6.46 C
1253 07-03-2019 08:20:00 10.7 C 75 % 6.46 C
1254 07-03-2019 08:25:00 10.7 C 76 % 6.65 C
1255 07-03-2019 08:30:00 10.7 C 76 % 6.65 C
1256 07-03-2019 08:35:00 10.6 C 76 % 6.55 C
1257 07-03-2019 08:40:00 10.6 C 77 % 6.74 C
1258 07-03-2019 08:45:00 10.6 C 78 % 6.93 C
1259 07-03-2019 08:50:00 10.6 C 77 % 6.74 C
1260 07-03-2019 08:55:00 10.7 C 78 % 7.03 C
1261 07-03-2019 09:00:00 10.7 C 79 % 7.21 C
1262 07-03-2019 09:05:00 10.6 C 80 % 7.3 C
1263 07-03-2019 09:10:00 10.4 C 81 % 7.28 C
1264 07-03-2019 09:15:00 10.2 C 82 % 7.27 C
1265 07-03-2019 09:20:00 10.1 C 84 % 7.52 C
1266 07-03-2019 09:25:00 9.9 C 85 % 7.5 C
1267 07-03-2019 09:30:00 9.8 C 85 % 7.4 C
1268 07-03-2019 09:35:00 9.7 C 84 % 7.13 C
1269 07-03-2019 09:40:00 9.8 C 84 % 7.23 C
1270 07-03-2019 09:45:00 9.8 C 83 % 7.05 C
1271 07-03-2019 09:50:00 9.9 C 83 % 7.15 C
1272 07-03-2019 09:55:00 9.9 C 82 % 6.98 C
1273 07-03-2019 10:00:00 10 C 82 % 7.07 C
1274 07-03-2019 10:05:00 10.1 C 81 % 6.99 C
1275 07-03-2019 10:10:00 10.2 C 82 % 7.27 C
Sensor: Nr:Datum:Temp:Feuchte:Taupunkt:
Aussen-T/F 1276 07-03-2019 10:15:00 10.2 C 82 % 7.27 C
1277 07-03-2019 10:20:00 10.2 C 82 % 7.27 C
1278 07-03-2019 10:25:00 10.1 C 82 % 7.17 C
1279 07-03-2019 10:30:00 10.2 C 82 % 7.27 C
1280 07-03-2019 10:35:00 10.2 C 82 % 7.27 C
1281 07-03-2019 10:40:00 10.3 C 82 % 7.37 C
1282 07-03-2019 10:45:00 10.4 C 82 % 7.46 C
1283 07-03-2019 10:50:00 10.4 C 83 % 7.64 C
1284 07-03-2019 10:55:00 10.4 C 84 % 7.82 C
1285 07-03-2019 11:00:00 10.3 C 86 % 8.06 C
1286 07-03-2019 11:05:00 9.8 C 86 % 7.57 C
1287 07-03-2019 11:10:00 9.5 C 87 % 7.45 C
1288 07-03-2019 11:15:00 9.5 C 87 % 7.45 C
1289 07-03-2019 11:20:00 9.5 C 86 % 7.28 C
1290 07-03-2019 11:25:00 9.6 C 86 % 7.38 C
1291 07-03-2019 11:30:00 9.6 C 85 % 7.21 C
1292 07-03-2019 11:35:00 9.7 C 84 % 7.13 C
1293 07-03-2019 11:40:00 9.8 C 83 % 7.05 C
1294 07-03-2019 11:45:00 9.9 C 81 % 6.8 C
1295 07-03-2019 11:50:00 10.1 C 78 % 6.44 C
1296 07-03-2019 11:55:00 10.3 C 78 % 6.64 C
1297 07-03-2019 12:00:00 10.4 C 78 % 6.74 C
1298 07-03-2019 12:05:00 10.6 C 76 % 6.55 C
1299 07-03-2019 12:10:00 10.6 C 76 % 6.55 C
1300 07-03-2019 12:15:00 10.6 C 76 % 6.55 C
Sensor: Nr:Datum:Temp:Feuchte:Taupunkt:
Aussen-T/F 1301 07-03-2019 12:20:00 10.7 C 74 % 6.26 C
1302 07-03-2019 12:25:00 10.8 C 74 % 6.36 C
1303 07-03-2019 12:30:00 10.8 C 74 % 6.36 C
1304 07-03-2019 12:35:00 10.8 C 74 % 6.36 C
1305 07-03-2019 12:40:00 10.9 C 74 % 6.45 C
1306 07-03-2019 12:45:00 10.9 C 73 % 6.26 C
1307 07-03-2019 12:50:00 11 C 74 % 6.55 C
1308 07-03-2019 12:55:00 11.3 C 73 % 6.64 C
1309 07-03-2019 13:00:00 11.7 C 71 % 6.62 C
1310 07-03-2019 13:05:00 11.8 C 70 % 6.51 C
1311 07-03-2019 13:10:00 11.9 C 71 % 6.82 C
1312 07-03-2019 13:15:00 12.2 C 69 % 6.69 C
1313 07-03-2019 13:20:00 12.4 C 66 % 6.23 C
1314 07-03-2019 13:25:00 12.4 C 68 % 6.67 C
1315 07-03-2019 13:30:00 12.2 C 68 % 6.48 C
1316 07-03-2019 13:35:00 12 C 68 % 6.29 C
1317 07-03-2019 13:40:00 12 C 68 % 6.29 C
1318 07-03-2019 13:45:00 12.1 C 67 % 6.17 C
1319 07-03-2019 13:50:00 11.8 C 67 % 5.88 C
1320 07-03-2019 13:55:00 11.5 C 71 % 6.43 C
1321 07-03-2019 14:00:00 10.7 C 77 % 6.84 C
1322 07-03-2019 14:05:00 10.1 C 80 % 6.81 C
1323 07-03-2019 14:10:00 9.7 C 80 % 6.42 C
1324 07-03-2019 14:15:00 9.7 C 81 % 6.6 C
1325 07-03-2019 14:20:00 9.9 C 81 % 6.8 C
Sensor: Nr:Datum:Temp:Feuchte:Taupunkt:
Aussen-T/F 1326 07-03-2019 14:25:00 10.2 C 81 % 7.09 C
1327 07-03-2019 14:30:00 10.5 C 78 % 6.83 C
1328 07-03-2019 14:35:00 10.7 C 78 % 7.03 C
1329 07-03-2019 14:40:00 10.7 C 77 % 6.84 C
1330 07-03-2019 14:45:00 10.7 C 76 % 6.65 C
1331 07-03-2019 14:50:00 10.9 C 75 % 6.65 C
1332 07-03-2019 14:55:00 11.1 C 73 % 6.45 C
1333 07-03-2019 15:00:00 11.3 C 70 % 6.03 C
1334 07-03-2019 15:05:00 11.4 C 68 % 5.71 C
1335 07-03-2019 15:10:00 11.7 C 69 % 6.21 C
1336 07-03-2019 15:15:00 11.7 C 68 % 6 C
1337 07-03-2019 15:20:00 11.7 C 69 % 6.21 C
1338 07-03-2019 15:25:00 11.6 C 68 % 5.9 C
1339 07-03-2019 15:30:00 11.2 C 73 % 6.55 C
1340 07-03-2019 15:35:00 10.5 C 77 % 6.64 C
1341 07-03-2019 15:40:00 10 C 81 % 6.89 C
1342 07-03-2019 15:45:00 9.8 C 82 % 6.88 C
1343 07-03-2019 15:50:00 9.6 C 82 % 6.68 C
1344 07-03-2019 15:55:00 9.4 C 82 % 6.49 C
1345 07-03-2019 16:00:00 9.4 C 84 % 6.84 C
1346 07-03-2019 16:05:00 9.5 C 83 % 6.76 C
1347 07-03-2019 16:10:00 9.6 C 82 % 6.68 C
1348 07-03-2019 16:15:00 9.7 C 82 % 6.78 C
1349 07-03-2019 16:20:00 9.8 C 82 % 6.88 C
1350 07-03-2019 16:25:00 9.9 C 79 % 6.43 C
Sensor: Nr:Datum:Temp:Feuchte:Taupunkt:
Aussen-T/F 1351 07-03-2019 16:30:00 10.1 C 78 % 6.44 C
1352 07-03-2019 16:35:00 10.1 C 74 % 5.68 C
1353 07-03-2019 16:40:00 10.2 C 73 % 5.58 C
1354 07-03-2019 16:45:00 10.2 C 74 % 5.78 C
1355 07-03-2019 16:50:00 10.1 C 78 % 6.44 C
1356 07-03-2019 16:55:00 10 C 80 % 6.71 C
1357 07-03-2019 17:00:00 10 C 80 % 6.71 C
1358 07-03-2019 17:05:00 10.2 C 79 % 6.73 C
1359 07-03-2019 17:10:00 10.3 C 76 % 6.26 C
1360 07-03-2019 17:15:00 10.3 C 75 % 6.07 C
1361 07-03-2019 17:20:00 10.3 C 75 % 6.07 C
1362 07-03-2019 17:25:00 10.3 C 74 % 5.88 C
1363 07-03-2019 17:30:00 10.4 C 74 % 5.97 C
1364 07-03-2019 17:35:00 10.3 C 73 % 5.68 C
1365 07-03-2019 17:40:00 10.1 C 73 % 5.49 C
1366 07-03-2019 17:45:00 9.9 C 73 % 5.29 C
1367 07-03-2019 17:50:00 9.8 C 74 % 5.39 C
1368 07-03-2019 17:55:00 9.8 C 74 % 5.39 C
1369 07-03-2019 18:00:00 9.8 C 72 % 5 C
1370 07-03-2019 18:05:00 9.8 C 72 % 5 C
1371 07-03-2019 18:10:00 9.8 C 72 % 5 C
1372 07-03-2019 18:15:00 9.7 C 72 % 4.9 C
1373 07-03-2019 18:20:00 9.6 C 71 % 4.61 C
1374 07-03-2019 18:25:00 9.4 C 72 % 4.62 C
1375 07-03-2019 18:30:00 9.4 C 72 % 4.62 C
Sensor: Nr:Datum:Temp:Feuchte:Taupunkt:
Aussen-T/F 1376 07-03-2019 18:35:00 9.4 C 72 % 4.62 C
1377 07-03-2019 18:40:00 9.3 C 72 % 4.52 C
1378 07-03-2019 18:45:00 9.2 C 73 % 4.62 C
1379 07-03-2019 18:50:00 9.1 C 74 % 4.72 C
1380 07-03-2019 18:55:00 8.9 C 75 % 4.72 C
1381 07-03-2019 19:00:00 8.9 C 75 % 4.72 C
1382 07-03-2019 19:05:00 8.9 C 76 % 4.91 C
1383 07-03-2019 19:10:00 8.9 C 76 % 4.91 C
1384 07-03-2019 19:15:00 8.9 C 78 % 5.28 C
1385 07-03-2019 19:20:00 8.8 C 79 % 5.36 C
1386 07-03-2019 19:25:00 8.6 C 80 % 5.35 C
1387 07-03-2019 19:30:00 8.4 C 81 % 5.33 C
1388 07-03-2019 19:35:00 8.3 C 82 % 5.41 C
1389 07-03-2019 19:40:00 8.1 C 82 % 5.22 C
1390 07-03-2019 19:45:00 8 C 82 % 5.12 C
1391 07-03-2019 19:50:00 7.9 C 82 % 5.02 C
1392 07-03-2019 19:55:00 7.9 C 81 % 4.85 C
1393 07-03-2019 20:00:00 8.1 C 80 % 4.86 C
1394 07-03-2019 20:05:00 8.2 C 79 % 4.78 C
1395 07-03-2019 20:10:00 8.3 C 78 % 4.7 C
1396 07-03-2019 20:15:00 8.4 C 77 % 4.61 C
1397 07-03-2019 20:20:00 8.6 C 77 % 4.8 C
1398 07-03-2019 20:25:00 8.7 C 76 % 4.71 C
1399 07-03-2019 20:30:00 8.8 C 76 % 4.81 C
1400 07-03-2019 20:35:00 8.8 C 76 % 4.81 C
Sensor: Nr:Datum:Temp:Feuchte:Taupunkt:
Aussen-T/F 1401 07-03-2019 20:40:00 8.9 C 75 % 4.72 C
1402 07-03-2019 20:45:00 8.9 C 75 % 4.72 C
1403 07-03-2019 20:50:00 9 C 75 % 4.81 C
1404 07-03-2019 20:55:00 9 C 75 % 4.81 C
1405 07-03-2019 21:00:00 9.1 C 75 % 4.91 C
1406 07-03-2019 21:05:00 9.1 C 75 % 4.91 C
1407 07-03-2019 21:10:00 9.2 C 75 % 5.01 C
1408 07-03-2019 21:15:00 9.2 C 75 % 5.01 C
1409 07-03-2019 21:20:00 9.2 C 75 % 5.01 C
1410 07-03-2019 21:25:00 9.2 C 75 % 5.01 C
1411 07-03-2019 21:30:00 9.3 C 75 % 5.1 C
1412 07-03-2019 21:35:00 9.3 C 74 % 4.91 C
1413 07-03-2019 21:40:00 9.3 C 74 % 4.91 C
1414 07-03-2019 21:45:00 9.3 C 74 % 4.91 C
1415 07-03-2019 21:50:00 9.3 C 74 % 4.91 C
1416 07-03-2019 21:55:00 9.3 C 74 % 4.91 C
1417 07-03-2019 22:00:00 9.4 C 74 % 5.01 C
1418 07-03-2019 22:05:00 9.4 C 74 % 5.01 C
1419 07-03-2019 22:10:00 9.4 C 74 % 5.01 C
1420 07-03-2019 22:15:00 9.4 C 75 % 5.2 C
1421 07-03-2019 22:20:00 9.3 C 75 % 5.1 C
1422 07-03-2019 22:25:00 9.2 C 75 % 5.01 C
1423 07-03-2019 22:30:00 9.2 C 75 % 5.01 C
1424 07-03-2019 22:35:00 9.1 C 75 % 4.91 C
1425 07-03-2019 22:40:00 9.1 C 75 % 4.91 C
Sensor: Nr:Datum:Temp:Feuchte:Taupunkt:
Aussen-T/F 1426 07-03-2019 22:45:00 9 C 75 % 4.81 C
1427 07-03-2019 22:50:00 9 C 75 % 4.81 C
1428 07-03-2019 22:55:00 8.9 C 75 % 4.72 C
1429 07-03-2019 23:00:00 8.9 C 75 % 4.72 C
1430 07-03-2019 23:05:00 8.8 C 75 % 4.62 C
1431 07-03-2019 23:10:00 8.7 C 76 % 4.71 C
1432 07-03-2019 23:15:00 8.7 C 76 % 4.71 C
1433 07-03-2019 23:20:00 8.5 C 77 % 4.71 C
1434 07-03-2019 23:25:00 8.5 C 77 % 4.71 C
1435 07-03-2019 23:30:00 8.5 C 77 % 4.71 C
1436 07-03-2019 23:35:00 8.6 C 77 % 4.8 C
1437 07-03-2019 23:40:00 8.6 C 77 % 4.8 C
1438 07-03-2019 23:45:00 8.7 C 78 % 5.08 C
1439 07-03-2019 23:50:00 8.7 C 79 % 5.27 C
1440 07-03-2019 23:55:00 8.5 C 79 % 5.07 C
1441 08-03-2019 00:00:00 8.3 C 80 % 5.06 C
1442 08-03-2019 00:05:00 8.2 C 80 % 4.96 C
1443 08-03-2019 00:10:00 8.2 C 81 % 5.14 C
1444 08-03-2019 00:15:00 8.2 C 82 % 5.32 C
1445 08-03-2019 00:20:00 8 C 84 % 5.47 C
1446 08-03-2019 00:25:00 7.8 C 85 % 5.44 C
1447 08-03-2019 00:30:00 7.6 C 86 % 5.41 C
1448 08-03-2019 00:35:00 7.4 C 86 % 5.22 C
1449 08-03-2019 00:40:00 7.3 C 86 % 5.12 C
1450 08-03-2019 00:45:00 7.1 C 87 % 5.09 C
Sensor: Nr:Datum:Temp:Feuchte:Taupunkt:
Aussen-T/F 1451 08-03-2019 00:50:00 6.9 C 87 % 4.89 C
1452 08-03-2019 00:55:00 6.9 C 87 % 4.89 C
1453 08-03-2019 01:00:00 6.8 C 87 % 4.79 C
1454 08-03-2019 01:05:00 6.8 C 87 % 4.79 C
1455 08-03-2019 01:10:00 6.8 C 87 % 4.79 C
1456 08-03-2019 01:15:00 6.8 C 87 % 4.79 C
1457 08-03-2019 01:20:00 6.9 C 87 % 4.89 C
1458 08-03-2019 01:25:00 6.9 C 87 % 4.89 C
1459 08-03-2019 01:30:00 7 C 87 % 4.99 C
1460 08-03-2019 01:35:00 7.1 C 86 % 4.92 C
1461 08-03-2019 01:40:00 7.2 C 85 % 4.85 C
1462 08-03-2019 01:45:00 7.3 C 85 % 4.95 C
1463 08-03-2019 01:50:00 7.4 C 84 % 4.88 C
1464 08-03-2019 01:55:00 7.7 C 82 % 4.83 C
1465 08-03-2019 02:00:00 7.9 C 80 % 4.67 C
1466 08-03-2019 02:05:00 8 C 79 % 4.59 C
1467 08-03-2019 02:10:00 8.1 C 79 % 4.68 C
1468 08-03-2019 02:15:00 8.1 C 78 % 4.5 C
1469 08-03-2019 02:20:00 8.1 C 78 % 4.5 C
1470 08-03-2019 02:25:00 8.2 C 77 % 4.42 C
1471 08-03-2019 02:30:00 8.2 C 77 % 4.42 C
1472 08-03-2019 02:35:00 8.3 C 76 % 4.33 C
1473 08-03-2019 02:40:00 8.3 C 76 % 4.33 C
1474 08-03-2019 02:45:00 8.3 C 76 % 4.33 C
1475 08-03-2019 02:50:00 8.2 C 76 % 4.23 C
Sensor: Nr:Datum:Temp:Feuchte:Taupunkt:
Aussen-T/F 1476 08-03-2019 02:55:00 8.2 C 76 % 4.23 C
1477 08-03-2019 03:00:00 8.2 C 76 % 4.23 C
1478 08-03-2019 03:05:00 8.2 C 76 % 4.23 C
1479 08-03-2019 03:10:00 8.2 C 76 % 4.23 C
1480 08-03-2019 03:15:00 8.3 C 75 % 4.14 C
1481 08-03-2019 03:20:00 8.2 C 75 % 4.04 C
1482 08-03-2019 03:25:00 8.2 C 74 % 3.85 C
1483 08-03-2019 03:30:00 8.1 C 75 % 3.94 C
1484 08-03-2019 03:35:00 8.1 C 75 % 3.94 C
1485 08-03-2019 03:40:00 8.1 C 75 % 3.94 C
1486 08-03-2019 03:45:00 8.1 C 75 % 3.94 C
1487 08-03-2019 03:50:00 8.1 C 75 % 3.94 C
1488 08-03-2019 03:55:00 8 C 75 % 3.85 C
1489 08-03-2019 04:00:00 8 C 76 % 4.04 C
1490 08-03-2019 04:05:00 8 C 76 % 4.04 C
1491 08-03-2019 04:10:00 8 C 76 % 4.04 C
1492 08-03-2019 04:15:00 8 C 76 % 4.04 C
1493 08-03-2019 04:20:00 8.1 C 76 % 4.13 C
1494 08-03-2019 04:25:00 8.1 C 76 % 4.13 C
1495 08-03-2019 04:30:00 8.1 C 76 % 4.13 C
1496 08-03-2019 04:35:00 8 C 77 % 4.22 C
1497 08-03-2019 04:40:00 8 C 77 % 4.22 C
1498 08-03-2019 04:45:00 8.1 C 77 % 4.32 C
1499 08-03-2019 04:50:00 8.1 C 76 % 4.13 C
1500 08-03-2019 04:55:00 8.1 C 76 % 4.13 C
Sensor: Nr:Datum:Temp:Feuchte:Taupunkt:
Aussen-T/F 1501 08-03-2019 05:00:00 8.1 C 77 % 4.32 C
1502 08-03-2019 05:05:00 8 C 77 % 4.22 C
1503 08-03-2019 05:10:00 7.9 C 77 % 4.12 C
1504 08-03-2019 05:15:00 7.8 C 78 % 4.21 C
1505 08-03-2019 05:20:00 7.8 C 78 % 4.21 C
1506 08-03-2019 05:25:00 7.8 C 78 % 4.21 C
1507 08-03-2019 05:30:00 7.8 C 78 % 4.21 C
1508 08-03-2019 05:35:00 7.7 C 79 % 4.3 C
1509 08-03-2019 05:40:00 7.7 C 79 % 4.3 C
1510 08-03-2019 05:45:00 7.7 C 79 % 4.3 C
1511 08-03-2019 05:50:00 7.7 C 79 % 4.3 C
1512 08-03-2019 05:55:00 7.6 C 79 % 4.2 C
1513 08-03-2019 06:00:00 7.6 C 79 % 4.2 C
1514 08-03-2019 06:05:00 7.6 C 79 % 4.2 C
1515 08-03-2019 06:10:00 7.6 C 80 % 4.38 C
1516 08-03-2019 06:15:00 7.6 C 80 % 4.38 C
1517 08-03-2019 06:20:00 7.5 C 80 % 4.28 C
1518 08-03-2019 06:25:00 7.5 C 80 % 4.28 C
1519 08-03-2019 06:30:00 7.6 C 80 % 4.38 C
1520 08-03-2019 06:35:00 7.6 C 80 % 4.38 C
1521 08-03-2019 06:40:00 7.7 C 80 % 4.47 C
1522 08-03-2019 06:45:00 7.7 C 80 % 4.47 C
1523 08-03-2019 06:50:00 7.7 C 80 % 4.47 C
1524 08-03-2019 06:55:00 7.6 C 80 % 4.38 C
1525 08-03-2019 07:00:00 7.6 C 80 % 4.38 C
Sensor: Nr:Datum:Temp:Feuchte:Taupunkt:
Aussen-T/F 1526 08-03-2019 07:05:00 7.6 C 81 % 4.55 C
1527 08-03-2019 07:10:00 7.6 C 81 % 4.55 C
1528 08-03-2019 07:15:00 7.6 C 81 % 4.55 C
1529 08-03-2019 07:20:00 7.6 C 80 % 4.38 C
1530 08-03-2019 07:25:00 7.7 C 80 % 4.47 C
1531 08-03-2019 07:30:00 7.7 C 80 % 4.47 C
1532 08-03-2019 07:35:00 7.8 C 80 % 4.57 C
1533 08-03-2019 07:40:00 7.8 C 80 % 4.57 C
1534 08-03-2019 07:45:00 7.8 C 80 % 4.57 C
1535 08-03-2019 07:50:00 7.8 C 81 % 4.75 C
1536 08-03-2019 07:55:00 7.8 C 81 % 4.75 C
1537 08-03-2019 08:00:00 7.8 C 81 % 4.75 C
1538 08-03-2019 08:05:00 7.8 C 81 % 4.75 C
1539 08-03-2019 08:10:00 7.8 C 81 % 4.75 C
1540 08-03-2019 08:15:00 7.8 C 81 % 4.75 C
1541 08-03-2019 08:20:00 7.8 C 81 % 4.75 C
1542 08-03-2019 08:25:00 7.8 C 82 % 4.92 C
1543 08-03-2019 08:30:00 7.9 C 82 % 5.02 C
1544 08-03-2019 08:35:00 7.9 C 82 % 5.02 C
1545 08-03-2019 08:40:00 7.9 C 82 % 5.02 C
1546 08-03-2019 08:45:00 7.9 C 82 % 5.02 C
1547 08-03-2019 08:50:00 7.9 C 83 % 5.2 C
1548 08-03-2019 08:55:00 7.9 C 83 % 5.2 C
1549 08-03-2019 09:00:00 7.9 C 83 % 5.2 C
1550 08-03-2019 09:05:00 7.9 C 83 % 5.2 C
Sensor: Nr:Datum:Temp:Feuchte:Taupunkt:
Aussen-T/F 1551 08-03-2019 09:10:00 7.9 C 83 % 5.2 C
1552 08-03-2019 09:15:00 7.8 C 83 % 5.1 C
1553 08-03-2019 09:20:00 7.8 C 84 % 5.27 C
1554 08-03-2019 09:25:00 7.8 C 85 % 5.44 C
1555 08-03-2019 09:30:00 7.7 C 86 % 5.51 C
1556 08-03-2019 09:35:00 7.7 C 86 % 5.51 C
1557 08-03-2019 09:40:00 7.6 C 87 % 5.58 C
1558 08-03-2019 09:45:00 7.4 C 87 % 5.38 C
1559 08-03-2019 09:50:00 7.4 C 88 % 5.55 C
1560 08-03-2019 09:55:00 7.3 C 88 % 5.45 C
1561 08-03-2019 10:00:00 7.2 C 88 % 5.35 C
1562 08-03-2019 10:05:00 7.2 C 88 % 5.35 C
1563 08-03-2019 10:10:00 7.3 C 88 % 5.45 C
1564 08-03-2019 10:15:00 7.4 C 88 % 5.55 C
1565 08-03-2019 10:20:00 7.5 C 87 % 5.48 C
1566 08-03-2019 10:25:00 7.7 C 86 % 5.51 C
1567 08-03-2019 10:30:00 7.8 C 84 % 5.27 C
1568 08-03-2019 10:35:00 7.9 C 84 % 5.37 C
1569 08-03-2019 10:40:00 8.1 C 83 % 5.39 C
1570 08-03-2019 10:45:00 8.2 C 82 % 5.32 C
1571 08-03-2019 10:50:00 8.3 C 82 % 5.41 C
1572 08-03-2019 10:55:00 8.4 C 81 % 5.33 C
1573 08-03-2019 11:00:00 8.4 C 81 % 5.33 C
1574 08-03-2019 11:05:00 8.4 C 81 % 5.33 C
1575 08-03-2019 11:10:00 8.4 C 80 % 5.16 C
Sensor: Nr:Datum:Temp:Feuchte:Taupunkt:
Aussen-T/F 1576 08-03-2019 11:15:00 8.4 C 80 % 5.16 C
1577 08-03-2019 11:20:00 8.4 C 81 % 5.33 C
1578 08-03-2019 11:25:00 8.6 C 81 % 5.53 C
1579 08-03-2019 11:30:00 8.7 C 79 % 5.27 C
1580 08-03-2019 11:35:00 8.8 C 79 % 5.36 C
1581 08-03-2019 11:40:00 8.8 C 79 % 5.36 C
1582 08-03-2019 11:45:00 8.8 C 78 % 5.18 C
1583 08-03-2019 11:50:00 9 C 77 % 5.19 C
1584 08-03-2019 11:55:00 9.2 C 76 % 5.2 C
1585 08-03-2019 12:00:00 9.3 C 73 % 4.72 C
1586 08-03-2019 12:05:00 9.5 C 71 % 4.51 C
1587 08-03-2019 12:10:00 9.5 C 70 % 4.31 C
1588 08-03-2019 12:15:00 9.3 C 72 % 4.52 C
1589 08-03-2019 12:20:00 9.1 C 73 % 4.52 C
1590 08-03-2019 12:25:00 9.1 C 73 % 4.52 C
1591 08-03-2019 12:30:00 9.1 C 74 % 4.72 C
1592 08-03-2019 12:35:00 9 C 73 % 4.43 C
1593 08-03-2019 12:40:00 9 C 71 % 4.03 C
1594 08-03-2019 12:45:00 9.1 C 72 % 4.33 C
1595 08-03-2019 12:50:00 9.2 C 72 % 4.42 C
1596 08-03-2019 12:55:00 9.4 C 71 % 4.42 C
1597 08-03-2019 13:00:00 9.6 C 71 % 4.61 C
1598 08-03-2019 13:05:00 9.5 C 69 % 4.11 C
1599 08-03-2019 13:10:00 9.5 C 70 % 4.31 C
1600 08-03-2019 13:15:00 9.5 C 69 % 4.11 C
Sensor: Nr:Datum:Temp:Feuchte:Taupunkt:
Aussen-T/F 1601 08-03-2019 13:20:00 9.5 C 69 % 4.11 C
1602 08-03-2019 13:25:00 9.6 C 69 % 4.2 C
1603 08-03-2019 13:30:00 9.7 C 70 % 4.5 C
1604 08-03-2019 13:35:00 9.7 C 69 % 4.3 C
1605 08-03-2019 13:40:00 10.1 C 69 % 4.68 C
1606 08-03-2019 13:45:00 10.3 C 67 % 4.45 C
1607 08-03-2019 13:50:00 10.3 C 68 % 4.66 C
1608 08-03-2019 13:55:00 10.3 C 66 % 4.24 C
1609 08-03-2019 14:00:00 10.3 C 65 % 4.02 C
1610 08-03-2019 14:05:00 10.2 C 65 % 3.92 C
1611 08-03-2019 14:10:00 10.3 C 65 % 4.02 C
1612 08-03-2019 14:15:00 10.4 C 64 % 3.89 C
1613 08-03-2019 14:20:00 10.3 C 64 % 3.8 C
1614 08-03-2019 14:25:00 10.2 C 66 % 4.14 C
1615 08-03-2019 14:30:00 10.2 C 66 % 4.14 C
1616 08-03-2019 14:35:00 10.2 C 63 % 3.48 C
1617 08-03-2019 14:40:00 10.3 C 64 % 3.8 C
1618 08-03-2019 14:45:00 10.4 C 63 % 3.67 C
1619 08-03-2019 14:50:00 10.6 C 63 % 3.86 C
1620 08-03-2019 14:55:00 10.7 C 63 % 3.95 C
1621 08-03-2019 15:00:00 10.8 C 63 % 4.05 C
1622 08-03-2019 15:05:00 11 C 62 % 4.01 C
1623 08-03-2019 15:10:00 11.1 C 61 % 3.87 C
1624 08-03-2019 15:15:00 11.2 C 60 % 3.73 C
1625 08-03-2019 15:20:00 11.3 C 61 % 4.06 C
Sensor: Nr:Datum:Temp:Feuchte:Taupunkt:
Aussen-T/F 1626 08-03-2019 15:25:00 11.3 C 60 % 3.83 C
1627 08-03-2019 15:30:00 11.4 C 61 % 4.16 C
1628 08-03-2019 15:35:00 11.6 C 61 % 4.35 C
1629 08-03-2019 15:40:00 11.7 C 62 % 4.67 C
1630 08-03-2019 15:45:00 11.5 C 63 % 4.71 C
1631 08-03-2019 15:50:00 11.2 C 64 % 4.65 C
1632 08-03-2019 15:55:00 10.9 C 66 % 4.81 C
1633 08-03-2019 16:00:00 10.6 C 68 % 4.95 C
1634 08-03-2019 16:05:00 10.3 C 70 % 5.08 C
1635 08-03-2019 16:10:00 10.3 C 71 % 5.28 C
1636 08-03-2019 16:15:00 10.3 C 70 % 5.08 C
1637 08-03-2019 16:20:00 10.2 C 70 % 4.98 C
1638 08-03-2019 16:25:00 10.1 C 71 % 5.09 C
1639 08-03-2019 16:30:00 10.3 C 70 % 5.08 C
1640 08-03-2019 16:35:00 10.4 C 69 % 4.97 C
1641 08-03-2019 16:40:00 10.3 C 69 % 4.87 C
1642 08-03-2019 16:45:00 10.2 C 70 % 4.98 C
1643 08-03-2019 16:50:00 10.1 C 71 % 5.09 C
1644 08-03-2019 16:55:00 10.1 C 72 % 5.29 C
1645 08-03-2019 17:00:00 10.1 C 72 % 5.29 C
1646 08-03-2019 17:05:00 9.8 C 73 % 5.2 C
1647 08-03-2019 17:10:00 9.6 C 74 % 5.2 C
1648 08-03-2019 17:15:00 9.4 C 75 % 5.2 C
1649 08-03-2019 17:20:00 9.3 C 76 % 5.29 C
1650 08-03-2019 17:25:00 9.2 C 77 % 5.38 C
Sensor: Nr:Datum:Temp:Feuchte:Taupunkt:
Aussen-T/F 1651 08-03-2019 17:30:00 9.1 C 78 % 5.47 C
1652 08-03-2019 17:35:00 9 C 79 % 5.56 C
1653 08-03-2019 17:40:00 8.9 C 81 % 5.82 C
1654 08-03-2019 17:45:00 8.7 C 81 % 5.63 C
1655 08-03-2019 17:50:00 8.5 C 82 % 5.61 C
1656 08-03-2019 17:55:00 8.3 C 83 % 5.59 C
1657 08-03-2019 18:00:00 8.1 C 84 % 5.56 C
1658 08-03-2019 18:05:00 7.9 C 84 % 5.37 C
1659 08-03-2019 18:10:00 7.7 C 85 % 5.34 C
1660 08-03-2019 18:15:00 7.6 C 85 % 5.24 C
1661 08-03-2019 18:20:00 7.4 C 85 % 5.05 C
1662 08-03-2019 18:25:00 7.4 C 85 % 5.05 C
1663 08-03-2019 18:30:00 7.3 C 85 % 4.95 C
1664 08-03-2019 18:35:00 7.2 C 86 % 5.02 C
1665 08-03-2019 18:40:00 7.2 C 86 % 5.02 C
1666 08-03-2019 18:45:00 7.1 C 86 % 4.92 C
1667 08-03-2019 18:50:00 7.1 C 86 % 4.92 C
1668 08-03-2019 18:55:00 7.1 C 86 % 4.92 C
1669 08-03-2019 19:00:00 7 C 87 % 4.99 C
1670 08-03-2019 19:05:00 7 C 87 % 4.99 C
1671 08-03-2019 19:10:00 7 C 87 % 4.99 C
1672 08-03-2019 19:15:00 6.9 C 88 % 5.05 C
1673 08-03-2019 19:20:00 6.9 C 88 % 5.05 C
1674 08-03-2019 19:25:00 6.9 C 87 % 4.89 C
1675 08-03-2019 19:30:00 6.8 C 88 % 4.96 C
Sensor: Nr:Datum:Temp:Feuchte:Taupunkt:
Aussen-T/F 1676 08-03-2019 19:35:00 6.8 C 88 % 4.96 C
1677 08-03-2019 19:40:00 6.7 C 88 % 4.86 C
1678 08-03-2019 19:45:00 6.7 C 88 % 4.86 C
1679 08-03-2019 19:50:00 6.7 C 89 % 5.02 C
1680 08-03-2019 19:55:00 6.6 C 89 % 4.92 C
1681 08-03-2019 20:00:00 6.6 C 89 % 4.92 C
1682 08-03-2019 20:05:00 6.4 C 89 % 4.72 C
1683 08-03-2019 20:10:00 6.4 C 89 % 4.72 C
1684 08-03-2019 20:15:00 6.3 C 89 % 4.62 C
1685 08-03-2019 20:20:00 6.3 C 89 % 4.62 C
1686 08-03-2019 20:25:00 6.3 C 90 % 4.78 C
1687 08-03-2019 20:30:00 6.2 C 89 % 4.53 C
1688 08-03-2019 20:35:00 6.2 C 90 % 4.69 C
1689 08-03-2019 20:40:00 6.2 C 90 % 4.69 C
1690 08-03-2019 20:45:00 6.2 C 90 % 4.69 C
1691 08-03-2019 20:50:00 6.2 C 90 % 4.69 C
1692 08-03-2019 20:55:00 6.3 C 90 % 4.78 C
1693 08-03-2019 21:00:00 6.3 C 90 % 4.78 C
1694 08-03-2019 21:05:00 6.3 C 90 % 4.78 C
1695 08-03-2019 21:10:00 6.3 C 90 % 4.78 C
1696 08-03-2019 21:15:00 6.4 C 90 % 4.88 C
1697 08-03-2019 21:20:00 6.5 C 90 % 4.98 C
1698 08-03-2019 21:25:00 6.6 C 90 % 5.08 C
1699 08-03-2019 21:30:00 6.6 C 89 % 4.92 C
1700 08-03-2019 21:35:00 6.6 C 89 % 4.92 C
Sensor: Nr:Datum:Temp:Feuchte:Taupunkt:
Aussen-T/F 1701 08-03-2019 21:40:00 6.6 C 89 % 4.92 C
1702 08-03-2019 21:45:00 6.6 C 89 % 4.92 C
1703 08-03-2019 21:50:00 6.7 C 88 % 4.86 C
1704 08-03-2019 21:55:00 6.8 C 88 % 4.96 C
1705 08-03-2019 22:00:00 6.8 C 88 % 4.96 C
1706 08-03-2019 22:05:00 6.8 C 87 % 4.79 C
1707 08-03-2019 22:10:00 6.8 C 87 % 4.79 C
1708 08-03-2019 22:15:00 6.8 C 87 % 4.79 C
1709 08-03-2019 22:20:00 6.8 C 87 % 4.79 C
1710 08-03-2019 22:25:00 6.8 C 87 % 4.79 C
1711 08-03-2019 22:30:00 6.8 C 86 % 4.63 C
1712 08-03-2019 22:35:00 7 C 85 % 4.66 C
1713 08-03-2019 22:40:00 7.2 C 85 % 4.85 C
1714 08-03-2019 22:45:00 7.3 C 83 % 4.61 C
1715 08-03-2019 22:50:00 7.5 C 82 % 4.63 C
1716 08-03-2019 22:55:00 7.7 C 81 % 4.65 C
1717 08-03-2019 23:00:00 7.9 C 80 % 4.67 C
1718 08-03-2019 23:05:00 8.2 C 79 % 4.78 C
1719 08-03-2019 23:10:00 8.3 C 78 % 4.7 C
1720 08-03-2019 23:15:00 8.3 C 78 % 4.7 C
1721 08-03-2019 23:20:00 8.3 C 78 % 4.7 C
1722 08-03-2019 23:25:00 8.3 C 78 % 4.7 C
1723 08-03-2019 23:30:00 8.3 C 78 % 4.7 C
1724 08-03-2019 23:35:00 8.3 C 78 % 4.7 C
1725 08-03-2019 23:40:00 8.3 C 77 % 4.51 C
Sensor: Nr:Datum:Temp:Feuchte:Taupunkt:
Aussen-T/F 1726 08-03-2019 23:45:00 8.3 C 77 % 4.51 C
1727 08-03-2019 23:50:00 8.3 C 77 % 4.51 C
1728 08-03-2019 23:55:00 8.3 C 77 % 4.51 C
1729 09-03-2019 00:00:00 8.4 C 77 % 4.61 C
1730 09-03-2019 00:05:00 8.4 C 76 % 4.42 C
1731 09-03-2019 00:10:00 8.4 C 77 % 4.61 C
1732 09-03-2019 00:15:00 8.4 C 76 % 4.42 C
1733 09-03-2019 00:20:00 8.5 C 76 % 4.52 C
1734 09-03-2019 00:25:00 8.5 C 75 % 4.33 C
1735 09-03-2019 00:30:00 8.6 C 75 % 4.43 C
1736 09-03-2019 00:35:00 8.6 C 76 % 4.62 C
1737 09-03-2019 00:40:00 8.7 C 75 % 4.52 C
1738 09-03-2019 00:45:00 8.7 C 75 % 4.52 C
1739 09-03-2019 00:50:00 8.8 C 74 % 4.43 C
1740 09-03-2019 00:55:00 8.8 C 74 % 4.43 C
1741 09-03-2019 01:00:00 8.9 C 74 % 4.53 C
1742 09-03-2019 01:05:00 9 C 73 % 4.43 C
1743 09-03-2019 01:10:00 9.1 C 73 % 4.52 C
1744 09-03-2019 01:15:00 9.1 C 73 % 4.52 C
1745 09-03-2019 01:20:00 9.1 C 74 % 4.72 C
1746 09-03-2019 01:25:00 9.1 C 73 % 4.52 C
1747 09-03-2019 01:30:00 9.2 C 72 % 4.42 C
1748 09-03-2019 01:35:00 9.2 C 72 % 4.42 C
1749 09-03-2019 01:40:00 9.3 C 72 % 4.52 C
1750 09-03-2019 01:45:00 9.3 C 72 % 4.52 C
Sensor: Nr:Datum:Temp:Feuchte:Taupunkt:
Aussen-T/F 1751 09-03-2019 01:50:00 9.3 C 72 % 4.52 C
1752 09-03-2019 01:55:00 9.3 C 72 % 4.52 C
1753 09-03-2019 02:00:00 9.3 C 73 % 4.72 C
1754 09-03-2019 02:05:00 9.3 C 72 % 4.52 C
1755 09-03-2019 02:10:00 9.3 C 72 % 4.52 C
1756 09-03-2019 02:15:00 9.4 C 72 % 4.62 C
1757 09-03-2019 02:20:00 9.4 C 73 % 4.81 C
1758 09-03-2019 02:25:00 9.4 C 72 % 4.62 C
1759 09-03-2019 02:30:00 9.4 C 72 % 4.62 C
1760 09-03-2019 02:35:00 9.4 C 72 % 4.62 C
1761 09-03-2019 02:40:00 9.4 C 73 % 4.81 C
1762 09-03-2019 02:45:00 9.4 C 73 % 4.81 C
1763 09-03-2019 02:50:00 9.4 C 72 % 4.62 C
1764 09-03-2019 02:55:00 9.4 C 73 % 4.81 C
1765 09-03-2019 03:00:00 9.3 C 73 % 4.72 C
1766 09-03-2019 03:05:00 9.3 C 74 % 4.91 C
1767 09-03-2019 03:10:00 9.3 C 74 % 4.91 C
1768 09-03-2019 03:15:00 9.3 C 74 % 4.91 C
1769 09-03-2019 03:20:00 9.2 C 74 % 4.81 C
1770 09-03-2019 03:25:00 9.2 C 74 % 4.81 C
1771 09-03-2019 03:30:00 9.2 C 76 % 5.2 C
1772 09-03-2019 03:35:00 8.9 C 78 % 5.28 C
1773 09-03-2019 03:40:00 8.8 C 79 % 5.36 C
1774 09-03-2019 03:45:00 8.7 C 80 % 5.45 C
1775 09-03-2019 03:50:00 8.6 C 80 % 5.35 C
Sensor: Nr:Datum:Temp:Feuchte:Taupunkt:
Aussen-T/F 1776 09-03-2019 03:55:00 8.6 C 81 % 5.53 C
1777 09-03-2019 04:00:00 8.4 C 82 % 5.51 C
1778 09-03-2019 04:05:00 8.3 C 83 % 5.59 C
1779 09-03-2019 04:10:00 8.2 C 84 % 5.66 C
1780 09-03-2019 04:15:00 8.1 C 85 % 5.73 C
1781 09-03-2019 04:20:00 7.9 C 85 % 5.54 C
1782 09-03-2019 04:25:00 7.8 C 85 % 5.44 C
1783 09-03-2019 04:30:00 7.8 C 85 % 5.44 C
1784 09-03-2019 04:35:00 7.8 C 86 % 5.61 C
1785 09-03-2019 04:40:00 7.8 C 86 % 5.61 C
1786 09-03-2019 04:45:00 7.8 C 86 % 5.61 C
1787 09-03-2019 04:50:00 7.8 C 86 % 5.61 C
1788 09-03-2019 04:55:00 7.8 C 86 % 5.61 C
1789 09-03-2019 05:00:00 7.8 C 86 % 5.61 C
1790 09-03-2019 05:05:00 7.8 C 86 % 5.61 C
1791 09-03-2019 05:10:00 7.8 C 87 % 5.78 C
1792 09-03-2019 05:15:00 7.8 C 87 % 5.78 C
1793 09-03-2019 05:20:00 7.8 C 87 % 5.78 C
1794 09-03-2019 05:25:00 7.8 C 88 % 5.94 C
1795 09-03-2019 05:30:00 7.8 C 88 % 5.94 C
1796 09-03-2019 05:35:00 7.7 C 88 % 5.84 C
1797 09-03-2019 05:40:00 7.7 C 88 % 5.84 C
1798 09-03-2019 05:45:00 7.7 C 88 % 5.84 C
1799 09-03-2019 05:50:00 7.8 C 88 % 5.94 C
1800 09-03-2019 05:55:00 7.8 C 88 % 5.94 C
Sensor: Nr:Datum:Temp:Feuchte:Taupunkt:
Aussen-T/F 1801 09-03-2019 06:00:00 7.8 C 88 % 5.94 C
1802 09-03-2019 06:05:00 7.9 C 88 % 6.04 C
1803 09-03-2019 06:10:00 8 C 88 % 6.14 C
1804 09-03-2019 06:15:00 8 C 88 % 6.14 C
1805 09-03-2019 06:20:00 8.1 C 88 % 6.24 C
1806 09-03-2019 06:25:00 8.1 C 88 % 6.24 C
1807 09-03-2019 06:30:00 8.1 C 88 % 6.24 C
1808 09-03-2019 06:35:00 8.1 C 88 % 6.24 C
1809 09-03-2019 06:40:00 8.2 C 88 % 6.33 C
1810 09-03-2019 06:45:00 8.2 C 88 % 6.33 C
1811 09-03-2019 06:50:00 8.2 C 88 % 6.33 C
1812 09-03-2019 06:55:00 8.3 C 88 % 6.43 C
1813 09-03-2019 07:00:00 8.3 C 88 % 6.43 C
1814 09-03-2019 07:05:00 8.3 C 88 % 6.43 C
1815 09-03-2019 07:10:00 8.4 C 88 % 6.53 C
1816 09-03-2019 07:15:00 8.5 C 88 % 6.63 C
1817 09-03-2019 07:20:00 8.6 C 88 % 6.73 C
1818 09-03-2019 07:25:00 8.6 C 88 % 6.73 C
1819 09-03-2019 07:30:00 8.7 C 87 % 6.66 C
1820 09-03-2019 07:35:00 8.7 C 87 % 6.66 C
1821 09-03-2019 07:40:00 8.8 C 87 % 6.76 C
1822 09-03-2019 07:45:00 8.9 C 86 % 6.69 C
1823 09-03-2019 07:50:00 8.9 C 86 % 6.69 C
1824 09-03-2019 07:55:00 8.9 C 86 % 6.69 C
1825 09-03-2019 08:00:00 8.9 C 86 % 6.69 C
Sensor: Nr:Datum:Temp:Feuchte:Taupunkt:
Aussen-T/F 1826 09-03-2019 08:05:00 9 C 86 % 6.79 C
1827 09-03-2019 08:10:00 9.2 C 86 % 6.98 C
1828 09-03-2019 08:15:00 9.3 C 86 % 7.08 C
1829 09-03-2019 08:20:00 9.3 C 85 % 6.91 C
1830 09-03-2019 08:25:00 9.3 C 85 % 6.91 C
1831 09-03-2019 08:30:00 9.4 C 85 % 7.01 C
1832 09-03-2019 08:35:00 9.6 C 85 % 7.21 C
1833 09-03-2019 08:40:00 9.7 C 85 % 7.3 C
1834 09-03-2019 08:45:00 9.8 C 85 % 7.4 C
1835 09-03-2019 08:50:00 9.9 C 85 % 7.5 C
1836 09-03-2019 08:55:00 10 C 84 % 7.43 C
1837 09-03-2019 09:00:00 10.1 C 84 % 7.52 C
1838 09-03-2019 09:05:00 10.1 C 84 % 7.52 C
1839 09-03-2019 09:10:00 10.1 C 84 % 7.52 C
1840 09-03-2019 09:15:00 10.1 C 84 % 7.52 C
1841 09-03-2019 09:20:00 10.1 C 84 % 7.52 C
1842 09-03-2019 09:25:00 10.1 C 84 % 7.52 C
1843 09-03-2019 09:30:00 10.1 C 84 % 7.52 C
1844 09-03-2019 09:35:00 10.2 C 84 % 7.62 C
1845 09-03-2019 09:40:00 10.2 C 83 % 7.45 C
1846 09-03-2019 09:45:00 10.2 C 83 % 7.45 C
1847 09-03-2019 09:50:00 10.3 C 83 % 7.54 C
1848 09-03-2019 09:55:00 10.3 C 83 % 7.54 C
1849 09-03-2019 10:00:00 10.3 C 83 % 7.54 C
1850 09-03-2019 10:05:00 10.3 C 82 % 7.37 C
Sensor: Nr:Datum:Temp:Feuchte:Taupunkt:
Aussen-T/F 1851 09-03-2019 10:10:00 10.3 C 82 % 7.37 C
1852 09-03-2019 10:15:00 10.3 C 82 % 7.37 C
1853 09-03-2019 10:20:00 10.4 C 82 % 7.46 C
1854 09-03-2019 10:25:00 10.5 C 81 % 7.38 C
1855 09-03-2019 10:30:00 10.6 C 81 % 7.48 C
1856 09-03-2019 10:35:00 10.6 C 81 % 7.48 C
1857 09-03-2019 10:40:00 10.7 C 80 % 7.4 C
1858 09-03-2019 10:45:00 10.7 C 81 % 7.58 C
1859 09-03-2019 10:50:00 10.7 C 81 % 7.58 C
1860 09-03-2019 10:55:00 10.7 C 81 % 7.58 C
1861 09-03-2019 11:00:00 10.7 C 81 % 7.58 C
1862 09-03-2019 11:05:00 10.7 C 81 % 7.58 C
1863 09-03-2019 11:10:00 10.7 C 80 % 7.4 C
1864 09-03-2019 11:15:00 10.8 C 81 % 7.67 C
1865 09-03-2019 11:20:00 10.8 C 80 % 7.49 C
1866 09-03-2019 11:25:00 10.8 C 80 % 7.49 C
1867 09-03-2019 11:30:00 10.9 C 80 % 7.59 C
1868 09-03-2019 11:35:00 11 C 80 % 7.69 C
1869 09-03-2019 11:40:00 11.1 C 79 % 7.6 C
1870 09-03-2019 11:45:00 11.1 C 79 % 7.6 C
1871 09-03-2019 11:50:00 11.2 C 79 % 7.7 C
1872 09-03-2019 11:55:00 11.3 C 78 % 7.61 C
1873 09-03-2019 12:00:00 11.4 C 78 % 7.71 C
1874 09-03-2019 12:05:00 11.4 C 77 % 7.52 C
1875 09-03-2019 12:10:00 11.5 C 78 % 7.8 C
Sensor: Nr:Datum:Temp:Feuchte:Taupunkt:
Aussen-T/F 1876 09-03-2019 12:15:00 11.5 C 77 % 7.61 C
1877 09-03-2019 12:20:00 11.5 C 77 % 7.61 C
1878 09-03-2019 12:25:00 11.6 C 77 % 7.71 C
1879 09-03-2019 12:30:00 11.7 C 77 % 7.81 C
1880 09-03-2019 12:35:00 11.8 C 77 % 7.9 C
1881 09-03-2019 12:40:00 11.9 C 76 % 7.81 C
1882 09-03-2019 12:45:00 12.1 C 76 % 8 C
1883 09-03-2019 12:50:00 12.1 C 75 % 7.81 C
1884 09-03-2019 12:55:00 12.1 C 75 % 7.81 C
1885 09-03-2019 13:00:00 12.1 C 76 % 8 C
1886 09-03-2019 13:05:00 12.1 C 76 % 8 C
1887 09-03-2019 13:10:00 12.2 C 76 % 8.1 C
1888 09-03-2019 13:15:00 12.3 C 75 % 8 C
1889 09-03-2019 13:20:00 12.4 C 75 % 8.1 C
1890 09-03-2019 13:25:00 12.5 C 75 % 8.19 C
1891 09-03-2019 13:30:00 12.6 C 74 % 8.09 C
1892 09-03-2019 13:35:00 12.7 C 74 % 8.19 C
1893 09-03-2019 13:40:00 12.7 C 74 % 8.19 C
1894 09-03-2019 13:45:00 12.7 C 74 % 8.19 C
1895 09-03-2019 13:50:00 12.9 C 73 % 8.18 C
1896 09-03-2019 13:55:00 13.1 C 73 % 8.38 C
1897 09-03-2019 14:00:00 13.3 C 72 % 8.36 C
1898 09-03-2019 14:05:00 13.6 C 70 % 8.24 C
1899 09-03-2019 14:10:00 13.6 C 70 % 8.24 C
1900 09-03-2019 14:15:00 13.6 C 69 % 8.03 C
Sensor: Nr:Datum:Temp:Feuchte:Taupunkt:
Aussen-T/F 1901 09-03-2019 14:20:00 13.7 C 70 % 8.33 C
1902 09-03-2019 14:25:00 13.7 C 70 % 8.33 C
1903 09-03-2019 14:30:00 13.6 C 68 % 7.81 C
1904 09-03-2019 14:35:00 13.6 C 69 % 8.03 C
1905 09-03-2019 14:40:00 13.6 C 69 % 8.03 C
1906 09-03-2019 14:45:00 13.3 C 70 % 7.95 C
1907 09-03-2019 14:50:00 13.2 C 70 % 7.86 C
1908 09-03-2019 14:55:00 13 C 70 % 7.66 C
1909 09-03-2019 15:00:00 12.9 C 71 % 7.78 C
1910 09-03-2019 15:05:00 13 C 71 % 7.87 C
1911 09-03-2019 15:10:00 13.1 C 70 % 7.76 C
1912 09-03-2019 15:15:00 13.1 C 70 % 7.76 C
1913 09-03-2019 15:20:00 13.1 C 69 % 7.55 C
1914 09-03-2019 15:25:00 13.1 C 69 % 7.55 C
1915 09-03-2019 15:30:00 13.2 C 69 % 7.64 C
1916 09-03-2019 15:35:00 13.4 C 69 % 7.84 C
1917 09-03-2019 15:40:00 13.7 C 68 % 7.91 C
1918 09-03-2019 15:45:00 13.8 C 67 % 7.79 C
1919 09-03-2019 15:50:00 13.7 C 66 % 7.47 C
1920 09-03-2019 15:55:00 13.6 C 67 % 7.6 C
1921 09-03-2019 16:00:00 13.7 C 67 % 7.69 C
1922 09-03-2019 16:05:00 13.7 C 65 % 7.25 C
1923 09-03-2019 16:10:00 13.6 C 65 % 7.15 C
1924 09-03-2019 16:15:00 13.4 C 67 % 7.4 C
1925 09-03-2019 16:20:00 13.3 C 67 % 7.31 C
Sensor: Nr:Datum:Temp:Feuchte:Taupunkt:
Aussen-T/F 1926 09-03-2019 16:25:00 13.2 C 67 % 7.21 C
1927 09-03-2019 16:30:00 13.3 C 66 % 7.09 C
1928 09-03-2019 16:35:00 13.4 C 61 % 6.04 C
1929 09-03-2019 16:40:00 13.3 C 59 % 5.47 C
1930 09-03-2019 16:45:00 13.3 C 59 % 5.47 C
1931 09-03-2019 16:50:00 13.2 C 59 % 5.37 C
1932 09-03-2019 16:55:00 13.3 C 59 % 5.47 C
1933 09-03-2019 17:00:00 13.3 C 59 % 5.47 C
1934 09-03-2019 17:05:00 13.4 C 60 % 5.8 C
1935 09-03-2019 17:10:00 13.5 C 60 % 5.9 C
1936 09-03-2019 17:15:00 13.4 C 60 % 5.8 C
1937 09-03-2019 17:20:00 13.2 C 60 % 5.61 C
1938 09-03-2019 17:25:00 13.1 C 60 % 5.52 C
1939 09-03-2019 17:30:00 13.1 C 61 % 5.76 C
1940 09-03-2019 17:35:00 13.1 C 61 % 5.76 C
1941 09-03-2019 17:40:00 12.9 C 62 % 5.8 C
1942 09-03-2019 17:45:00 12.7 C 62 % 5.62 C
1943 09-03-2019 17:50:00 12.6 C 61 % 5.29 C
1944 09-03-2019 17:55:00 12.4 C 62 % 5.33 C
1945 09-03-2019 18:00:00 12.3 C 63 % 5.47 C
1946 09-03-2019 18:05:00 12.2 C 63 % 5.37 C
1947 09-03-2019 18:10:00 12.1 C 63 % 5.28 C
1948 09-03-2019 18:15:00 12 C 63 % 5.18 C
1949 09-03-2019 18:20:00 11.9 C 63 % 5.09 C
1950 09-03-2019 18:25:00 11.9 C 63 % 5.09 C
Sensor: Nr:Datum:Temp:Feuchte:Taupunkt:
Aussen-T/F 1951 09-03-2019 18:30:00 11.8 C 63 % 5 C
1952 09-03-2019 18:35:00 11.9 C 62 % 4.86 C
1953 09-03-2019 18:40:00 12 C 62 % 4.96 C
1954 09-03-2019 18:45:00 11.9 C 62 % 4.86 C
1955 09-03-2019 18:50:00 12.1 C 62 % 5.05 C
1956 09-03-2019 18:55:00 12.1 C 62 % 5.05 C
1957 09-03-2019 19:00:00 12.1 C 63 % 5.28 C
1958 09-03-2019 19:05:00 12 C 66 % 5.85 C
1959 09-03-2019 19:10:00 11.4 C 69 % 5.92 C
1960 09-03-2019 19:15:00 11.1 C 72 % 6.25 C
1961 09-03-2019 19:20:00 10.8 C 73 % 6.16 C
1962 09-03-2019 19:25:00 10.7 C 74 % 6.26 C
1963 09-03-2019 19:30:00 10.4 C 77 % 6.55 C
1964 09-03-2019 19:35:00 10.2 C 78 % 6.54 C
1965 09-03-2019 19:40:00 9.9 C 79 % 6.43 C
1966 09-03-2019 19:45:00 9.8 C 80 % 6.52 C
1967 09-03-2019 19:50:00 9.8 C 80 % 6.52 C
1968 09-03-2019 19:55:00 9.7 C 80 % 6.42 C
1969 09-03-2019 20:00:00 9.7 C 80 % 6.42 C
1970 09-03-2019 20:05:00 9.6 C 81 % 6.5 C
1971 09-03-2019 20:10:00 9.6 C 81 % 6.5 C
1972 09-03-2019 20:15:00 9.5 C 81 % 6.41 C
1973 09-03-2019 20:20:00 9.5 C 82 % 6.59 C
1974 09-03-2019 20:25:00 9.4 C 83 % 6.66 C
1975 09-03-2019 20:30:00 9.4 C 83 % 6.66 C
Sensor: Nr:Datum:Temp:Feuchte:Taupunkt:
Aussen-T/F 1976 09-03-2019 20:35:00 9.4 C 83 % 6.66 C
1977 09-03-2019 20:40:00 9.4 C 83 % 6.66 C
1978 09-03-2019 20:45:00 9.3 C 83 % 6.57 C
1979 09-03-2019 20:50:00 9.3 C 83 % 6.57 C
1980 09-03-2019 20:55:00 9.3 C 84 % 6.74 C
1981 09-03-2019 21:00:00 9.3 C 84 % 6.74 C
1982 09-03-2019 21:05:00 9.3 C 83 % 6.57 C
1983 09-03-2019 21:10:00 9.7 C 76 % 5.68 C
1984 09-03-2019 21:15:00 10.2 C 79 % 6.73 C
1985 09-03-2019 21:20:00 10.2 C 80 % 6.91 C
1986 09-03-2019 21:25:00 10 C 81 % 6.89 C
1987 09-03-2019 21:30:00 9.8 C 82 % 6.88 C
1988 09-03-2019 21:35:00 9.7 C 83 % 6.96 C
1989 09-03-2019 21:40:00 9.6 C 84 % 7.03 C
1990 09-03-2019 21:45:00 9.5 C 84 % 6.94 C
1991 09-03-2019 21:50:00 9.4 C 85 % 7.01 C
1992 09-03-2019 21:55:00 9.3 C 85 % 6.91 C
1993 09-03-2019 22:00:00 9.3 C 85 % 6.91 C
1994 09-03-2019 22:05:00 9.2 C 85 % 6.81 C
1995 09-03-2019 22:10:00 9.2 C 85 % 6.81 C
1996 09-03-2019 22:15:00 9.2 C 86 % 6.98 C
1997 09-03-2019 22:20:00 9.2 C 86 % 6.98 C
1998 09-03-2019 22:25:00 9.2 C 82 % 6.29 C
1999 09-03-2019 22:30:00 9.4 C 79 % 5.95 C
2000 09-03-2019 22:35:00 9.8 C 76 % 5.78 C
Sensor: Nr:Datum:Temp:Feuchte:Taupunkt:
Aussen-T/F 2001 09-03-2019 22:40:00 10 C 75 % 5.78 C
2002 09-03-2019 22:45:00 10.2 C 74 % 5.78 C
2003 09-03-2019 22:50:00 10.3 C 74 % 5.88 C
2004 09-03-2019 22:55:00 10.3 C 73 % 5.68 C
2005 09-03-2019 23:00:00 10.4 C 73 % 5.78 C
2006 09-03-2019 23:05:00 10.4 C 72 % 5.58 C
2007 09-03-2019 23:10:00 10.4 C 72 % 5.58 C
2008 09-03-2019 23:15:00 10.4 C 71 % 5.38 C
2009 09-03-2019 23:20:00 10.3 C 71 % 5.28 C
2010 09-03-2019 23:25:00 10.4 C 71 % 5.38 C
2011 09-03-2019 23:30:00 10.4 C 71 % 5.38 C
2012 09-03-2019 23:35:00 10.3 C 71 % 5.28 C
2013 09-03-2019 23:40:00 10.3 C 71 % 5.28 C
2014 09-03-2019 23:45:00 10.3 C 71 % 5.28 C
2015 09-03-2019 23:50:00 10.3 C 71 % 5.28 C
2016 09-03-2019 23:55:00 10.2 C 71 % 5.18 C
2017 10-03-2019 00:00:00 10.2 C 71 % 5.18 C
2018 10-03-2019 00:05:00 10.2 C 71 % 5.18 C
2019 10-03-2019 00:10:00 10.2 C 70 % 4.98 C
2020 10-03-2019 00:15:00 10.2 C 70 % 4.98 C
2021 10-03-2019 00:20:00 10.2 C 69 % 4.78 C
2022 10-03-2019 00:25:00 10.2 C 68 % 4.57 C
2023 10-03-2019 00:30:00 10.2 C 69 % 4.78 C
2024 10-03-2019 00:35:00 10.2 C 69 % 4.78 C
2025 10-03-2019 00:40:00 10.1 C 69 % 4.68 C
Sensor: Nr:Datum:Temp:Feuchte:Taupunkt:
Aussen-T/F 2026 10-03-2019 00:45:00 10 C 70 % 4.79 C
2027 10-03-2019 00:50:00 9.9 C 70 % 4.69 C
2028 10-03-2019 00:55:00 9.8 C 70 % 4.6 C
2029 10-03-2019 01:00:00 9.8 C 70 % 4.6 C
2030 10-03-2019 01:05:00 9.8 C 69 % 4.39 C
2031 10-03-2019 01:10:00 9.8 C 69 % 4.39 C
2032 10-03-2019 01:15:00 9.8 C 70 % 4.6 C
2033 10-03-2019 01:20:00 9.7 C 69 % 4.3 C
2034 10-03-2019 01:25:00 9.7 C 70 % 4.5 C
2035 10-03-2019 01:30:00 9.7 C 70 % 4.5 C
2036 10-03-2019 01:35:00 9.6 C 71 % 4.61 C
2037 10-03-2019 01:40:00 9.6 C 71 % 4.61 C
2038 10-03-2019 01:45:00 9.5 C 72 % 4.71 C
2039 10-03-2019 01:50:00 9.5 C 72 % 4.71 C
2040 10-03-2019 01:55:00 9.5 C 72 % 4.71 C
2041 10-03-2019 02:00:00 9.5 C 73 % 4.91 C
2042 10-03-2019 02:05:00 9.4 C 73 % 4.81 C
2043 10-03-2019 02:10:00 9.4 C 73 % 4.81 C
2044 10-03-2019 02:15:00 9.4 C 73 % 4.81 C
2045 10-03-2019 02:20:00 9.4 C 74 % 5.01 C
2046 10-03-2019 02:25:00 9.4 C 73 % 4.81 C
2047 10-03-2019 02:30:00 9.4 C 74 % 5.01 C
2048 10-03-2019 02:35:00 9.4 C 74 % 5.01 C
2049 10-03-2019 02:40:00 9.4 C 74 % 5.01 C
2050 10-03-2019 02:45:00 9.4 C 74 % 5.01 C
Sensor: Nr:Datum:Temp:Feuchte:Taupunkt:
Aussen-T/F 2051 10-03-2019 02:50:00 9.4 C 74 % 5.01 C
2052 10-03-2019 02:55:00 9.4 C 74 % 5.01 C
2053 10-03-2019 03:00:00 9.4 C 75 % 5.2 C
2054 10-03-2019 03:05:00 9.4 C 75 % 5.2 C
2055 10-03-2019 03:10:00 9.3 C 75 % 5.1 C
2056 10-03-2019 03:15:00 9.3 C 76 % 5.29 C
2057 10-03-2019 03:20:00 9.3 C 76 % 5.29 C
2058 10-03-2019 03:25:00 9.2 C 77 % 5.38 C
2059 10-03-2019 03:30:00 9.2 C 77 % 5.38 C
2060 10-03-2019 03:35:00 9.1 C 78 % 5.47 C
2061 10-03-2019 03:40:00 8.9 C 79 % 5.46 C
2062 10-03-2019 03:45:00 8.8 C 79 % 5.36 C
2063 10-03-2019 03:50:00 8.7 C 80 % 5.45 C
2064 10-03-2019 03:55:00 8.6 C 81 % 5.53 C
2065 10-03-2019 04:00:00 8.5 C 81 % 5.43 C
2066 10-03-2019 04:05:00 8.4 C 81 % 5.33 C
2067 10-03-2019 04:10:00 8.4 C 82 % 5.51 C
2068 10-03-2019 04:15:00 8.4 C 83 % 5.69 C
2069 10-03-2019 04:20:00 8.4 C 84 % 5.86 C
2070 10-03-2019 04:25:00 8.4 C 85 % 6.03 C
2071 10-03-2019 04:30:00 8.4 C 86 % 6.2 C
2072 10-03-2019 04:35:00 8.3 C 87 % 6.27 C
2073 10-03-2019 04:40:00 8.3 C 87 % 6.27 C
2074 10-03-2019 04:45:00 8.2 C 88 % 6.33 C
2075 10-03-2019 04:50:00 8.1 C 88 % 6.24 C
Sensor: Nr:Datum:Temp:Feuchte:Taupunkt:
Aussen-T/F 2076 10-03-2019 04:55:00 8.1 C 89 % 6.4 C
2077 10-03-2019 05:00:00 8 C 89 % 6.3 C
2078 10-03-2019 05:05:00 7.9 C 90 % 6.36 C
2079 10-03-2019 05:10:00 7.9 C 90 % 6.36 C
2080 10-03-2019 05:15:00 7.9 C 90 % 6.36 C
2081 10-03-2019 05:20:00 7.9 C 90 % 6.36 C
2082 10-03-2019 05:25:00 7.8 C 91 % 6.43 C
2083 10-03-2019 05:30:00 7.8 C 91 % 6.43 C
2084 10-03-2019 05:35:00 7.7 C 92 % 6.48 C
2085 10-03-2019 05:40:00 7.7 C 92 % 6.48 C
2086 10-03-2019 05:45:00 7.7 C 92 % 6.48 C
2087 10-03-2019 05:50:00 7.7 C 92 % 6.48 C
2088 10-03-2019 05:55:00 7.6 C 92 % 6.39 C
2089 10-03-2019 06:00:00 7.6 C 93 % 6.54 C
2090 10-03-2019 06:05:00 7.6 C 93 % 6.54 C
2091 10-03-2019 06:10:00 7.6 C 93 % 6.54 C
2092 10-03-2019 06:15:00 7.6 C 93 % 6.54 C
2093 10-03-2019 06:20:00 7.5 C 93 % 6.44 C
2094 10-03-2019 06:25:00 7.5 C 93 % 6.44 C
2095 10-03-2019 06:30:00 7.4 C 94 % 6.5 C
2096 10-03-2019 06:35:00 7.4 C 94 % 6.5 C
2097 10-03-2019 06:40:00 7.4 C 94 % 6.5 C
2098 10-03-2019 06:45:00 7.4 C 94 % 6.5 C
2099 10-03-2019 06:50:00 7.4 C 94 % 6.5 C
2100 10-03-2019 06:55:00 7.3 C 94 % 6.4 C
Sensor: Nr:Datum:Temp:Feuchte:Taupunkt:
Aussen-T/F 2101 10-03-2019 07:00:00 7.3 C 94 % 6.4 C
2102 10-03-2019 07:05:00 7.4 C 94 % 6.5 C
2103 10-03-2019 07:10:00 7.4 C 95 % 6.65 C
2104 10-03-2019 07:15:00 7.6 C 95 % 6.85 C
2105 10-03-2019 07:20:00 7.6 C 95 % 6.85 C
2106 10-03-2019 07:25:00 7.7 C 95 % 6.95 C
2107 10-03-2019 07:30:00 7.7 C 95 % 6.95 C
2108 10-03-2019 07:35:00 7.8 C 95 % 7.05 C
2109 10-03-2019 07:40:00 7.8 C 95 % 7.05 C
2110 10-03-2019 07:45:00 7.9 C 95 % 7.15 C
2111 10-03-2019 07:50:00 7.9 C 95 % 7.15 C
2112 10-03-2019 07:55:00 8 C 95 % 7.25 C
2113 10-03-2019 08:00:00 8.1 C 95 % 7.35 C
2114 10-03-2019 08:05:00 8.1 C 96 % 7.5 C
2115 10-03-2019 08:10:00 8.2 C 96 % 7.6 C
2116 10-03-2019 08:15:00 8.3 C 96 % 7.7 C
2117 10-03-2019 08:20:00 8.4 C 96 % 7.8 C
2118 10-03-2019 08:25:00 8.7 C 96 % 8.1 C
2119 10-03-2019 08:30:00 8.9 C 96 % 8.3 C
2120 10-03-2019 08:35:00 9.2 C 96 % 8.6 C
2121 10-03-2019 08:40:00 9.4 C 96 % 8.8 C
2122 10-03-2019 08:45:00 9.6 C 96 % 8.99 C
2123 10-03-2019 08:50:00 9.7 C 96 % 9.09 C
2124 10-03-2019 08:55:00 9.8 C 96 % 9.19 C
2125 10-03-2019 09:00:00 9.9 C 96 % 9.29 C
Sensor: Nr:Datum:Temp:Feuchte:Taupunkt:
Aussen-T/F 2126 10-03-2019 09:05:00 10.1 C 96 % 9.49 C
2127 10-03-2019 09:10:00 10.2 C 95 % 9.44 C
2128 10-03-2019 09:15:00 10.3 C 95 % 9.54 C
2129 10-03-2019 09:20:00 10.4 C 95 % 9.63 C
2130 10-03-2019 09:25:00 10.4 C 95 % 9.63 C
2131 10-03-2019 09:30:00 10.6 C 95 % 9.83 C
2132 10-03-2019 09:35:00 10.7 C 95 % 9.93 C
2133 10-03-2019 09:40:00 10.8 C 95 % 10.03 C
2134 10-03-2019 09:45:00 11.1 C 95 % 10.33 C
2135 10-03-2019 09:50:00 11.2 C 95 % 10.43 C
2136 10-03-2019 09:55:00 11.3 C 95 % 10.53 C
2137 10-03-2019 10:00:00 11.4 C 94 % 10.47 C
2138 10-03-2019 10:05:00 11.5 C 94 % 10.57 C
2139 10-03-2019 10:10:00 11.6 C 94 % 10.67 C
2140 10-03-2019 10:15:00 11.7 C 94 % 10.77 C
2141 10-03-2019 10:20:00 11.8 C 94 % 10.87 C
2142 10-03-2019 10:25:00 11.9 C 94 % 10.97 C
2143 10-03-2019 10:30:00 12 C 94 % 11.07 C
2144 10-03-2019 10:35:00 12.2 C 94 % 11.26 C
2145 10-03-2019 10:40:00 12.2 C 93 % 11.1 C
2146 10-03-2019 10:45:00 12.3 C 92 % 11.04 C
2147 10-03-2019 10:50:00 12.4 C 92 % 11.14 C
2148 10-03-2019 10:55:00 12.5 C 91 % 11.07 C
2149 10-03-2019 11:00:00 12.6 C 90 % 11 C
2150 10-03-2019 11:05:00 12.7 C 88 % 10.77 C
Sensor: Nr:Datum:Temp:Feuchte:Taupunkt:
Aussen-T/F 2151 10-03-2019 11:10:00 12.8 C 85 % 10.34 C
2152 10-03-2019 11:15:00 12.9 C 81 % 9.72 C
2153 10-03-2019 11:20:00 13.2 C 79 % 9.64 C
2154 10-03-2019 11:25:00 13.3 C 77 % 9.36 C
2155 10-03-2019 11:30:00 13.3 C 75 % 8.97 C
2156 10-03-2019 11:35:00 13.3 C 74 % 8.77 C
2157 10-03-2019 11:40:00 13.3 C 74 % 8.77 C
2158 10-03-2019 11:45:00 13.3 C 75 % 8.97 C
2159 10-03-2019 11:50:00 13.4 C 74 % 8.87 C
2160 10-03-2019 11:55:00 13.6 C 73 % 8.86 C
2161 10-03-2019 12:00:00 13.7 C 75 % 9.35 C
2162 10-03-2019 12:05:00 13.8 C 75 % 9.45 C
2163 10-03-2019 12:10:00 13.9 C 73 % 9.15 C
2164 10-03-2019 12:15:00 14.1 C 72 % 9.13 C
2165 10-03-2019 12:20:00 14.1 C 71 % 8.93 C
2166 10-03-2019 12:25:00 14.2 C 71 % 9.02 C
2167 10-03-2019 12:30:00 14.3 C 71 % 9.12 C
2168 10-03-2019 12:35:00 14.3 C 70 % 8.91 C
2169 10-03-2019 12:40:00 14.3 C 72 % 9.33 C
2170 10-03-2019 12:45:00 14.3 C 72 % 9.33 C
2171 10-03-2019 12:50:00 14.3 C 73 % 9.53 C
2172 10-03-2019 12:55:00 14.2 C 72 % 9.23 C
2173 10-03-2019 13:00:00 14.1 C 72 % 9.13 C
2174 10-03-2019 13:05:00 13.9 C 71 % 8.73 C
2175 10-03-2019 13:10:00 13.9 C 69 % 8.31 C
Sensor: Nr:Datum:Temp:Feuchte:Taupunkt:
Aussen-T/F 2176 10-03-2019 13:15:00 13.9 C 69 % 8.31 C
2177 10-03-2019 13:20:00 14 C 69 % 8.41 C
2178 10-03-2019 13:25:00 14.1 C 68 % 8.29 C
2179 10-03-2019 13:30:00 14.2 C 68 % 8.39 C
2180 10-03-2019 13:35:00 14.6 C 64 % 7.87 C
2181 10-03-2019 13:40:00 14.9 C 59 % 6.97 C
2182 10-03-2019 13:45:00 15.1 C 57 % 6.65 C
2183 10-03-2019 13:50:00 15.1 C 56 % 6.4 C
2184 10-03-2019 13:55:00 15 C 53 % 5.51 C
2185 10-03-2019 14:00:00 14.9 C 52 % 5.14 C
2186 10-03-2019 14:05:00 14.8 C 51 % 4.77 C
2187 10-03-2019 14:10:00 14.8 C 52 % 5.05 C
2188 10-03-2019 14:15:00 14.7 C 52 % 4.96 C
2189 10-03-2019 14:20:00 14.6 C 53 % 5.14 C
2190 10-03-2019 14:25:00 14.4 C 52 % 4.68 C
2191 10-03-2019 14:30:00 14.3 C 52 % 4.59 C
2192 10-03-2019 14:35:00 14.2 C 52 % 4.5 C
2193 10-03-2019 14:40:00 14.2 C 52 % 4.5 C
2194 10-03-2019 14:45:00 14.1 C 53 % 4.68 C
2195 10-03-2019 14:50:00 14 C 51 % 4.04 C
2196 10-03-2019 14:55:00 13.9 C 52 % 4.22 C
2197 10-03-2019 15:00:00 13.9 C 52 % 4.22 C
2198 10-03-2019 15:05:00 13.8 C 51 % 3.85 C
2199 10-03-2019 15:10:00 13.7 C 52 % 4.03 C
2200 10-03-2019 15:15:00 13.5 C 51 % 3.57 C
Sensor: Nr:Datum:Temp:Feuchte:Taupunkt:
Aussen-T/F 2201 10-03-2019 15:20:00 13.4 C 50 % 3.2 C
2202 10-03-2019 15:25:00 13.4 C 51 % 3.48 C
2203 10-03-2019 15:30:00 13.4 C 48 % 2.63 C
2204 10-03-2019 15:35:00 13.5 C 48 % 2.72 C
2205 10-03-2019 15:40:00 13.6 C 50 % 3.39 C
2206 10-03-2019 15:45:00 13.7 C 49 % 3.19 C
2207 10-03-2019 15:50:00 13.5 C 51 % 3.57 C
2208 10-03-2019 15:55:00 13.3 C 50 % 3.11 C
2209 10-03-2019 16:00:00 13.2 C 50 % 3.02 C
2210 10-03-2019 16:05:00 13 C 51 % 3.11 C
2211 10-03-2019 16:10:00 12.8 C 51 % 2.93 C
2212 10-03-2019 16:15:00 12.6 C 52 % 3.02 C
2213 10-03-2019 16:20:00 12.5 C 51 % 2.65 C
2214 10-03-2019 16:25:00 12.4 C 50 % 2.28 C
2215 10-03-2019 16:30:00 12.4 C 50 % 2.28 C
2216 10-03-2019 16:35:00 12.6 C 49 % 2.18 C
2217 10-03-2019 16:40:00 12.4 C 48 % 1.71 C
2218 10-03-2019 16:45:00 12.3 C 49 % 1.91 C
2219 10-03-2019 16:50:00 12.2 C 50 % 2.1 C
2220 10-03-2019 16:55:00 12 C 51 % 2.19 C
2221 10-03-2019 17:00:00 11.9 C 51 % 2.1 C
2222 10-03-2019 17:05:00 11.7 C 51 % 1.91 C
2223 10-03-2019 17:10:00 11.6 C 51 % 1.82 C
2224 10-03-2019 17:15:00 11.6 C 51 % 1.82 C
2225 10-03-2019 17:20:00 11.4 C 59 % 3.68 C
Sensor: Nr:Datum:Temp:Feuchte:Taupunkt:
Aussen-T/F 2226 10-03-2019 17:25:00 10.7 C 64 % 4.18 C
2227 10-03-2019 17:30:00 9.9 C 69 % 4.49 C
2228 10-03-2019 17:35:00 9.4 C 71 % 4.42 C
2229 10-03-2019 17:40:00 9.2 C 71 % 4.22 C
2230 10-03-2019 17:45:00 9.1 C 72 % 4.33 C
2231 10-03-2019 17:50:00 9.1 C 73 % 4.52 C
2232 10-03-2019 17:55:00 9 C 72 % 4.23 C
2233 10-03-2019 18:00:00 9 C 72 % 4.23 C
2234 10-03-2019 18:05:00 9.1 C 73 % 4.52 C
2235 10-03-2019 18:10:00 8.7 C 76 % 4.71 C
2236 10-03-2019 18:15:00 8 C 79 % 4.59 C
2237 10-03-2019 18:20:00 7.7 C 81 % 4.65 C
2238 10-03-2019 18:25:00 7.5 C 82 % 4.63 C
2239 10-03-2019 18:30:00 7.3 C 83 % 4.61 C
2240 10-03-2019 18:35:00 7.1 C 83 % 4.41 C
2241 10-03-2019 18:40:00 7.1 C 84 % 4.58 C
2242 10-03-2019 18:45:00 7 C 84 % 4.49 C
2243 10-03-2019 18:50:00 6.9 C 83 % 4.22 C
2244 10-03-2019 18:55:00 6.9 C 83 % 4.22 C
2245 10-03-2019 19:00:00 6.9 C 81 % 3.87 C
2246 10-03-2019 19:05:00 6.9 C 81 % 3.87 C
2247 10-03-2019 19:10:00 6.8 C 81 % 3.77 C
2248 10-03-2019 19:15:00 6.8 C 81 % 3.77 C
2249 10-03-2019 19:20:00 6.8 C 81 % 3.77 C
2250 10-03-2019 19:25:00 6.8 C 80 % 3.6 C
Sensor: Nr:Datum:Temp:Feuchte:Taupunkt:
Aussen-T/F 2251 10-03-2019 19:30:00 6.8 C 79 % 3.42 C
2252 10-03-2019 19:35:00 6.9 C 78 % 3.34 C
2253 10-03-2019 19:40:00 7 C 77 % 3.25 C
2254 10-03-2019 19:45:00 7.1 C 75 % 2.98 C
2255 10-03-2019 19:50:00 7.2 C 75 % 3.07 C
2256 10-03-2019 19:55:00 7.3 C 74 % 2.98 C
2257 10-03-2019 20:00:00 7.3 C 73 % 2.79 C
2258 10-03-2019 20:05:00 7.3 C 72 % 2.6 C
2259 10-03-2019 20:10:00 7.2 C 73 % 2.69 C
2260 10-03-2019 20:15:00 6.6 C 73 % 2.12 C
2261 10-03-2019 20:20:00 6 C 74 % 1.73 C
2262 10-03-2019 20:25:00 5.7 C 75 % 1.62 C
2263 10-03-2019 20:30:00 5.6 C 76 % 1.71 C
2264 10-03-2019 20:35:00 5.6 C 77 % 1.89 C
2265 10-03-2019 20:40:00 5.4 C 77 % 1.7 C
2266 10-03-2019 20:45:00 5.4 C 78 % 1.88 C
2267 10-03-2019 20:50:00 5.4 C 78 % 1.88 C
2268 10-03-2019 20:55:00 5.4 C 79 % 2.06 C
2269 10-03-2019 21:00:00 5.3 C 79 % 1.96 C
2270 10-03-2019 21:05:00 5.3 C 79 % 1.96 C
2271 10-03-2019 21:10:00 5.2 C 79 % 1.86 C
2272 10-03-2019 21:15:00 5.2 C 80 % 2.04 C
2273 10-03-2019 21:20:00 5.2 C 80 % 2.04 C
2274 10-03-2019 21:25:00 5.1 C 80 % 1.94 C
2275 10-03-2019 21:30:00 5.1 C 80 % 1.94 C
Sensor: Nr:Datum:Temp:Feuchte:Taupunkt:
Aussen-T/F 2276 10-03-2019 21:35:00 5.2 C 80 % 2.04 C
2277 10-03-2019 21:40:00 5.3 C 79 % 1.96 C
2278 10-03-2019 21:45:00 5.3 C 78 % 1.78 C
2279 10-03-2019 21:50:00 5.2 C 78 % 1.69 C
2280 10-03-2019 21:55:00 5.2 C 78 % 1.69 C
2281 10-03-2019 22:00:00 5.1 C 78 % 1.59 C
2282 10-03-2019 22:05:00 4.9 C 78 % 1.39 C
2283 10-03-2019 22:10:00 4.9 C 79 % 1.57 C
2284 10-03-2019 22:15:00 4.9 C 80 % 1.75 C
2285 10-03-2019 22:20:00 5 C 80 % 1.84 C
2286 10-03-2019 22:25:00 5.1 C 80 % 1.94 C
2287 10-03-2019 22:30:00 5.2 C 80 % 2.04 C
2288 10-03-2019 22:35:00 5.2 C 80 % 2.04 C
2289 10-03-2019 22:40:00 5.2 C 81 % 2.21 C
2290 10-03-2019 22:45:00 5.2 C 81 % 2.21 C
2291 10-03-2019 22:50:00 5.1 C 81 % 2.12 C
2292 10-03-2019 22:55:00 4.9 C 81 % 1.92 C
2293 10-03-2019 23:00:00 4.9 C 81 % 1.92 C
2294 10-03-2019 23:05:00 4.8 C 81 % 1.82 C
2295 10-03-2019 23:10:00 4.8 C 81 % 1.82 C
2296 10-03-2019 23:15:00 4.8 C 81 % 1.82 C
2297 10-03-2019 23:20:00 4.9 C 81 % 1.92 C
2298 10-03-2019 23:25:00 4.9 C 80 % 1.75 C
2299 10-03-2019 23:30:00 5 C 80 % 1.84 C
2300 10-03-2019 23:35:00 4.9 C 80 % 1.75 C
Sensor: Nr:Datum:Temp:Feuchte:Taupunkt:
Aussen-T/F 2301 10-03-2019 23:40:00 4.9 C 80 % 1.75 C
2302 10-03-2019 23:45:00 4.8 C 80 % 1.65 C
2303 10-03-2019 23:50:00 4.8 C 80 % 1.65 C
2304 10-03-2019 23:55:00 4.8 C 80 % 1.65 C
2305 11-03-2019 00:00:00 4.7 C 80 % 1.55 C
2306 11-03-2019 00:05:00 4.6 C 80 % 1.46 C
2307 11-03-2019 00:10:00 4.5 C 80 % 1.36 C
2308 11-03-2019 00:15:00 4.4 C 81 % 1.43 C
2309 11-03-2019 00:20:00 4.3 C 81 % 1.34 C
2310 11-03-2019 00:25:00 4.2 C 81 % 1.24 C
2311 11-03-2019 00:30:00 4.2 C 81 % 1.24 C
2312 11-03-2019 00:35:00 4.2 C 82 % 1.41 C
2313 11-03-2019 00:40:00 4.2 C 82 % 1.41 C
2314 11-03-2019 00:45:00 4.2 C 82 % 1.41 C
2315 11-03-2019 00:50:00 4.3 C 82 % 1.51 C
2316 11-03-2019 00:55:00 4.3 C 81 % 1.34 C
2317 11-03-2019 01:00:00 4.3 C 81 % 1.34 C
2318 11-03-2019 01:05:00 4.4 C 81 % 1.43 C
2319 11-03-2019 01:10:00 4.4 C 80 % 1.26 C
2320 11-03-2019 01:15:00 4.5 C 80 % 1.36 C
2321 11-03-2019 01:20:00 4.5 C 80 % 1.36 C
2322 11-03-2019 01:25:00 4.4 C 80 % 1.26 C
2323 11-03-2019 01:30:00 4.3 C 80 % 1.16 C
2324 11-03-2019 01:35:00 4.4 C 80 % 1.26 C
2325 11-03-2019 01:40:00 4.5 C 79 % 1.18 C
Sensor: Nr:Datum:Temp:Feuchte:Taupunkt:
Aussen-T/F 2326 11-03-2019 01:45:00 4.7 C 79 % 1.38 C
2327 11-03-2019 01:50:00 4.8 C 78 % 1.3 C
2328 11-03-2019 01:55:00 4.9 C 78 % 1.39 C
2329 11-03-2019 02:00:00 5 C 78 % 1.49 C
2330 11-03-2019 02:05:00 5.2 C 77 % 1.51 C
2331 11-03-2019 02:10:00 5.4 C 77 % 1.7 C
2332 11-03-2019 02:15:00 5.4 C 77 % 1.7 C
2333 11-03-2019 02:20:00 5.3 C 78 % 1.78 C
2334 11-03-2019 02:25:00 5.2 C 79 % 1.86 C
2335 11-03-2019 02:30:00 5.1 C 80 % 1.94 C
2336 11-03-2019 02:35:00 5 C 80 % 1.84 C
2337 11-03-2019 02:40:00 4.9 C 80 % 1.75 C
2338 11-03-2019 02:45:00 4.9 C 80 % 1.75 C
2339 11-03-2019 02:50:00 4.9 C 80 % 1.75 C
2340 11-03-2019 02:55:00 5 C 81 % 2.02 C
2341 11-03-2019 03:00:00 5 C 81 % 2.02 C
2342 11-03-2019 03:05:00 5 C 81 % 2.02 C
2343 11-03-2019 03:10:00 5 C 82 % 2.19 C
2344 11-03-2019 03:15:00 4.9 C 81 % 1.92 C
2345 11-03-2019 03:20:00 4.3 C 83 % 1.67 C
2346 11-03-2019 03:25:00 3.7 C 85 % 1.42 C
2347 11-03-2019 03:30:00 3.3 C 86 % 1.19 C
2348 11-03-2019 03:35:00 2.9 C 87 % 0.96 C
2349 11-03-2019 03:40:00 2.6 C 88 % 0.82 C
2350 11-03-2019 03:45:00 2.5 C 89 % 0.88 C
Sensor: Nr:Datum:Temp:Feuchte:Taupunkt:
Aussen-T/F 2351 11-03-2019 03:50:00 2.4 C 90 % 0.93 C
2352 11-03-2019 03:55:00 2.3 C 91 % 0.99 C
2353 11-03-2019 04:00:00 2.3 C 91 % 0.99 C
2354 11-03-2019 04:05:00 2.3 C 92 % 1.14 C
2355 11-03-2019 04:10:00 2.3 C 92 % 1.14 C
2356 11-03-2019 04:15:00 2.3 C 92 % 1.14 C
2357 11-03-2019 04:20:00 2.3 C 93 % 1.29 C
2358 11-03-2019 04:25:00 2.3 C 93 % 1.29 C
2359 11-03-2019 04:30:00 2.4 C 93 % 1.39 C
2360 11-03-2019 04:35:00 2.5 C 93 % 1.49 C
2361 11-03-2019 04:40:00 2.5 C 93 % 1.49 C
2362 11-03-2019 04:45:00 2.4 C 93 % 1.39 C
2363 11-03-2019 04:50:00 2.4 C 93 % 1.39 C
2364 11-03-2019 04:55:00 2.4 C 93 % 1.39 C
2365 11-03-2019 05:00:00 2.4 C 94 % 1.54 C
2366 11-03-2019 05:05:00 2.5 C 94 % 1.63 C
2367 11-03-2019 05:10:00 2.4 C 93 % 1.39 C
2368 11-03-2019 05:15:00 2.3 C 93 % 1.29 C
2369 11-03-2019 05:20:00 2.2 C 93 % 1.19 C
2370 11-03-2019 05:25:00 2.2 C 93 % 1.19 C
2371 11-03-2019 05:30:00 2.2 C 93 % 1.19 C
2372 11-03-2019 05:35:00 2.1 C 92 % 0.94 C
2373 11-03-2019 05:40:00 2 C 92 % 0.84 C
2374 11-03-2019 05:45:00 2 C 92 % 0.84 C
2375 11-03-2019 05:50:00 2.1 C 92 % 0.94 C
Sensor: Nr:Datum:Temp:Feuchte:Taupunkt:
Aussen-T/F 2376 11-03-2019 05:55:00 2.1 C 92 % 0.94 C
2377 11-03-2019 06:00:00 2.2 C 92 % 1.04 C
2378 11-03-2019 06:05:00 2.1 C 92 % 0.94 C
2379 11-03-2019 06:10:00 1.9 C 92 % 0.74 C
2380 11-03-2019 06:15:00 1.8 C 92 % 0.64 C
2381 11-03-2019 06:20:00 1.8 C 92 % 0.64 C
2382 11-03-2019 06:25:00 1.7 C 92 % 0.54 C
2383 11-03-2019 06:30:00 1.7 C 93 % 0.69 C
2384 11-03-2019 06:35:00 1.6 C 93 % 0.59 C
2385 11-03-2019 06:40:00 1.6 C 93 % 0.59 C
2386 11-03-2019 06:45:00 1.6 C 93 % 0.59 C
2387 11-03-2019 06:50:00 1.5 C 93 % 0.49 C
2388 11-03-2019 06:55:00 1.4 C 93 % 0.4 C
2389 11-03-2019 07:00:00 1.4 C 93 % 0.4 C
2390 11-03-2019 07:05:00 1.4 C 93 % 0.4 C
2391 11-03-2019 07:10:00 1.4 C 94 % 0.54 C
2392 11-03-2019 07:15:00 1.3 C 94 % 0.44 C
2393 11-03-2019 07:20:00 1.3 C 94 % 0.44 C
2394 11-03-2019 07:25:00 1.4 C 94 % 0.54 C
2395 11-03-2019 07:30:00 1.4 C 94 % 0.54 C
2396 11-03-2019 07:35:00 1.5 C 94 % 0.64 C
2397 11-03-2019 07:40:00 1.7 C 95 % 0.99 C
2398 11-03-2019 07:45:00 1.8 C 95 % 1.09 C
2399 11-03-2019 07:50:00 1.8 C 95 % 1.09 C
2400 11-03-2019 07:55:00 1.9 C 95 % 1.19 C
Sensor: Nr:Datum:Temp:Feuchte:Taupunkt:
Aussen-T/F 2401 11-03-2019 08:00:00 1.9 C 95 % 1.19 C
2402 11-03-2019 08:05:00 2 C 95 % 1.29 C
2403 11-03-2019 08:10:00 2 C 95 % 1.29 C
2404 11-03-2019 08:15:00 2 C 95 % 1.29 C
2405 11-03-2019 08:20:00 2.1 C 95 % 1.38 C
2406 11-03-2019 08:25:00 2.2 C 95 % 1.48 C
2407 11-03-2019 08:30:00 2.3 C 95 % 1.58 C
2408 11-03-2019 08:35:00 2.4 C 95 % 1.68 C
2409 11-03-2019 08:40:00 2.5 C 95 % 1.78 C
2410 11-03-2019 08:45:00 2.7 C 95 % 1.98 C
2411 11-03-2019 08:50:00 2.8 C 95 % 2.08 C
2412 11-03-2019 08:55:00 2.9 C 95 % 2.18 C
2413 11-03-2019 09:00:00 3 C 94 % 2.13 C
2414 11-03-2019 09:05:00 3 C 93 % 1.98 C
2415 11-03-2019 09:10:00 3.2 C 91 % 1.88 C
2416 11-03-2019 09:15:00 3.3 C 89 % 1.67 C
2417 11-03-2019 09:20:00 3.4 C 89 % 1.76 C
2418 11-03-2019 09:25:00 3.6 C 87 % 1.64 C
2419 11-03-2019 09:30:00 3.7 C 86 % 1.58 C
2420 11-03-2019 09:35:00 3.6 C 87 % 1.64 C
2421 11-03-2019 09:40:00 3.4 C 88 % 1.61 C
2422 11-03-2019 09:45:00 3.3 C 89 % 1.67 C
2423 11-03-2019 09:50:00 3.3 C 90 % 1.82 C
2424 11-03-2019 09:55:00 3.3 C 90 % 1.82 C
2425 11-03-2019 10:00:00 3.4 C 91 % 2.07 C
Sensor: Nr:Datum:Temp:Feuchte:Taupunkt:
Aussen-T/F 2426 11-03-2019 10:05:00 3.5 C 91 % 2.17 C
2427 11-03-2019 10:10:00 3.6 C 91 % 2.27 C
2428 11-03-2019 10:15:00 3.8 C 91 % 2.47 C
2429 11-03-2019 10:20:00 3.9 C 91 % 2.57 C
2430 11-03-2019 10:25:00 4.1 C 89 % 2.45 C
2431 11-03-2019 10:30:00 4.1 C 88 % 2.3 C
2432 11-03-2019 10:35:00 4.1 C 87 % 2.14 C
2433 11-03-2019 10:40:00 4.2 C 86 % 2.07 C
2434 11-03-2019 10:45:00 4.1 C 85 % 1.81 C
2435 11-03-2019 10:50:00 4.1 C 85 % 1.81 C
2436 11-03-2019 10:55:00 4.2 C 85 % 1.91 C
2437 11-03-2019 11:00:00 4.3 C 86 % 2.17 C
2438 11-03-2019 11:05:00 4.4 C 86 % 2.27 C
2439 11-03-2019 11:10:00 4.6 C 85 % 2.3 C
2440 11-03-2019 11:15:00 4.6 C 84 % 2.14 C
2441 11-03-2019 11:20:00 4.6 C 83 % 1.97 C
2442 11-03-2019 11:25:00 4.7 C 84 % 2.23 C
2443 11-03-2019 11:30:00 4.9 C 83 % 2.26 C
2444 11-03-2019 11:35:00 5.2 C 81 % 2.21 C
2445 11-03-2019 11:40:00 5.3 C 79 % 1.96 C
2446 11-03-2019 11:45:00 5.3 C 79 % 1.96 C
2447 11-03-2019 11:50:00 5.3 C 79 % 1.96 C
2448 11-03-2019 11:55:00 5.3 C 79 % 1.96 C
2449 11-03-2019 12:00:00 5.3 C 79 % 1.96 C
2450 11-03-2019 12:05:00 5.3 C 78 % 1.78 C
Sensor: Nr:Datum:Temp:Feuchte:Taupunkt:
Aussen-T/F 2451 11-03-2019 12:10:00 5.3 C 77 % 1.6 C
2452 11-03-2019 12:15:00 5.4 C 77 % 1.7 C
2453 11-03-2019 12:20:00 5.5 C 76 % 1.62 C
2454 11-03-2019 12:25:00 5.6 C 77 % 1.89 C
2455 11-03-2019 12:30:00 5.6 C 76 % 1.71 C
2456 11-03-2019 12:35:00 5.7 C 76 % 1.81 C
2457 11-03-2019 12:40:00 5.8 C 75 % 1.72 C
2458 11-03-2019 12:45:00 5.8 C 75 % 1.72 C
2459 11-03-2019 12:50:00 5.9 C 76 % 2 C
2460 11-03-2019 12:55:00 6.1 C 74 % 1.82 C
2461 11-03-2019 13:00:00 6.1 C 73 % 1.63 C
2462 11-03-2019 13:05:00 6.1 C 73 % 1.63 C
2463 11-03-2019 13:10:00 6.1 C 72 % 1.44 C
2464 11-03-2019 13:15:00 6.1 C 73 % 1.63 C
2465 11-03-2019 13:20:00 6.1 C 73 % 1.63 C
2466 11-03-2019 13:25:00 6.3 C 72 % 1.63 C
2467 11-03-2019 13:30:00 6.3 C 72 % 1.63 C
2468 11-03-2019 13:35:00 6.7 C 73 % 2.21 C
2469 11-03-2019 13:40:00 7.2 C 71 % 2.3 C
2470 11-03-2019 13:45:00 7.5 C 70 % 2.39 C
2471 11-03-2019 13:50:00 7.4 C 69 % 2.1 C
2472 11-03-2019 13:55:00 7 C 71 % 2.11 C
2473 11-03-2019 14:00:00 6.8 C 72 % 2.12 C
2474 11-03-2019 14:05:00 6.6 C 71 % 1.73 C
2475 11-03-2019 14:10:00 6.7 C 73 % 2.21 C
Sensor: Nr:Datum:Temp:Feuchte:Taupunkt:
Aussen-T/F 2476 11-03-2019 14:15:00 6.8 C 72 % 2.12 C
2477 11-03-2019 14:20:00 6.8 C 72 % 2.12 C
2478 11-03-2019 14:25:00 6.9 C 71 % 2.02 C
2479 11-03-2019 14:30:00 7.1 C 71 % 2.21 C
2480 11-03-2019 14:35:00 7.2 C 71 % 2.3 C
2481 11-03-2019 14:40:00 7.4 C 67 % 1.69 C
2482 11-03-2019 14:45:00 7.4 C 67 % 1.69 C
2483 11-03-2019 14:50:00 7.4 C 68 % 1.89 C
2484 11-03-2019 14:55:00 7.4 C 67 % 1.69 C
2485 11-03-2019 15:00:00 7.4 C 67 % 1.69 C
2486 11-03-2019 15:05:00 7.4 C 67 % 1.69 C
2487 11-03-2019 15:10:00 7.5 C 67 % 1.78 C
2488 11-03-2019 15:15:00 7.6 C 67 % 1.88 C
2489 11-03-2019 15:20:00 7.5 C 66 % 1.57 C
2490 11-03-2019 15:25:00 7.6 C 67 % 1.88 C
2491 11-03-2019 15:30:00 7.8 C 67 % 2.07 C
2492 11-03-2019 15:35:00 7.9 C 66 % 1.95 C
2493 11-03-2019 15:40:00 7.8 C 66 % 1.86 C
2494 11-03-2019 15:45:00 7.7 C 67 % 1.97 C
2495 11-03-2019 15:50:00 7.7 C 67 % 1.97 C
2496 11-03-2019 15:55:00 7.7 C 67 % 1.97 C
2497 11-03-2019 16:00:00 7.5 C 67 % 1.78 C
2498 11-03-2019 16:05:00 7.3 C 68 % 1.8 C
2499 11-03-2019 16:10:00 7.3 C 68 % 1.8 C
2500 11-03-2019 16:15:00 7.2 C 68 % 1.7 C
Sensor: Nr:Datum:Temp:Feuchte:Taupunkt:
Aussen-T/F 2501 11-03-2019 16:20:00 7.2 C 68 % 1.7 C
2502 11-03-2019 16:25:00 7.2 C 68 % 1.7 C
2503 11-03-2019 16:30:00 7.3 C 68 % 1.8 C
2504 11-03-2019 16:35:00 7.3 C 69 % 2 C
2505 11-03-2019 16:40:00 7.3 C 68 % 1.8 C
2506 11-03-2019 16:45:00 7.2 C 68 % 1.7 C
2507 11-03-2019 16:50:00 7.2 C 68 % 1.7 C
2508 11-03-2019 16:55:00 7.2 C 71 % 2.3 C
2509 11-03-2019 17:00:00 7 C 71 % 2.11 C
2510 11-03-2019 17:05:00 6.7 C 72 % 2.02 C
2511 11-03-2019 17:10:00 6.6 C 73 % 2.12 C
2512 11-03-2019 17:15:00 6.4 C 73 % 1.92 C
2513 11-03-2019 17:20:00 6.6 C 75 % 2.49 C
2514 11-03-2019 17:25:00 7 C 74 % 2.69 C
2515 11-03-2019 17:30:00 7.3 C 70 % 2.2 C
2516 11-03-2019 17:35:00 7.6 C 68 % 2.08 C
2517 11-03-2019 17:40:00 7.7 C 66 % 1.76 C
2518 11-03-2019 17:45:00 7.7 C 67 % 1.97 C
2519 11-03-2019 17:50:00 7.7 C 67 % 1.97 C
2520 11-03-2019 17:55:00 7.8 C 66 % 1.86 C
2521 11-03-2019 18:00:00 7.8 C 66 % 1.86 C
2522 11-03-2019 18:05:00 7.7 C 65 % 1.55 C
2523 11-03-2019 18:10:00 7.7 C 66 % 1.76 C
2524 11-03-2019 18:15:00 7.4 C 66 % 1.48 C
2525 11-03-2019 18:20:00 7.1 C 67 % 1.4 C
Sensor: Nr:Datum:Temp:Feuchte:Taupunkt:
Aussen-T/F 2526 11-03-2019 18:25:00 6.9 C 68 % 1.41 C
2527 11-03-2019 18:30:00 6.7 C 70 % 1.63 C
2528 11-03-2019 18:35:00 6.6 C 70 % 1.53 C
2529 11-03-2019 18:40:00 6.4 C 71 % 1.54 C
2530 11-03-2019 18:45:00 6.4 C 72 % 1.73 C
2531 11-03-2019 18:50:00 6.3 C 71 % 1.44 C
2532 11-03-2019 18:55:00 6.2 C 72 % 1.54 C
2533 11-03-2019 19:00:00 6.1 C 72 % 1.44 C
2534 11-03-2019 19:05:00 5.9 C 72 % 1.25 C
2535 11-03-2019 19:10:00 5.9 C 72 % 1.25 C
2536 11-03-2019 19:15:00 5.8 C 73 % 1.34 C
2537 11-03-2019 19:20:00 5.8 C 73 % 1.34 C
2538 11-03-2019 19:25:00 5.8 C 73 % 1.34 C
2539 11-03-2019 19:30:00 5.8 C 73 % 1.34 C
2540 11-03-2019 19:35:00 5.8 C 73 % 1.34 C
2541 11-03-2019 19:40:00 5.8 C 72 % 1.15 C
2542 11-03-2019 19:45:00 5.8 C 73 % 1.34 C
2543 11-03-2019 19:50:00 5.8 C 73 % 1.34 C
2544 11-03-2019 19:55:00 5.7 C 73 % 1.25 C
2545 11-03-2019 20:00:00 5.7 C 73 % 1.25 C
2546 11-03-2019 20:05:00 5.7 C 73 % 1.25 C
2547 11-03-2019 20:10:00 5.7 C 73 % 1.25 C
2548 11-03-2019 20:15:00 5.8 C 73 % 1.34 C
2549 11-03-2019 20:20:00 5.7 C 73 % 1.25 C
2550 11-03-2019 20:25:00 5.7 C 73 % 1.25 C
Sensor: Nr:Datum:Temp:Feuchte:Taupunkt:
Aussen-T/F 2551 11-03-2019 20:30:00 5.7 C 73 % 1.25 C
2552 11-03-2019 20:35:00 5.7 C 74 % 1.44 C
2553 11-03-2019 20:40:00 5.7 C 74 % 1.44 C
2554 11-03-2019 20:45:00 5.6 C 74 % 1.34 C
2555 11-03-2019 20:50:00 5.6 C 74 % 1.34 C
2556 11-03-2019 20:55:00 5.6 C 75 % 1.53 C
2557 11-03-2019 21:00:00 5.5 C 75 % 1.43 C
2558 11-03-2019 21:05:00 5.4 C 75 % 1.33 C
2559 11-03-2019 21:10:00 5.3 C 76 % 1.42 C
2560 11-03-2019 21:15:00 5.2 C 76 % 1.32 C
2561 11-03-2019 21:20:00 5.2 C 76 % 1.32 C
2562 11-03-2019 21:25:00 5.2 C 76 % 1.32 C
2563 11-03-2019 21:30:00 5.2 C 75 % 1.14 C
2564 11-03-2019 21:35:00 5.2 C 75 % 1.14 C
2565 11-03-2019 21:40:00 5.2 C 74 % 0.95 C
2566 11-03-2019 21:45:00 5.3 C 74 % 1.05 C
2567 11-03-2019 21:50:00 5.3 C 74 % 1.05 C
2568 11-03-2019 21:55:00 5.4 C 74 % 1.15 C
2569 11-03-2019 22:00:00 5.4 C 74 % 1.15 C
2570 11-03-2019 22:05:00 5.5 C 74 % 1.24 C
2571 11-03-2019 22:10:00 5.5 C 74 % 1.24 C
2572 11-03-2019 22:15:00 5.5 C 74 % 1.24 C
2573 11-03-2019 22:20:00 5.5 C 74 % 1.24 C
2574 11-03-2019 22:25:00 5.4 C 74 % 1.15 C
2575 11-03-2019 22:30:00 5.3 C 74 % 1.05 C
Sensor: Nr:Datum:Temp:Feuchte:Taupunkt:
Aussen-T/F 2576 11-03-2019 22:35:00 5.3 C 75 % 1.24 C
2577 11-03-2019 22:40:00 5.2 C 75 % 1.14 C
2578 11-03-2019 22:45:00 5.2 C 75 % 1.14 C
2579 11-03-2019 22:50:00 5.2 C 75 % 1.14 C
2580 11-03-2019 22:55:00 5.1 C 75 % 1.04 C
2581 11-03-2019 23:00:00 5.1 C 75 % 1.04 C
2582 11-03-2019 23:05:00 5 C 75 % 0.95 C
2583 11-03-2019 23:10:00 4.9 C 75 % 0.85 C
2584 11-03-2019 23:15:00 4.9 C 75 % 0.85 C
2585 11-03-2019 23:20:00 4.8 C 75 % 0.75 C
2586 11-03-2019 23:25:00 4.8 C 76 % 0.94 C
2587 11-03-2019 23:30:00 4.8 C 76 % 0.94 C
2588 11-03-2019 23:35:00 4.7 C 76 % 0.84 C
2589 11-03-2019 23:40:00 4.6 C 77 % 0.92 C
2590 11-03-2019 23:45:00 4.5 C 77 % 0.83 C
2591 11-03-2019 23:50:00 4.5 C 77 % 0.83 C
2592 11-03-2019 23:55:00 4.4 C 78 % 0.91 C
2593 12-03-2019 00:00:00 4.5 C 78 % 1.01 C
2594 12-03-2019 00:05:00 4.4 C 78 % 0.91 C
2595 12-03-2019 00:10:00 4.4 C 79 % 1.09 C
2596 12-03-2019 00:15:00 4.4 C 79 % 1.09 C
2597 12-03-2019 00:20:00 4.3 C 79 % 0.99 C
2598 12-03-2019 00:25:00 4.3 C 80 % 1.16 C
2599 12-03-2019 00:30:00 4.2 C 80 % 1.07 C
2600 12-03-2019 00:35:00 4.1 C 81 % 1.14 C
Sensor: Nr:Datum:Temp:Feuchte:Taupunkt:
Aussen-T/F 2601 12-03-2019 00:40:00 4 C 81 % 1.04 C
2602 12-03-2019 00:45:00 3.9 C 82 % 1.12 C
2603 12-03-2019 00:50:00 3.9 C 82 % 1.12 C
2604 12-03-2019 00:55:00 3.9 C 82 % 1.12 C
2605 12-03-2019 01:00:00 3.8 C 82 % 1.02 C
2606 12-03-2019 01:05:00 3.7 C 83 % 1.09 C
2607 12-03-2019 01:10:00 3.6 C 82 % 0.82 C
2608 12-03-2019 01:15:00 3.4 C 83 % 0.79 C
2609 12-03-2019 01:20:00 3.3 C 84 % 0.86 C
2610 12-03-2019 01:25:00 3.2 C 84 % 0.76 C
2611 12-03-2019 01:30:00 3.1 C 85 % 0.83 C
2612 12-03-2019 01:35:00 3.1 C 85 % 0.83 C
2613 12-03-2019 01:40:00 3.1 C 85 % 0.83 C
2614 12-03-2019 01:45:00 2.9 C 85 % 0.63 C
2615 12-03-2019 01:50:00 2.8 C 85 % 0.54 C
2616 12-03-2019 01:55:00 2.7 C 86 % 0.6 C
2617 12-03-2019 02:00:00 2.7 C 86 % 0.6 C
2618 12-03-2019 02:05:00 2.6 C 86 % 0.5 C
2619 12-03-2019 02:10:00 2.4 C 86 % 0.3 C
2620 12-03-2019 02:15:00 2.3 C 86 % 0.21 C
2621 12-03-2019 02:20:00 2.2 C 86 % 0.11 C
2622 12-03-2019 02:25:00 2.1 C 87 % 0.17 C
2623 12-03-2019 02:30:00 2 C 87 % 0.07 C
2624 12-03-2019 02:35:00 1.9 C 88 % 0.13 C
2625 12-03-2019 02:40:00 1.9 C 88 % 0.13 C
Sensor: Nr:Datum:Temp:Feuchte:Taupunkt:
Aussen-T/F 2626 12-03-2019 02:45:00 1.9 C 88 % 0.13 C
2627 12-03-2019 02:50:00 2 C 88 % 0.23 C
2628 12-03-2019 02:55:00 1.9 C 88 % 0.13 C
2629 12-03-2019 03:00:00 1.9 C 88 % 0.13 C
2630 12-03-2019 03:05:00 1.8 C 88 % 0.03 C
2631 12-03-2019 03:10:00 1.7 C 89 % 0.09 C
2632 12-03-2019 03:15:00 1.7 C 88 % -0.07 C
2633 12-03-2019 03:20:00 1.7 C 89 % 0.09 C
2634 12-03-2019 03:25:00 1.7 C 89 % 0.09 C
2635 12-03-2019 03:30:00 1.6 C 89 % -0.01 C
2636 12-03-2019 03:35:00 1.6 C 89 % -0.01 C
2637 12-03-2019 03:40:00 1.5 C 89 % -0.11 C
2638 12-03-2019 03:45:00 1.6 C 89 % -0.01 C
2639 12-03-2019 03:50:00 1.6 C 89 % -0.01 C
2640 12-03-2019 03:55:00 1.5 C 89 % -0.11 C
2641 12-03-2019 04:00:00 1.5 C 89 % -0.11 C
2642 12-03-2019 04:05:00 1.4 C 89 % -0.21 C
2643 12-03-2019 04:10:00 1.4 C 89 % -0.21 C
2644 12-03-2019 04:15:00 1.4 C 89 % -0.21 C
2645 12-03-2019 04:20:00 1.4 C 90 % -0.06 C
2646 12-03-2019 04:25:00 1.4 C 89 % -0.21 C
2647 12-03-2019 04:30:00 1.3 C 89 % -0.31 C
2648 12-03-2019 04:35:00 1.3 C 90 % -0.15 C
2649 12-03-2019 04:40:00 1.2 C 89 % -0.41 C
2650 12-03-2019 04:45:00 1.2 C 90 % -0.25 C
Sensor: Nr:Datum:Temp:Feuchte:Taupunkt:
Aussen-T/F 2651 12-03-2019 04:50:00 1.2 C 90 % -0.25 C
2652 12-03-2019 04:55:00 1.3 C 90 % -0.15 C
2653 12-03-2019 05:00:00 1.3 C 90 % -0.15 C
2654 12-03-2019 05:05:00 1.3 C 90 % -0.15 C
2655 12-03-2019 05:10:00 1.4 C 90 % -0.06 C
2656 12-03-2019 05:15:00 1.5 C 90 % 0.04 C
2657 12-03-2019 05:20:00 1.6 C 90 % 0.14 C
2658 12-03-2019 05:25:00 1.7 C 90 % 0.24 C
2659 12-03-2019 05:30:00 1.7 C 90 % 0.24 C
2660 12-03-2019 05:35:00 1.7 C 90 % 0.24 C
2661 12-03-2019 05:40:00 1.8 C 90 % 0.34 C
2662 12-03-2019 05:45:00 1.8 C 90 % 0.34 C
2663 12-03-2019 05:50:00 1.8 C 90 % 0.34 C
2664 12-03-2019 05:55:00 1.9 C 90 % 0.44 C
2665 12-03-2019 06:00:00 1.9 C 90 % 0.44 C
2666 12-03-2019 06:05:00 1.9 C 90 % 0.44 C
2667 12-03-2019 06:10:00 1.9 C 90 % 0.44 C
2668 12-03-2019 06:15:00 1.9 C 89 % 0.28 C
2669 12-03-2019 06:20:00 1.8 C 89 % 0.19 C
2670 12-03-2019 06:25:00 1.8 C 89 % 0.19 C
2671 12-03-2019 06:30:00 1.8 C 89 % 0.19 C
2672 12-03-2019 06:35:00 1.7 C 89 % 0.09 C
2673 12-03-2019 06:40:00 1.7 C 90 % 0.24 C
2674 12-03-2019 06:45:00 1.6 C 90 % 0.14 C
2675 12-03-2019 06:50:00 1.6 C 90 % 0.14 C
Sensor: Nr:Datum:Temp:Feuchte:Taupunkt:
Aussen-T/F 2676 12-03-2019 06:55:00 1.6 C 90 % 0.14 C
2677 12-03-2019 07:00:00 1.7 C 90 % 0.24 C
2678 12-03-2019 07:05:00 1.7 C 91 % 0.39 C
2679 12-03-2019 07:10:00 1.7 C 91 % 0.39 C
2680 12-03-2019 07:15:00 1.8 C 90 % 0.34 C
2681 12-03-2019 07:20:00 1.8 C 90 % 0.34 C
2682 12-03-2019 07:25:00 1.8 C 91 % 0.49 C
2683 12-03-2019 07:30:00 1.8 C 91 % 0.49 C
2684 12-03-2019 07:35:00 1.9 C 91 % 0.59 C
2685 12-03-2019 07:40:00 2.1 C 91 % 0.79 C
2686 12-03-2019 07:45:00 2.2 C 91 % 0.89 C
2687 12-03-2019 07:50:00 2.3 C 91 % 0.99 C
2688 12-03-2019 07:55:00 2.4 C 91 % 1.08 C
2689 12-03-2019 08:00:00 2.6 C 91 % 1.28 C
2690 12-03-2019 08:05:00 2.7 C 90 % 1.23 C
2691 12-03-2019 08:10:00 2.7 C 90 % 1.23 C
2692 12-03-2019 08:15:00 2.8 C 90 % 1.33 C
2693 12-03-2019 08:20:00 2.9 C 90 % 1.43 C
2694 12-03-2019 08:25:00 3.1 C 90 % 1.62 C
2695 12-03-2019 08:30:00 3.2 C 90 % 1.72 C
2696 12-03-2019 08:35:00 3.4 C 89 % 1.76 C
2697 12-03-2019 08:40:00 3.6 C 88 % 1.8 C
2698 12-03-2019 08:45:00 3.8 C 87 % 1.84 C
2699 12-03-2019 08:50:00 4 C 86 % 1.88 C
2700 12-03-2019 08:55:00 4.2 C 86 % 2.07 C
Sensor: Nr:Datum:Temp:Feuchte:Taupunkt:
Aussen-T/F 2701 12-03-2019 09:00:00 4.4 C 85 % 2.11 C
2702 12-03-2019 09:05:00 4.6 C 85 % 2.3 C
2703 12-03-2019 09:10:00 4.7 C 84 % 2.23 C
2704 12-03-2019 09:15:00 4.8 C 84 % 2.33 C
2705 12-03-2019 09:20:00 4.9 C 84 % 2.43 C
2706 12-03-2019 09:25:00 5.1 C 83 % 2.46 C
2707 12-03-2019 09:30:00 5.2 C 83 % 2.56 C
2708 12-03-2019 09:35:00 5.3 C 82 % 2.48 C
2709 12-03-2019 09:40:00 5.6 C 81 % 2.6 C
2710 12-03-2019 09:45:00 5.7 C 81 % 2.7 C
2711 12-03-2019 09:50:00 6 C 79 % 2.64 C
2712 12-03-2019 09:55:00 6.2 C 79 % 2.84 C
2713 12-03-2019 10:00:00 6.4 C 77 % 2.67 C
2714 12-03-2019 10:05:00 6.7 C 76 % 2.78 C
2715 12-03-2019 10:10:00 6.9 C 76 % 2.97 C
2716 12-03-2019 10:15:00 7.2 C 75 % 3.07 C
2717 12-03-2019 10:20:00 7.3 C 74 % 2.98 C
2718 12-03-2019 10:25:00 7.4 C 73 % 2.89 C
2719 12-03-2019 10:30:00 7.4 C 72 % 2.69 C
2720 12-03-2019 10:35:00 7.6 C 71 % 2.69 C
2721 12-03-2019 10:40:00 7.7 C 69 % 2.38 C
2722 12-03-2019 10:45:00 7.9 C 69 % 2.57 C
2723 12-03-2019 10:50:00 8.1 C 69 % 2.77 C
2724 12-03-2019 10:55:00 8.2 C 67 % 2.45 C
2725 12-03-2019 11:00:00 8.2 C 66 % 2.24 C
Sensor: Nr:Datum:Temp:Feuchte:Taupunkt:
Aussen-T/F 2726 12-03-2019 11:05:00 8.2 C 66 % 2.24 C
2727 12-03-2019 11:10:00 8.3 C 66 % 2.33 C
2728 12-03-2019 11:15:00 8.4 C 65 % 2.21 C
2729 12-03-2019 11:20:00 8.6 C 65 % 2.4 C
2730 12-03-2019 11:25:00 8.8 C 64 % 2.38 C
2731 12-03-2019 11:30:00 9 C 63 % 2.35 C
2732 12-03-2019 11:35:00 9.1 C 63 % 2.44 C
2733 12-03-2019 11:40:00 9.2 C 61 % 2.08 C
2734 12-03-2019 11:45:00 9.2 C 61 % 2.08 C
2735 12-03-2019 11:50:00 9.2 C 62 % 2.31 C
2736 12-03-2019 11:55:00 9.2 C 61 % 2.08 C
2737 12-03-2019 12:00:00 9.2 C 61 % 2.08 C
2738 12-03-2019 12:05:00 9.2 C 63 % 2.53 C
2739 12-03-2019 12:10:00 9.2 C 62 % 2.31 C
2740 12-03-2019 12:15:00 9.2 C 62 % 2.31 C
2741 12-03-2019 12:20:00 9.2 C 61 % 2.08 C
2742 12-03-2019 12:25:00 9.3 C 62 % 2.4 C
2743 12-03-2019 12:30:00 9.4 C 60 % 2.04 C
2744 12-03-2019 12:35:00 9.5 C 61 % 2.37 C
2745 12-03-2019 12:40:00 9.6 C 60 % 2.23 C
2746 12-03-2019 12:45:00 9.7 C 61 % 2.55 C
2747 12-03-2019 12:50:00 9.7 C 61 % 2.55 C
2748 12-03-2019 12:55:00 9.7 C 60 % 2.32 C
2749 12-03-2019 13:00:00 9.7 C 60 % 2.32 C
2750 12-03-2019 13:05:00 9.6 C 60 % 2.23 C
Sensor: Nr:Datum:Temp:Feuchte:Taupunkt:
Aussen-T/F 2751 12-03-2019 13:10:00 9.6 C 60 % 2.23 C
2752 12-03-2019 13:15:00 9.6 C 59 % 1.99 C
2753 12-03-2019 13:20:00 9.7 C 61 % 2.55 C
2754 12-03-2019 13:25:00 9.7 C 59 % 2.09 C
2755 12-03-2019 13:30:00 9.8 C 60 % 2.42 C
2756 12-03-2019 13:35:00 9.9 C 60 % 2.51 C
2757 12-03-2019 13:40:00 9.9 C 58 % 2.04 C
2758 12-03-2019 13:45:00 9.8 C 59 % 2.18 C
2759 12-03-2019 13:50:00 9.8 C 58 % 1.94 C
2760 12-03-2019 13:55:00 9.8 C 59 % 2.18 C
2761 12-03-2019 14:00:00 9.8 C 59 % 2.18 C
2762 12-03-2019 14:05:00 9.9 C 59 % 2.27 C
2763 12-03-2019 14:10:00 10.1 C 60 % 2.7 C
2764 12-03-2019 14:15:00 10.1 C 59 % 2.46 C
2765 12-03-2019 14:20:00 10.1 C 58 % 2.22 C
2766 12-03-2019 14:25:00 10.2 C 57 % 2.07 C
2767 12-03-2019 14:30:00 10.2 C 56 % 1.83 C
2768 12-03-2019 14:35:00 10.2 C 57 % 2.07 C
2769 12-03-2019 14:40:00 10.3 C 58 % 2.41 C
2770 12-03-2019 14:45:00 10.3 C 56 % 1.92 C
2771 12-03-2019 14:50:00 10.4 C 57 % 2.26 C
2772 12-03-2019 14:55:00 10.6 C 56 % 2.2 C
2773 12-03-2019 15:00:00 10.8 C 55 % 2.13 C
2774 12-03-2019 15:05:00 10.8 C 55 % 2.13 C
2775 12-03-2019 15:10:00 10.8 C 55 % 2.13 C
Sensor: Nr:Datum:Temp:Feuchte:Taupunkt:
Aussen-T/F 2776 12-03-2019 15:15:00 10.8 C 54 % 1.88 C
2777 12-03-2019 15:20:00 10.6 C 53 % 1.43 C
2778 12-03-2019 15:25:00 10.6 C 54 % 1.69 C
2779 12-03-2019 15:30:00 10.4 C 54 % 1.51 C
2780 12-03-2019 15:35:00 10.4 C 53 % 1.25 C
2781 12-03-2019 15:40:00 10.3 C 53 % 1.15 C
2782 12-03-2019 15:45:00 10.3 C 54 % 1.41 C
2783 12-03-2019 15:50:00 10.4 C 53 % 1.25 C
2784 12-03-2019 15:55:00 10.6 C 55 % 1.95 C
2785 12-03-2019 16:00:00 10.6 C 54 % 1.69 C
2786 12-03-2019 16:05:00 10.6 C 52 % 1.17 C
2787 12-03-2019 16:10:00 10.6 C 52 % 1.17 C
2788 12-03-2019 16:15:00 10.6 C 49 % 0.35 C
2789 12-03-2019 16:20:00 10.5 C 52 % 1.07 C
2790 12-03-2019 16:25:00 10.4 C 49 % 0.16 C
2791 12-03-2019 16:30:00 10.3 C 48 % -0.21 C
2792 12-03-2019 16:35:00 10.2 C 49 % -0.02 C
2793 12-03-2019 16:40:00 10.2 C 50 % 0.26 C
2794 12-03-2019 16:45:00 10.1 C 50 % 0.16 C
2795 12-03-2019 16:50:00 10 C 49 % -0.21 C
2796 12-03-2019 16:55:00 9.9 C 49 % -0.3 C
2797 12-03-2019 17:00:00 9.9 C 52 % 0.52 C
2798 12-03-2019 17:05:00 9.8 C 52 % 0.43 C
2799 12-03-2019 17:10:00 9.8 C 51 % 0.16 C
2800 12-03-2019 17:15:00 9.7 C 51 % 0.07 C
Sensor: Nr:Datum:Temp:Feuchte:Taupunkt:
Aussen-T/F 2801 12-03-2019 17:20:00 9.6 C 54 % 0.76 C
2802 12-03-2019 17:25:00 9.5 C 53 % 0.41 C
2803 12-03-2019 17:30:00 9.3 C 59 % 1.71 C
2804 12-03-2019 17:35:00 9.2 C 56 % 0.89 C
2805 12-03-2019 17:40:00 9 C 57 % 0.95 C
2806 12-03-2019 17:45:00 8.9 C 58 % 1.1 C
2807 12-03-2019 17:50:00 8.8 C 61 % 1.71 C
2808 12-03-2019 17:55:00 8.6 C 62 % 1.74 C
2809 12-03-2019 18:00:00 8.4 C 62 % 1.55 C
2810 12-03-2019 18:05:00 8.3 C 62 % 1.46 C
2811 12-03-2019 18:10:00 8.2 C 61 % 1.14 C
2812 12-03-2019 18:15:00 8.1 C 62 % 1.27 C
2813 12-03-2019 18:20:00 8 C 63 % 1.4 C
2814 12-03-2019 18:25:00 7.9 C 61 % 0.86 C
2815 12-03-2019 18:30:00 7.9 C 62 % 1.08 C
2816 12-03-2019 18:35:00 7.9 C 63 % 1.3 C
2817 12-03-2019 18:40:00 8 C 58 % 0.25 C
2818 12-03-2019 18:45:00 8.1 C 59 % 0.58 C
2819 12-03-2019 18:50:00 8.2 C 62 % 1.37 C
2820 12-03-2019 18:55:00 8.2 C 60 % 0.91 C
2821 12-03-2019 19:00:00 8.4 C 56 % 0.15 C
2822 12-03-2019 19:05:00 8.5 C 59 % 0.96 C
2823 12-03-2019 19:10:00 8.5 C 54 % -0.26 C
2824 12-03-2019 19:15:00 8.6 C 59 % 1.05 C
2825 12-03-2019 19:20:00 8.6 C 52 % -0.68 C
Sensor: Nr:Datum:Temp:Feuchte:Taupunkt:
Aussen-T/F 2826 12-03-2019 19:25:00 8.8 C 55 % 0.27 C
2827 12-03-2019 19:30:00 8.8 C 58 % 1 C
2828 12-03-2019 19:35:00 8.9 C 51 % -0.67 C
2829 12-03-2019 19:40:00 9.1 C 52 % -0.22 C
2830 12-03-2019 19:45:00 8.9 C 53 % -0.15 C
2831 12-03-2019 19:50:00 8.8 C 52 % -0.5 C
2832 12-03-2019 19:55:00 8.8 C 49 % -1.31 C
2833 12-03-2019 20:00:00 8.8 C 48 % -1.59 C
2834 12-03-2019 20:05:00 9 C 46 % -1.98 C
2835 12-03-2019 20:10:00 9.3 C 46 % -1.71 C
2836 12-03-2019 20:15:00 9.4 C 46 % -1.62 C
2837 12-03-2019 20:20:00 9.4 C 50 % -0.48 C
2838 12-03-2019 20:25:00 9.4 C 45 % -1.91 C
2839 12-03-2019 20:30:00 9.4 C 46 % -1.62 C
2840 12-03-2019 20:35:00 9.5 C 46 % -1.53 C
2841 12-03-2019 20:40:00 9.6 C 46 % -1.43 C
2842 12-03-2019 20:45:00 9.7 C 47 % -1.05 C
2843 12-03-2019 20:50:00 9.8 C 46 % -1.25 C
2844 12-03-2019 20:55:00 9.8 C 46 % -1.25 C
2845 12-03-2019 21:00:00 10 C 45 % -1.37 C
2846 12-03-2019 21:05:00 10.2 C 46 % -0.89 C
2847 12-03-2019 21:10:00 10.3 C 46 % -0.8 C
2848 12-03-2019 21:15:00 10.4 C 46 % -0.7 C
2849 12-03-2019 21:20:00 10.6 C 45 % -0.82 C
2850 12-03-2019 21:25:00 10.8 C 44 % -0.95 C
Sensor: Nr:Datum:Temp:Feuchte:Taupunkt:
Aussen-T/F 2851 12-03-2019 21:30:00 11 C 45 % -0.46 C
2852 12-03-2019 21:35:00 11.1 C 45 % -0.37 C
2853 12-03-2019 21:40:00 11 C 46 % -0.16 C
2854 12-03-2019 21:45:00 11.1 C 46 % -0.07 C
2855 12-03-2019 21:50:00 11.2 C 47 % 0.32 C
2856 12-03-2019 21:55:00 11.2 C 47 % 0.32 C
2857 12-03-2019 22:00:00 11.3 C 49 % 0.99 C
2858 12-03-2019 22:05:00 11.3 C 49 % 0.99 C
2859 12-03-2019 22:10:00 11.3 C 50 % 1.27 C
2860 12-03-2019 22:15:00 11.3 C 51 % 1.54 C
2861 12-03-2019 22:20:00 11.3 C 51 % 1.54 C
2862 12-03-2019 22:25:00 11.3 C 52 % 1.81 C
2863 12-03-2019 22:30:00 11.3 C 53 % 2.08 C
2864 12-03-2019 22:35:00 11.2 C 54 % 2.25 C
2865 12-03-2019 22:40:00 11.2 C 54 % 2.25 C
2866 12-03-2019 22:45:00 11.1 C 57 % 2.92 C
2867 12-03-2019 22:50:00 10.8 C 62 % 3.82 C
2868 12-03-2019 22:55:00 10.3 C 65 % 4.02 C
2869 12-03-2019 23:00:00 9.9 C 69 % 4.49 C
2870 12-03-2019 23:05:00 9.6 C 71 % 4.61 C
2871 12-03-2019 23:10:00 9.3 C 73 % 4.72 C
2872 12-03-2019 23:15:00 9.1 C 74 % 4.72 C
2873 12-03-2019 23:20:00 8.9 C 76 % 4.91 C
2874 12-03-2019 23:25:00 8.8 C 76 % 4.81 C
2875 12-03-2019 23:30:00 8.7 C 78 % 5.08 C
Sensor: Nr:Datum:Temp:Feuchte:Taupunkt:
Aussen-T/F 2876 12-03-2019 23:35:00 8.5 C 79 % 5.07 C
2877 12-03-2019 23:40:00 8 C 79 % 4.59 C
2878 12-03-2019 23:45:00 7.5 C 80 % 4.28 C
2879 12-03-2019 23:50:00 7.2 C 82 % 4.34 C
2880 12-03-2019 23:55:00 6.9 C 83 % 4.22 C
2881 13-03-2019 00:00:00 6.8 C 83 % 4.12 C
2882 13-03-2019 00:05:00 6.8 C 83 % 4.12 C
2883 13-03-2019 00:10:00 6.8 C 82 % 3.95 C
2884 13-03-2019 00:15:00 6.7 C 80 % 3.5 C
2885 13-03-2019 00:20:00 6.6 C 80 % 3.4 C
2886 13-03-2019 00:25:00 6.6 C 80 % 3.4 C
2887 13-03-2019 00:30:00 6.4 C 80 % 3.21 C
2888 13-03-2019 00:35:00 6.4 C 80 % 3.21 C
2889 13-03-2019 00:40:00 6.3 C 80 % 3.11 C
2890 13-03-2019 00:45:00 6.3 C 79 % 2.93 C
2891 13-03-2019 00:50:00 6.4 C 80 % 3.21 C
2892 13-03-2019 00:55:00 6.3 C 80 % 3.11 C
2893 13-03-2019 01:00:00 6.2 C 79 % 2.84 C
2894 13-03-2019 01:05:00 6.2 C 79 % 2.84 C
2895 13-03-2019 01:10:00 6.1 C 79 % 2.74 C
2896 13-03-2019 01:15:00 5.9 C 79 % 2.54 C
2897 13-03-2019 01:20:00 5.8 C 79 % 2.45 C
2898 13-03-2019 01:25:00 5.7 C 80 % 2.53 C
2899 13-03-2019 01:30:00 5.6 C 80 % 2.43 C
2900 13-03-2019 01:35:00 5.6 C 80 % 2.43 C
Sensor: Nr:Datum:Temp:Feuchte:Taupunkt:
Aussen-T/F 2901 13-03-2019 01:40:00 5.4 C 80 % 2.23 C
2902 13-03-2019 01:45:00 5.4 C 80 % 2.23 C
2903 13-03-2019 01:50:00 5.5 C 79 % 2.16 C
2904 13-03-2019 01:55:00 5.5 C 79 % 2.16 C
2905 13-03-2019 02:00:00 5.5 C 80 % 2.33 C
2906 13-03-2019 02:05:00 5.4 C 80 % 2.23 C
2907 13-03-2019 02:10:00 5.3 C 81 % 2.31 C
2908 13-03-2019 02:15:00 5.2 C 81 % 2.21 C
2909 13-03-2019 02:20:00 5.2 C 82 % 2.39 C
2910 13-03-2019 02:25:00 5.2 C 82 % 2.39 C
2911 13-03-2019 02:30:00 5.3 C 82 % 2.48 C
2912 13-03-2019 02:35:00 5.4 C 81 % 2.41 C
2913 13-03-2019 02:40:00 5.5 C 79 % 2.16 C
2914 13-03-2019 02:45:00 5.6 C 78 % 2.07 C
2915 13-03-2019 02:50:00 5.7 C 78 % 2.17 C
2916 13-03-2019 02:55:00 5.8 C 78 % 2.27 C
2917 13-03-2019 03:00:00 5.8 C 78 % 2.27 C
2918 13-03-2019 03:05:00 5.7 C 77 % 1.99 C
2919 13-03-2019 03:10:00 5.7 C 77 % 1.99 C
2920 13-03-2019 03:15:00 5.6 C 76 % 1.71 C
2921 13-03-2019 03:20:00 5.6 C 77 % 1.89 C
2922 13-03-2019 03:25:00 5.6 C 77 % 1.89 C
2923 13-03-2019 03:30:00 5.7 C 77 % 1.99 C
2924 13-03-2019 03:35:00 5.8 C 77 % 2.09 C
2925 13-03-2019 03:40:00 5.8 C 77 % 2.09 C
Sensor: Nr:Datum:Temp:Feuchte:Taupunkt:
Aussen-T/F 2926 13-03-2019 03:45:00 5.9 C 77 % 2.19 C
2927 13-03-2019 03:50:00 5.9 C 78 % 2.37 C
2928 13-03-2019 03:55:00 5.8 C 78 % 2.27 C
2929 13-03-2019 04:00:00 5.8 C 78 % 2.27 C
2930 13-03-2019 04:05:00 5.7 C 79 % 2.35 C
2931 13-03-2019 04:10:00 5.6 C 79 % 2.25 C
2932 13-03-2019 04:15:00 5.7 C 79 % 2.35 C
2933 13-03-2019 04:20:00 5.6 C 79 % 2.25 C
2934 13-03-2019 04:25:00 5.6 C 80 % 2.43 C
2935 13-03-2019 04:30:00 5.6 C 80 % 2.43 C
2936 13-03-2019 04:35:00 5.5 C 80 % 2.33 C
2937 13-03-2019 04:40:00 5.4 C 80 % 2.23 C
2938 13-03-2019 04:45:00 5.3 C 81 % 2.31 C
2939 13-03-2019 04:50:00 5.3 C 81 % 2.31 C
2940 13-03-2019 04:55:00 5.3 C 81 % 2.31 C
2941 13-03-2019 05:00:00 5.4 C 83 % 2.75 C
2942 13-03-2019 05:05:00 5.4 C 83 % 2.75 C
2943 13-03-2019 05:10:00 5.4 C 83 % 2.75 C
2944 13-03-2019 05:15:00 5.3 C 83 % 2.65 C
2945 13-03-2019 05:20:00 5.3 C 83 % 2.65 C
2946 13-03-2019 05:25:00 5.2 C 83 % 2.56 C
2947 13-03-2019 05:30:00 5.2 C 84 % 2.72 C
2948 13-03-2019 05:35:00 5.3 C 83 % 2.65 C
2949 13-03-2019 05:40:00 5.4 C 83 % 2.75 C
2950 13-03-2019 05:45:00 5.5 C 83 % 2.85 C
Sensor: Nr:Datum:Temp:Feuchte:Taupunkt:
Aussen-T/F 2951 13-03-2019 05:50:00 5.4 C 83 % 2.75 C
2952 13-03-2019 05:55:00 5.3 C 83 % 2.65 C
2953 13-03-2019 06:00:00 5.3 C 83 % 2.65 C
2954 13-03-2019 06:05:00 5.2 C 83 % 2.56 C
2955 13-03-2019 06:10:00 5.1 C 83 % 2.46 C
2956 13-03-2019 06:15:00 4.9 C 83 % 2.26 C
2957 13-03-2019 06:20:00 4.8 C 83 % 2.16 C
2958 13-03-2019 06:25:00 4.9 C 84 % 2.43 C
2959 13-03-2019 06:30:00 5.1 C 84 % 2.63 C
2960 13-03-2019 06:35:00 5.2 C 83 % 2.56 C
2961 13-03-2019 06:40:00 5.3 C 83 % 2.65 C
2962 13-03-2019 06:45:00 5.4 C 82 % 2.58 C
2963 13-03-2019 06:50:00 5.4 C 81 % 2.41 C
2964 13-03-2019 06:55:00 5.4 C 81 % 2.41 C
2965 13-03-2019 07:00:00 5.4 C 81 % 2.41 C
2966 13-03-2019 07:05:00 5.4 C 81 % 2.41 C
2967 13-03-2019 07:10:00 5.4 C 81 % 2.41 C
2968 13-03-2019 07:15:00 5.4 C 81 % 2.41 C
2969 13-03-2019 07:20:00 5.4 C 80 % 2.23 C
2970 13-03-2019 07:25:00 5.4 C 80 % 2.23 C
2971 13-03-2019 07:30:00 5.4 C 80 % 2.23 C
2972 13-03-2019 07:35:00 5.4 C 80 % 2.23 C
2973 13-03-2019 07:40:00 5.5 C 80 % 2.33 C
2974 13-03-2019 07:45:00 5.6 C 80 % 2.43 C
2975 13-03-2019 07:50:00 5.6 C 81 % 2.6 C
Sensor: Nr:Datum:Temp:Feuchte:Taupunkt:
Aussen-T/F 2976 13-03-2019 07:55:00 5.7 C 82 % 2.87 C
2977 13-03-2019 08:00:00 5.6 C 81 % 2.6 C
2978 13-03-2019 08:05:00 5.6 C 81 % 2.6 C
2979 13-03-2019 08:10:00 5.8 C 81 % 2.8 C
2980 13-03-2019 08:15:00 5.9 C 80 % 2.72 C
2981 13-03-2019 08:20:00 6.1 C 80 % 2.92 C
2982 13-03-2019 08:25:00 6.2 C 80 % 3.01 C
2983 13-03-2019 08:30:00 6.3 C 80 % 3.11 C
2984 13-03-2019 08:35:00 6.3 C 80 % 3.11 C
2985 13-03-2019 08:40:00 6.3 C 79 % 2.93 C
2986 13-03-2019 08:45:00 6.3 C 80 % 3.11 C
2987 13-03-2019 08:50:00 6.3 C 80 % 3.11 C
2988 13-03-2019 08:55:00 6.3 C 80 % 3.11 C
2989 13-03-2019 09:00:00 6.3 C 80 % 3.11 C
2990 13-03-2019 09:05:00 6.3 C 80 % 3.11 C
2991 13-03-2019 09:10:00 6.3 C 80 % 3.11 C
2992 13-03-2019 09:15:00 6.4 C 79 % 3.03 C
2993 13-03-2019 09:20:00 6.6 C 77 % 2.86 C
2994 13-03-2019 09:25:00 6.7 C 77 % 2.96 C
2995 13-03-2019 09:30:00 6.8 C 77 % 3.06 C
2996 13-03-2019 09:35:00 6.7 C 77 % 2.96 C
2997 13-03-2019 09:40:00 6.6 C 76 % 2.68 C
2998 13-03-2019 09:45:00 6.5 C 77 % 2.77 C
2999 13-03-2019 09:50:00 6.4 C 77 % 2.67 C
3000 13-03-2019 09:55:00 6.4 C 77 % 2.67 C
Sensor: Nr:Datum:Temp:Feuchte:Taupunkt:
Aussen-T/F 3001 13-03-2019 10:00:00 6.4 C 78 % 2.85 C
3002 13-03-2019 10:05:00 6.6 C 78 % 3.05 C
3003 13-03-2019 10:10:00 6.7 C 78 % 3.14 C
3004 13-03-2019 10:15:00 6.8 C 77 % 3.06 C
3005 13-03-2019 10:20:00 6.9 C 77 % 3.16 C
3006 13-03-2019 10:25:00 6.9 C 77 % 3.16 C
3007 13-03-2019 10:30:00 6.9 C 78 % 3.34 C
3008 13-03-2019 10:35:00 7.1 C 77 % 3.35 C
3009 13-03-2019 10:40:00 7.1 C 77 % 3.35 C
3010 13-03-2019 10:45:00 7.2 C 77 % 3.45 C
3011 13-03-2019 10:50:00 7.3 C 77 % 3.54 C
3012 13-03-2019 10:55:00 7.4 C 76 % 3.45 C
3013 13-03-2019 11:00:00 7.4 C 76 % 3.45 C
3014 13-03-2019 11:05:00 7.6 C 76 % 3.65 C
3015 13-03-2019 11:10:00 7.7 C 75 % 3.56 C
3016 13-03-2019 11:15:00 7.8 C 75 % 3.65 C
3017 13-03-2019 11:20:00 7.8 C 74 % 3.46 C
3018 13-03-2019 11:25:00 7.8 C 75 % 3.65 C
3019 13-03-2019 11:30:00 7.8 C 74 % 3.46 C
3020 13-03-2019 11:35:00 7.9 C 74 % 3.56 C
3021 13-03-2019 11:40:00 8.1 C 76 % 4.13 C
3022 13-03-2019 11:45:00 8.1 C 75 % 3.94 C
3023 13-03-2019 11:50:00 8 C 76 % 4.04 C
3024 13-03-2019 11:55:00 7.8 C 76 % 3.84 C
3025 13-03-2019 12:00:00 7.8 C 77 % 4.03 C
Sensor: Nr:Datum:Temp:Feuchte:Taupunkt:
Aussen-T/F 3026 13-03-2019 12:05:00 7.9 C 76 % 3.94 C
3027 13-03-2019 12:10:00 8 C 75 % 3.85 C
3028 13-03-2019 12:15:00 8.2 C 75 % 4.04 C
3029 13-03-2019 12:20:00 8.3 C 74 % 3.95 C
3030 13-03-2019 12:25:00 8.3 C 74 % 3.95 C
3031 13-03-2019 12:30:00 8.3 C 73 % 3.75 C
3032 13-03-2019 12:35:00 8.3 C 73 % 3.75 C
3033 13-03-2019 12:40:00 8.3 C 73 % 3.75 C
3034 13-03-2019 12:45:00 8.2 C 74 % 3.85 C
3035 13-03-2019 12:50:00 8.2 C 74 % 3.85 C
3036 13-03-2019 12:55:00 8.1 C 75 % 3.94 C
3037 13-03-2019 13:00:00 8.2 C 75 % 4.04 C
3038 13-03-2019 13:05:00 8.2 C 75 % 4.04 C
3039 13-03-2019 13:10:00 8.1 C 75 % 3.94 C
3040 13-03-2019 13:15:00 8.1 C 75 % 3.94 C
3041 13-03-2019 13:20:00 8.1 C 75 % 3.94 C
3042 13-03-2019 13:25:00 8 C 75 % 3.85 C
3043 13-03-2019 13:30:00 7.8 C 76 % 3.84 C
3044 13-03-2019 13:35:00 7.8 C 78 % 4.21 C
3045 13-03-2019 13:40:00 7.8 C 79 % 4.39 C
3046 13-03-2019 13:45:00 7.8 C 79 % 4.39 C
3047 13-03-2019 13:50:00 7.8 C 78 % 4.21 C
3048 13-03-2019 13:55:00 7.8 C 78 % 4.21 C
3049 13-03-2019 14:00:00 7.9 C 78 % 4.31 C
3050 13-03-2019 14:05:00 8.1 C 78 % 4.5 C
Sensor: Nr:Datum:Temp:Feuchte:Taupunkt:
Aussen-T/F 3051 13-03-2019 14:10:00 8.2 C 77 % 4.42 C
3052 13-03-2019 14:15:00 8.2 C 77 % 4.42 C
3053 13-03-2019 14:20:00 8.2 C 78 % 4.6 C
3054 13-03-2019 14:25:00 8.1 C 78 % 4.5 C
3055 13-03-2019 14:30:00 8 C 79 % 4.59 C
3056 13-03-2019 14:35:00 7.9 C 78 % 4.31 C
3057 13-03-2019 14:40:00 7.9 C 79 % 4.49 C
3058 13-03-2019 14:45:00 8 C 79 % 4.59 C
3059 13-03-2019 14:50:00 8 C 78 % 4.41 C
3060 13-03-2019 14:55:00 8.1 C 78 % 4.5 C
3061 13-03-2019 15:00:00 8 C 78 % 4.41 C
3062 13-03-2019 15:05:00 7.9 C 79 % 4.49 C
3063 13-03-2019 15:10:00 7.9 C 79 % 4.49 C
3064 13-03-2019 15:15:00 7.9 C 80 % 4.67 C
3065 13-03-2019 15:20:00 7.8 C 80 % 4.57 C
3066 13-03-2019 15:25:00 7.9 C 80 % 4.67 C
3067 13-03-2019 15:30:00 7.9 C 80 % 4.67 C
3068 13-03-2019 15:35:00 7.8 C 80 % 4.57 C
3069 13-03-2019 15:40:00 7.7 C 81 % 4.65 C
3070 13-03-2019 15:45:00 7.6 C 81 % 4.55 C
3071 13-03-2019 15:50:00 7.6 C 81 % 4.55 C
3072 13-03-2019 15:55:00 7.5 C 83 % 4.81 C
3073 13-03-2019 16:00:00 7.4 C 84 % 4.88 C
3074 13-03-2019 16:05:00 7.3 C 85 % 4.95 C
3075 13-03-2019 16:10:00 7.1 C 86 % 4.92 C
Sensor: Nr:Datum:Temp:Feuchte:Taupunkt:
Aussen-T/F 3076 13-03-2019 16:15:00 7 C 87 % 4.99 C
3077 13-03-2019 16:20:00 6.8 C 87 % 4.79 C
3078 13-03-2019 16:25:00 6.7 C 88 % 4.86 C
3079 13-03-2019 16:30:00 6.6 C 88 % 4.76 C
3080 13-03-2019 16:35:00 6.6 C 88 % 4.76 C
3081 13-03-2019 16:40:00 6.6 C 88 % 4.76 C
3082 13-03-2019 16:45:00 6.6 C 89 % 4.92 C
3083 13-03-2019 16:50:00 6.6 C 89 % 4.92 C
3084 13-03-2019 16:55:00 6.6 C 89 % 4.92 C
3085 13-03-2019 17:00:00 6.6 C 89 % 4.92 C
3086 13-03-2019 17:05:00 6.6 C 89 % 4.92 C
3087 13-03-2019 17:10:00 6.7 C 89 % 5.02 C
3088 13-03-2019 17:15:00 6.6 C 88 % 4.76 C
3089 13-03-2019 17:20:00 6.7 C 88 % 4.86 C
3090 13-03-2019 17:25:00 6.7 C 87 % 4.69 C
3091 13-03-2019 17:30:00 6.7 C 88 % 4.86 C
3092 13-03-2019 17:35:00 6.6 C 88 % 4.76 C
3093 13-03-2019 17:40:00 6.6 C 87 % 4.6 C
3094 13-03-2019 17:45:00 6.7 C 87 % 4.69 C
3095 13-03-2019 17:50:00 6.7 C 87 % 4.69 C
3096 13-03-2019 17:55:00 6.7 C 87 % 4.69 C
3097 13-03-2019 18:00:00 6.8 C 87 % 4.79 C
3098 13-03-2019 18:05:00 6.8 C 86 % 4.63 C
3099 13-03-2019 18:10:00 6.9 C 86 % 4.72 C
3100 13-03-2019 18:15:00 6.9 C 86 % 4.72 C
Sensor: Nr:Datum:Temp:Feuchte:Taupunkt:
Aussen-T/F 3101 13-03-2019 18:20:00 6.9 C 86 % 4.72 C
3102 13-03-2019 18:25:00 6.8 C 88 % 4.96 C
3103 13-03-2019 18:30:00 6.7 C 88 % 4.86 C
3104 13-03-2019 18:35:00 6.6 C 89 % 4.92 C
3105 13-03-2019 18:40:00 6.6 C 89 % 4.92 C
3106 13-03-2019 18:45:00 6.3 C 89 % 4.62 C
3107 13-03-2019 18:50:00 5.9 C 89 % 4.23 C
3108 13-03-2019 18:55:00 5.4 C 89 % 3.74 C
3109 13-03-2019 19:00:00 5.3 C 90 % 3.8 C
3110 13-03-2019 19:05:00 5.1 C 91 % 3.76 C
3111 13-03-2019 19:10:00 5 C 91 % 3.66 C
3112 13-03-2019 19:15:00 4.9 C 91 % 3.56 C
3113 13-03-2019 19:20:00 4.9 C 92 % 3.71 C
3114 13-03-2019 19:25:00 4.9 C 92 % 3.71 C
3115 13-03-2019 19:30:00 4.9 C 92 % 3.71 C
3116 13-03-2019 19:35:00 4.9 C 92 % 3.71 C
3117 13-03-2019 19:40:00 4.9 C 93 % 3.87 C
3118 13-03-2019 19:45:00 4.9 C 93 % 3.87 C
3119 13-03-2019 19:50:00 4.9 C 93 % 3.87 C
3120 13-03-2019 19:55:00 4.9 C 93 % 3.87 C
3121 13-03-2019 20:00:00 5 C 93 % 3.96 C
3122 13-03-2019 20:05:00 5.1 C 93 % 4.06 C
3123 13-03-2019 20:10:00 5.1 C 93 % 4.06 C
3124 13-03-2019 20:15:00 5.1 C 92 % 3.91 C
3125 13-03-2019 20:20:00 5.1 C 92 % 3.91 C
Sensor: Nr:Datum:Temp:Feuchte:Taupunkt:
Aussen-T/F 3126 13-03-2019 20:25:00 5.1 C 92 % 3.91 C
3127 13-03-2019 20:30:00 5 C 92 % 3.81 C
3128 13-03-2019 20:35:00 4.9 C 92 % 3.71 C
3129 13-03-2019 20:40:00 4.8 C 92 % 3.61 C
3130 13-03-2019 20:45:00 4.7 C 92 % 3.51 C
3131 13-03-2019 20:50:00 4.7 C 92 % 3.51 C
3132 13-03-2019 20:55:00 4.7 C 92 % 3.51 C
3133 13-03-2019 21:00:00 4.7 C 92 % 3.51 C
3134 13-03-2019 21:05:00 4.8 C 92 % 3.61 C
3135 13-03-2019 21:10:00 4.8 C 92 % 3.61 C
3136 13-03-2019 21:15:00 4.9 C 92 % 3.71 C
3137 13-03-2019 21:20:00 4.9 C 92 % 3.71 C
3138 13-03-2019 21:25:00 5 C 93 % 3.96 C
3139 13-03-2019 21:30:00 5 C 93 % 3.96 C
3140 13-03-2019 21:35:00 5.1 C 93 % 4.06 C
3141 13-03-2019 21:40:00 5.1 C 93 % 4.06 C
3142 13-03-2019 21:45:00 5 C 93 % 3.96 C
3143 13-03-2019 21:50:00 5 C 93 % 3.96 C
3144 13-03-2019 21:55:00 5 C 93 % 3.96 C
3145 13-03-2019 22:00:00 5 C 93 % 3.96 C
3146 13-03-2019 22:05:00 5 C 93 % 3.96 C
3147 13-03-2019 22:10:00 5 C 93 % 3.96 C
3148 13-03-2019 22:15:00 5.1 C 93 % 4.06 C
3149 13-03-2019 22:20:00 5 C 93 % 3.96 C
3150 13-03-2019 22:25:00 5 C 93 % 3.96 C
Sensor: Nr:Datum:Temp:Feuchte:Taupunkt:
Aussen-T/F 3151 13-03-2019 22:30:00 4.9 C 93 % 3.87 C
3152 13-03-2019 22:35:00 5 C 93 % 3.96 C
3153 13-03-2019 22:40:00 5 C 93 % 3.96 C
3154 13-03-2019 22:45:00 5.1 C 93 % 4.06 C
3155 13-03-2019 22:50:00 5.2 C 93 % 4.16 C
3156 13-03-2019 22:55:00 5.2 C 93 % 4.16 C
3157 13-03-2019 23:00:00 5.2 C 92 % 4.01 C
3158 13-03-2019 23:05:00 5.1 C 92 % 3.91 C
3159 13-03-2019 23:10:00 5 C 92 % 3.81 C
3160 13-03-2019 23:15:00 4.8 C 92 % 3.61 C
3161 13-03-2019 23:20:00 4.7 C 92 % 3.51 C
3162 13-03-2019 23:25:00 4.6 C 93 % 3.57 C
3163 13-03-2019 23:30:00 4.6 C 93 % 3.57 C
3164 13-03-2019 23:35:00 4.5 C 93 % 3.47 C
3165 13-03-2019 23:40:00 4.5 C 93 % 3.47 C
3166 13-03-2019 23:45:00 4.5 C 93 % 3.47 C
3167 13-03-2019 23:50:00 4.6 C 93 % 3.57 C
3168 13-03-2019 23:55:00 4.6 C 94 % 3.72 C
3169 14-03-2019 00:00:00 4.6 C 93 % 3.57 C
3170 14-03-2019 00:05:00 4.6 C 93 % 3.57 C
3171 14-03-2019 00:10:00 4.6 C 93 % 3.57 C
3172 14-03-2019 00:15:00 4.6 C 93 % 3.57 C
3173 14-03-2019 00:20:00 4.6 C 93 % 3.57 C
3174 14-03-2019 00:25:00 4.6 C 93 % 3.57 C
3175 14-03-2019 00:30:00 4.6 C 92 % 3.42 C
Sensor: Nr:Datum:Temp:Feuchte:Taupunkt:
Aussen-T/F 3176 14-03-2019 00:35:00 4.6 C 92 % 3.42 C
3177 14-03-2019 00:40:00 4.6 C 92 % 3.42 C
3178 14-03-2019 00:45:00 4.7 C 92 % 3.51 C
3179 14-03-2019 00:50:00 4.8 C 92 % 3.61 C
3180 14-03-2019 00:55:00 4.9 C 91 % 3.56 C
3181 14-03-2019 01:00:00 5 C 91 % 3.66 C
3182 14-03-2019 01:05:00 5.1 C 90 % 3.6 C
3183 14-03-2019 01:10:00 5.2 C 90 % 3.7 C
3184 14-03-2019 01:15:00 5.2 C 91 % 3.85 C
3185 14-03-2019 01:20:00 5.2 C 90 % 3.7 C
3186 14-03-2019 01:25:00 5.2 C 90 % 3.7 C
3187 14-03-2019 01:30:00 5.2 C 90 % 3.7 C
3188 14-03-2019 01:35:00 5.2 C 91 % 3.85 C
3189 14-03-2019 01:40:00 5.1 C 91 % 3.76 C
3190 14-03-2019 01:45:00 5.1 C 91 % 3.76 C
3191 14-03-2019 01:50:00 5.1 C 91 % 3.76 C
3192 14-03-2019 01:55:00 5 C 91 % 3.66 C
3193 14-03-2019 02:00:00 5 C 91 % 3.66 C
3194 14-03-2019 02:05:00 5 C 92 % 3.81 C
3195 14-03-2019 02:10:00 4.9 C 92 % 3.71 C
3196 14-03-2019 02:15:00 4.9 C 92 % 3.71 C
3197 14-03-2019 02:20:00 4.9 C 92 % 3.71 C
3198 14-03-2019 02:25:00 4.9 C 92 % 3.71 C
3199 14-03-2019 02:30:00 4.8 C 92 % 3.61 C
3200 14-03-2019 02:35:00 4.8 C 92 % 3.61 C
Sensor: Nr:Datum:Temp:Feuchte:Taupunkt:
Aussen-T/F 3201 14-03-2019 02:40:00 4.7 C 92 % 3.51 C
3202 14-03-2019 02:45:00 4.7 C 92 % 3.51 C
3203 14-03-2019 02:50:00 4.6 C 92 % 3.42 C
3204 14-03-2019 02:55:00 4.6 C 92 % 3.42 C
3205 14-03-2019 03:00:00 4.4 C 92 % 3.22 C
3206 14-03-2019 03:05:00 4.4 C 92 % 3.22 C
3207 14-03-2019 03:10:00 4.4 C 92 % 3.22 C
3208 14-03-2019 03:15:00 4.4 C 93 % 3.37 C
3209 14-03-2019 03:20:00 4.4 C 93 % 3.37 C
3210 14-03-2019 03:25:00 4.3 C 93 % 3.27 C
3211 14-03-2019 03:30:00 4.4 C 93 % 3.37 C
3212 14-03-2019 03:35:00 4.4 C 93 % 3.37 C
3213 14-03-2019 03:40:00 4.4 C 93 % 3.37 C
3214 14-03-2019 03:45:00 4.6 C 94 % 3.72 C
3215 14-03-2019 03:50:00 4.7 C 94 % 3.82 C
3216 14-03-2019 03:55:00 4.8 C 94 % 3.92 C
3217 14-03-2019 04:00:00 4.8 C 94 % 3.92 C
3218 14-03-2019 04:05:00 4.8 C 94 % 3.92 C
3219 14-03-2019 04:10:00 4.9 C 93 % 3.87 C
3220 14-03-2019 04:15:00 4.9 C 94 % 4.02 C
3221 14-03-2019 04:20:00 4.9 C 93 % 3.87 C
3222 14-03-2019 04:25:00 5 C 94 % 4.12 C
3223 14-03-2019 04:30:00 5.1 C 93 % 4.06 C
3224 14-03-2019 04:35:00 5.2 C 93 % 4.16 C
3225 14-03-2019 04:40:00 5.2 C 93 % 4.16 C
Sensor: Nr:Datum:Temp:Feuchte:Taupunkt:
Aussen-T/F 3226 14-03-2019 04:45:00 5.2 C 93 % 4.16 C
3227 14-03-2019 04:50:00 5.3 C 93 % 4.26 C
3228 14-03-2019 04:55:00 5.3 C 93 % 4.26 C
3229 14-03-2019 05:00:00 5.4 C 93 % 4.36 C
3230 14-03-2019 05:05:00 5.5 C 93 % 4.46 C
3231 14-03-2019 05:10:00 5.6 C 93 % 4.56 C
3232 14-03-2019 05:15:00 5.6 C 92 % 4.41 C
3233 14-03-2019 05:20:00 5.6 C 92 % 4.41 C
3234 14-03-2019 05:25:00 5.7 C 92 % 4.5 C
3235 14-03-2019 05:30:00 5.8 C 92 % 4.6 C
3236 14-03-2019 05:35:00 5.8 C 91 % 4.45 C
3237 14-03-2019 05:40:00 5.9 C 91 % 4.55 C
3238 14-03-2019 05:45:00 5.9 C 91 % 4.55 C
3239 14-03-2019 05:50:00 6 C 90 % 4.49 C
3240 14-03-2019 05:55:00 6 C 90 % 4.49 C
3241 14-03-2019 06:00:00 6.1 C 90 % 4.59 C
3242 14-03-2019 06:05:00 6.1 C 90 % 4.59 C
3243 14-03-2019 06:10:00 6.1 C 90 % 4.59 C
3244 14-03-2019 06:15:00 6.1 C 89 % 4.43 C
3245 14-03-2019 06:20:00 6.1 C 89 % 4.43 C
3246 14-03-2019 06:25:00 6.1 C 90 % 4.59 C
3247 14-03-2019 06:30:00 6.1 C 89 % 4.43 C
3248 14-03-2019 06:35:00 6.1 C 89 % 4.43 C
3249 14-03-2019 06:40:00 6.2 C 89 % 4.53 C
3250 14-03-2019 06:45:00 6.2 C 89 % 4.53 C
Sensor: Nr:Datum:Temp:Feuchte:Taupunkt:
Aussen-T/F 3251 14-03-2019 06:50:00 6.2 C 89 % 4.53 C
3252 14-03-2019 06:55:00 6.2 C 88 % 4.36 C
3253 14-03-2019 07:00:00 6.2 C 88 % 4.36 C
3254 14-03-2019 07:05:00 6.3 C 88 % 4.46 C
3255 14-03-2019 07:10:00 6.3 C 88 % 4.46 C
3256 14-03-2019 07:15:00 6.3 C 88 % 4.46 C
3257 14-03-2019 07:20:00 6.3 C 88 % 4.46 C
3258 14-03-2019 07:25:00 6.3 C 88 % 4.46 C
3259 14-03-2019 07:30:00 6.3 C 87 % 4.3 C
3260 14-03-2019 07:35:00 6.3 C 87 % 4.3 C
3261 14-03-2019 07:40:00 6.4 C 87 % 4.4 C
3262 14-03-2019 07:45:00 6.4 C 86 % 4.23 C
3263 14-03-2019 07:50:00 6.5 C 86 % 4.33 C
3264 14-03-2019 07:55:00 6.6 C 86 % 4.43 C
3265 14-03-2019 08:00:00 6.6 C 86 % 4.43 C
3266 14-03-2019 08:05:00 6.6 C 86 % 4.43 C
3267 14-03-2019 08:10:00 6.7 C 85 % 4.36 C
3268 14-03-2019 08:15:00 6.7 C 85 % 4.36 C
3269 14-03-2019 08:20:00 6.7 C 85 % 4.36 C
3270 14-03-2019 08:25:00 6.7 C 85 % 4.36 C
3271 14-03-2019 08:30:00 6.8 C 85 % 4.46 C
3272 14-03-2019 08:35:00 6.8 C 85 % 4.46 C
3273 14-03-2019 08:40:00 6.8 C 85 % 4.46 C
3274 14-03-2019 08:45:00 6.7 C 86 % 4.53 C
3275 14-03-2019 08:50:00 6.7 C 87 % 4.69 C
Sensor: Nr:Datum:Temp:Feuchte:Taupunkt:
Aussen-T/F 3276 14-03-2019 08:55:00 6.7 C 87 % 4.69 C
3277 14-03-2019 09:00:00 6.6 C 88 % 4.76 C
3278 14-03-2019 09:05:00 6.5 C 88 % 4.66 C
3279 14-03-2019 09:10:00 6.5 C 89 % 4.82 C
3280 14-03-2019 09:15:00 6.4 C 89 % 4.72 C
3281 14-03-2019 09:20:00 6.4 C 89 % 4.72 C
3282 14-03-2019 09:25:00 6.4 C 89 % 4.72 C
3283 14-03-2019 09:30:00 6.3 C 89 % 4.62 C
3284 14-03-2019 09:35:00 6.3 C 89 % 4.62 C
3285 14-03-2019 09:40:00 6.4 C 89 % 4.72 C
3286 14-03-2019 09:45:00 6.4 C 89 % 4.72 C
3287 14-03-2019 09:50:00 6.4 C 89 % 4.72 C
3288 14-03-2019 09:55:00 6.4 C 89 % 4.72 C
3289 14-03-2019 10:00:00 6.5 C 89 % 4.82 C
3290 14-03-2019 10:05:00 6.5 C 89 % 4.82 C
3291 14-03-2019 10:10:00 6.5 C 89 % 4.82 C
3292 14-03-2019 10:15:00 6.5 C 88 % 4.66 C
3293 14-03-2019 10:20:00 6.5 C 88 % 4.66 C
3294 14-03-2019 10:25:00 6.6 C 88 % 4.76 C
3295 14-03-2019 10:30:00 6.6 C 88 % 4.76 C
3296 14-03-2019 10:35:00 6.6 C 88 % 4.76 C
3297 14-03-2019 10:40:00 6.6 C 88 % 4.76 C
3298 14-03-2019 10:45:00 6.6 C 88 % 4.76 C
3299 14-03-2019 10:50:00 6.6 C 88 % 4.76 C
3300 14-03-2019 10:55:00 6.5 C 88 % 4.66 C
Sensor: Nr:Datum:Temp:Feuchte:Taupunkt:
Aussen-T/F 3301 14-03-2019 11:00:00 6.5 C 89 % 4.82 C
3302 14-03-2019 11:05:00 6.5 C 89 % 4.82 C
3303 14-03-2019 11:10:00 6.4 C 89 % 4.72 C
3304 14-03-2019 11:15:00 6.4 C 89 % 4.72 C
3305 14-03-2019 11:20:00 6.5 C 89 % 4.82 C
3306 14-03-2019 11:25:00 6.5 C 89 % 4.82 C
3307 14-03-2019 11:30:00 6.5 C 89 % 4.82 C
3308 14-03-2019 11:35:00 6.6 C 89 % 4.92 C
3309 14-03-2019 11:40:00 6.6 C 89 % 4.92 C
3310 14-03-2019 11:45:00 6.7 C 90 % 5.18 C
3311 14-03-2019 11:50:00 6.7 C 89 % 5.02 C
3312 14-03-2019 11:55:00 6.8 C 89 % 5.12 C
3313 14-03-2019 12:00:00 6.9 C 89 % 5.22 C
3314 14-03-2019 12:05:00 7.1 C 89 % 5.41 C
3315 14-03-2019 12:10:00 7.1 C 88 % 5.25 C
3316 14-03-2019 12:15:00 7.2 C 88 % 5.35 C
3317 14-03-2019 12:20:00 7.2 C 88 % 5.35 C
3318 14-03-2019 12:25:00 7.2 C 88 % 5.35 C
3319 14-03-2019 12:30:00 7.2 C 88 % 5.35 C
3320 14-03-2019 12:35:00 7.1 C 88 % 5.25 C
3321 14-03-2019 12:40:00 7.1 C 89 % 5.41 C
3322 14-03-2019 12:45:00 7.2 C 90 % 5.67 C
3323 14-03-2019 12:50:00 7.2 C 90 % 5.67 C
3324 14-03-2019 12:55:00 7.3 C 90 % 5.77 C
3325 14-03-2019 13:00:00 7.3 C 90 % 5.77 C
Sensor: Nr:Datum:Temp:Feuchte:Taupunkt:
Aussen-T/F 3326 14-03-2019 13:05:00 7.3 C 89 % 5.61 C
3327 14-03-2019 13:10:00 7.3 C 90 % 5.77 C
3328 14-03-2019 13:15:00 7.3 C 90 % 5.77 C
3329 14-03-2019 13:20:00 7.3 C 89 % 5.61 C
3330 14-03-2019 13:25:00 7.3 C 89 % 5.61 C
3331 14-03-2019 13:30:00 7.3 C 88 % 5.45 C
3332 14-03-2019 13:35:00 7.3 C 88 % 5.45 C
3333 14-03-2019 13:40:00 7.3 C 88 % 5.45 C
3334 14-03-2019 13:45:00 7.3 C 87 % 5.28 C
3335 14-03-2019 13:50:00 7.3 C 87 % 5.28 C
3336 14-03-2019 13:55:00 7.4 C 87 % 5.38 C
3337 14-03-2019 14:00:00 7.4 C 87 % 5.38 C
3338 14-03-2019 14:05:00 7.4 C 87 % 5.38 C
3339 14-03-2019 14:10:00 7.4 C 87 % 5.38 C
3340 14-03-2019 14:15:00 7.4 C 87 % 5.38 C
3341 14-03-2019 14:20:00 7.4 C 88 % 5.55 C
3342 14-03-2019 14:25:00 7.4 C 88 % 5.55 C
3343 14-03-2019 14:30:00 7.3 C 88 % 5.45 C
3344 14-03-2019 14:35:00 7.3 C 87 % 5.28 C
3345 14-03-2019 14:40:00 7.3 C 88 % 5.45 C
3346 14-03-2019 14:45:00 7.3 C 89 % 5.61 C
3347 14-03-2019 14:50:00 7.2 C 89 % 5.51 C
3348 14-03-2019 14:55:00 7.2 C 90 % 5.67 C
3349 14-03-2019 15:00:00 7.3 C 90 % 5.77 C
3350 14-03-2019 15:05:00 7.3 C 91 % 5.93 C
Sensor: Nr:Datum:Temp:Feuchte:Taupunkt:
Aussen-T/F 3351 14-03-2019 15:10:00 7.5 C 90 % 5.97 C
3352 14-03-2019 15:15:00 7.7 C 90 % 6.17 C
3353 14-03-2019 15:20:00 7.8 C 90 % 6.27 C
3354 14-03-2019 15:25:00 7.8 C 89 % 6.1 C
3355 14-03-2019 15:30:00 7.8 C 89 % 6.1 C
3356 14-03-2019 15:35:00 7.8 C 90 % 6.27 C
3357 14-03-2019 15:40:00 7.8 C 90 % 6.27 C
3358 14-03-2019 15:45:00 7.8 C 91 % 6.43 C
3359 14-03-2019 15:50:00 7.8 C 91 % 6.43 C
3360 14-03-2019 15:55:00 7.9 C 91 % 6.52 C
3361 14-03-2019 16:00:00 8.1 C 90 % 6.56 C
3362 14-03-2019 16:05:00 8.3 C 89 % 6.6 C
3363 14-03-2019 16:10:00 8.6 C 88 % 6.73 C
3364 14-03-2019 16:15:00 8.8 C 87 % 6.76 C
3365 14-03-2019 16:20:00 8.9 C 85 % 6.52 C
3366 14-03-2019 16:25:00 9.1 C 85 % 6.72 C
3367 14-03-2019 16:30:00 9.1 C 85 % 6.72 C
3368 14-03-2019 16:35:00 9.2 C 85 % 6.81 C
3369 14-03-2019 16:40:00 9.1 C 85 % 6.72 C
3370 14-03-2019 16:45:00 9.1 C 85 % 6.72 C
3371 14-03-2019 16:50:00 9.1 C 85 % 6.72 C
3372 14-03-2019 16:55:00 9.1 C 85 % 6.72 C
3373 14-03-2019 17:00:00 9.2 C 87 % 7.15 C
3374 14-03-2019 17:05:00 9.2 C 87 % 7.15 C
3375 14-03-2019 17:10:00 9.2 C 87 % 7.15 C
Sensor: Nr:Datum:Temp:Feuchte:Taupunkt:
Aussen-T/F 3376 14-03-2019 17:15:00 9.2 C 87 % 7.15 C
3377 14-03-2019 17:20:00 9.4 C 87 % 7.35 C
3378 14-03-2019 17:25:00 9.8 C 85 % 7.4 C
3379 14-03-2019 17:30:00 10.2 C 84 % 7.62 C
3380 14-03-2019 17:35:00 10.4 C 83 % 7.64 C
3381 14-03-2019 17:40:00 10.6 C 82 % 7.66 C
3382 14-03-2019 17:45:00 10.5 C 82 % 7.56 C
3383 14-03-2019 17:50:00 10.3 C 82 % 7.37 C
3384 14-03-2019 17:55:00 10.3 C 83 % 7.54 C
3385 14-03-2019 18:00:00 10.2 C 83 % 7.45 C
3386 14-03-2019 18:05:00 10.1 C 84 % 7.52 C
3387 14-03-2019 18:10:00 10 C 84 % 7.43 C
3388 14-03-2019 18:15:00 9.9 C 85 % 7.5 C
3389 14-03-2019 18:20:00 9.8 C 84 % 7.23 C
3390 14-03-2019 18:25:00 9.7 C 84 % 7.13 C
3391 14-03-2019 18:30:00 9.7 C 83 % 6.96 C
3392 14-03-2019 18:35:00 9.8 C 83 % 7.05 C
3393 14-03-2019 18:40:00 9.8 C 81 % 6.7 C
3394 14-03-2019 18:45:00 9.8 C 81 % 6.7 C
3395 14-03-2019 18:50:00 9.8 C 80 % 6.52 C
3396 14-03-2019 18:55:00 9.9 C 79 % 6.43 C
3397 14-03-2019 19:00:00 9.9 C 80 % 6.62 C
3398 14-03-2019 19:05:00 9.8 C 76 % 5.78 C
3399 14-03-2019 19:10:00 9.9 C 76 % 5.87 C
3400 14-03-2019 19:15:00 9.9 C 75 % 5.68 C
Sensor: Nr:Datum:Temp:Feuchte:Taupunkt:
Aussen-T/F 3401 14-03-2019 19:20:00 9.9 C 73 % 5.29 C
3402 14-03-2019 19:25:00 9.9 C 73 % 5.29 C
3403 14-03-2019 19:30:00 9.9 C 74 % 5.49 C
3404 14-03-2019 19:35:00 9.8 C 77 % 5.97 C
3405 14-03-2019 19:40:00 9.3 C 79 % 5.85 C
3406 14-03-2019 19:45:00 8.9 C 81 % 5.82 C
3407 14-03-2019 19:50:00 8.7 C 82 % 5.8 C
3408 14-03-2019 19:55:00 8.6 C 83 % 5.88 C
3409 14-03-2019 20:00:00 8.3 C 84 % 5.76 C
3410 14-03-2019 20:05:00 8.3 C 85 % 5.93 C
3411 14-03-2019 20:10:00 8.2 C 85 % 5.83 C
3412 14-03-2019 20:15:00 8.1 C 86 % 5.9 C
3413 14-03-2019 20:20:00 7.9 C 85 % 5.54 C
3414 14-03-2019 20:25:00 7.9 C 85 % 5.54 C
3415 14-03-2019 20:30:00 7.9 C 86 % 5.71 C
3416 14-03-2019 20:35:00 7.8 C 86 % 5.61 C
3417 14-03-2019 20:40:00 7.8 C 85 % 5.44 C
3418 14-03-2019 20:45:00 7.8 C 85 % 5.44 C
3419 14-03-2019 20:50:00 7.8 C 85 % 5.44 C
3420 14-03-2019 20:55:00 7.8 C 84 % 5.27 C
3421 14-03-2019 21:00:00 7.9 C 84 % 5.37 C
3422 14-03-2019 21:05:00 7.9 C 84 % 5.37 C
3423 14-03-2019 21:10:00 8 C 84 % 5.47 C
3424 14-03-2019 21:15:00 8.1 C 83 % 5.39 C
3425 14-03-2019 21:20:00 8.2 C 83 % 5.49 C
Sensor: Nr:Datum:Temp:Feuchte:Taupunkt:
Aussen-T/F 3426 14-03-2019 21:25:00 8.3 C 83 % 5.59 C
3427 14-03-2019 21:30:00 8.3 C 82 % 5.41 C
3428 14-03-2019 21:35:00 8.4 C 82 % 5.51 C
3429 14-03-2019 21:40:00 8.4 C 82 % 5.51 C
3430 14-03-2019 21:45:00 8.4 C 83 % 5.69 C
3431 14-03-2019 21:50:00 8.3 C 83 % 5.59 C
3432 14-03-2019 21:55:00 8.2 C 83 % 5.49 C
3433 14-03-2019 22:00:00 8.2 C 82 % 5.32 C
3434 14-03-2019 22:05:00 8.3 C 82 % 5.41 C
3435 14-03-2019 22:10:00 8.4 C 81 % 5.33 C
3436 14-03-2019 22:15:00 8.4 C 80 % 5.16 C
3437 14-03-2019 22:20:00 8.5 C 79 % 5.07 C
3438 14-03-2019 22:25:00 8.6 C 79 % 5.17 C
3439 14-03-2019 22:30:00 8.6 C 79 % 5.17 C
3440 14-03-2019 22:35:00 8.4 C 79 % 4.98 C
3441 14-03-2019 22:40:00 8.4 C 79 % 4.98 C
3442 14-03-2019 22:45:00 8.3 C 79 % 4.88 C
3443 14-03-2019 22:50:00 8.3 C 79 % 4.88 C
3444 14-03-2019 22:55:00 8.2 C 79 % 4.78 C
3445 14-03-2019 23:00:00 8.2 C 79 % 4.78 C
3446 14-03-2019 23:05:00 8.2 C 79 % 4.78 C
3447 14-03-2019 23:10:00 8.2 C 79 % 4.78 C
3448 14-03-2019 23:15:00 8.2 C 79 % 4.78 C
3449 14-03-2019 23:20:00 8.2 C 79 % 4.78 C
3450 14-03-2019 23:25:00 8.2 C 79 % 4.78 C
Sensor: Nr:Datum:Temp:Feuchte:Taupunkt:
Aussen-T/F 3451 14-03-2019 23:30:00 8.2 C 79 % 4.78 C
3452 14-03-2019 23:35:00 8.2 C 79 % 4.78 C
3453 14-03-2019 23:40:00 8.1 C 79 % 4.68 C
3454 14-03-2019 23:45:00 8 C 80 % 4.77 C
3455 14-03-2019 23:50:00 7.9 C 80 % 4.67 C
3456 14-03-2019 23:55:00 7.8 C 80 % 4.57 C
3457 15-03-2019 00:00:00 7.8 C 80 % 4.57 C
3458 15-03-2019 00:05:00 7.7 C 81 % 4.65 C
3459 15-03-2019 00:10:00 7.6 C 82 % 4.73 C
3460 15-03-2019 00:15:00 7.4 C 82 % 4.53 C
3461 15-03-2019 00:20:00 7.2 C 82 % 4.34 C
3462 15-03-2019 00:25:00 7.1 C 83 % 4.41 C
3463 15-03-2019 00:30:00 6.9 C 84 % 4.39 C
3464 15-03-2019 00:35:00 6.9 C 84 % 4.39 C
3465 15-03-2019 00:40:00 6.8 C 84 % 4.29 C
3466 15-03-2019 00:45:00 6.7 C 84 % 4.19 C
3467 15-03-2019 00:50:00 6.7 C 85 % 4.36 C
3468 15-03-2019 00:55:00 6.6 C 85 % 4.26 C
3469 15-03-2019 01:00:00 6.4 C 85 % 4.07 C
3470 15-03-2019 01:05:00 6.3 C 85 % 3.97 C
3471 15-03-2019 01:10:00 6.3 C 86 % 4.14 C
3472 15-03-2019 01:15:00 6.3 C 86 % 4.14 C
3473 15-03-2019 01:20:00 6.3 C 86 % 4.14 C
3474 15-03-2019 01:25:00 6.3 C 86 % 4.14 C
3475 15-03-2019 01:30:00 6.3 C 86 % 4.14 C
Sensor: Nr:Datum:Temp:Feuchte:Taupunkt:
Aussen-T/F 3476 15-03-2019 01:35:00 6.4 C 86 % 4.23 C
3477 15-03-2019 01:40:00 6.4 C 86 % 4.23 C
3478 15-03-2019 01:45:00 6.4 C 86 % 4.23 C
3479 15-03-2019 01:50:00 6.6 C 86 % 4.43 C
3480 15-03-2019 01:55:00 6.6 C 86 % 4.43 C
3481 15-03-2019 02:00:00 6.6 C 86 % 4.43 C
3482 15-03-2019 02:05:00 6.7 C 86 % 4.53 C
3483 15-03-2019 02:10:00 6.7 C 86 % 4.53 C
3484 15-03-2019 02:15:00 6.8 C 86 % 4.63 C
3485 15-03-2019 02:20:00 6.8 C 86 % 4.63 C
3486 15-03-2019 02:25:00 6.9 C 86 % 4.72 C
3487 15-03-2019 02:30:00 6.9 C 86 % 4.72 C
3488 15-03-2019 02:35:00 7 C 85 % 4.66 C
3489 15-03-2019 02:40:00 7 C 85 % 4.66 C
3490 15-03-2019 02:45:00 7.1 C 85 % 4.75 C
3491 15-03-2019 02:50:00 7 C 85 % 4.66 C
3492 15-03-2019 02:55:00 6.9 C 85 % 4.56 C
3493 15-03-2019 03:00:00 6.8 C 85 % 4.46 C
3494 15-03-2019 03:05:00 6.7 C 86 % 4.53 C
3495 15-03-2019 03:10:00 6.5 C 86 % 4.33 C
3496 15-03-2019 03:15:00 6.4 C 87 % 4.4 C
3497 15-03-2019 03:20:00 6.4 C 87 % 4.4 C
3498 15-03-2019 03:25:00 6.4 C 87 % 4.4 C
3499 15-03-2019 03:30:00 6.4 C 87 % 4.4 C
3500 15-03-2019 03:35:00 6.3 C 87 % 4.3 C
Sensor: Nr:Datum:Temp:Feuchte:Taupunkt:
Aussen-T/F 3501 15-03-2019 03:40:00 6.3 C 88 % 4.46 C
3502 15-03-2019 03:45:00 6.3 C 88 % 4.46 C
3503 15-03-2019 03:50:00 6.2 C 88 % 4.36 C
3504 15-03-2019 03:55:00 6.2 C 88 % 4.36 C
3505 15-03-2019 04:00:00 6.1 C 88 % 4.27 C
3506 15-03-2019 04:05:00 6 C 88 % 4.17 C
3507 15-03-2019 04:10:00 5.9 C 89 % 4.23 C
3508 15-03-2019 04:15:00 5.9 C 89 % 4.23 C
3509 15-03-2019 04:20:00 5.9 C 89 % 4.23 C
3510 15-03-2019 04:25:00 5.8 C 89 % 4.13 C
3511 15-03-2019 04:30:00 5.9 C 90 % 4.39 C
3512 15-03-2019 04:35:00 6 C 90 % 4.49 C
3513 15-03-2019 04:40:00 6.1 C 90 % 4.59 C
3514 15-03-2019 04:45:00 6.2 C 90 % 4.69 C
3515 15-03-2019 04:50:00 6.3 C 90 % 4.78 C
3516 15-03-2019 04:55:00 6.4 C 90 % 4.88 C
3517 15-03-2019 05:00:00 6.6 C 89 % 4.92 C
3518 15-03-2019 05:05:00 6.7 C 89 % 5.02 C
3519 15-03-2019 05:10:00 6.8 C 88 % 4.96 C
3520 15-03-2019 05:15:00 6.9 C 88 % 5.05 C
3521 15-03-2019 05:20:00 7 C 88 % 5.15 C
3522 15-03-2019 05:25:00 7.1 C 87 % 5.09 C
3523 15-03-2019 05:30:00 7.1 C 87 % 5.09 C
3524 15-03-2019 05:35:00 7.1 C 87 % 5.09 C
3525 15-03-2019 05:40:00 7.1 C 87 % 5.09 C
Sensor: Nr:Datum:Temp:Feuchte:Taupunkt:
Aussen-T/F 3526 15-03-2019 05:45:00 7.2 C 87 % 5.19 C
3527 15-03-2019 05:50:00 7.2 C 87 % 5.19 C
3528 15-03-2019 05:55:00 7.3 C 87 % 5.28 C
3529 15-03-2019 06:00:00 7.3 C 88 % 5.45 C
3530 15-03-2019 06:05:00 7.3 C 88 % 5.45 C
3531 15-03-2019 06:10:00 7.3 C 89 % 5.61 C
3532 15-03-2019 06:15:00 7.3 C 89 % 5.61 C
3533 15-03-2019 06:20:00 7.3 C 90 % 5.77 C
3534 15-03-2019 06:25:00 7.3 C 90 % 5.77 C
3535 15-03-2019 06:30:00 7.2 C 90 % 5.67 C
3536 15-03-2019 06:35:00 7.2 C 91 % 5.83 C
3537 15-03-2019 06:40:00 7.2 C 91 % 5.83 C
3538 15-03-2019 06:45:00 7.1 C 91 % 5.73 C
3539 15-03-2019 06:50:00 7.1 C 91 % 5.73 C
3540 15-03-2019 06:55:00 7.1 C 92 % 5.89 C
3541 15-03-2019 07:00:00 7 C 92 % 5.79 C
3542 15-03-2019 07:05:00 7 C 92 % 5.79 C
3543 15-03-2019 07:10:00 7.1 C 93 % 6.05 C
3544 15-03-2019 07:15:00 7.1 C 93 % 6.05 C
3545 15-03-2019 07:20:00 7.1 C 93 % 6.05 C
3546 15-03-2019 07:25:00 7.1 C 93 % 6.05 C
3547 15-03-2019 07:30:00 7.1 C 93 % 6.05 C
3548 15-03-2019 07:35:00 7.1 C 93 % 6.05 C
3549 15-03-2019 07:40:00 7.2 C 93 % 6.15 C
3550 15-03-2019 07:45:00 7.2 C 93 % 6.15 C
Sensor: Nr:Datum:Temp:Feuchte:Taupunkt:
Aussen-T/F 3551 15-03-2019 07:50:00 7.2 C 93 % 6.15 C
3552 15-03-2019 07:55:00 7.3 C 93 % 6.25 C
3553 15-03-2019 08:00:00 7.3 C 94 % 6.4 C
3554 15-03-2019 08:05:00 7.3 C 94 % 6.4 C
3555 15-03-2019 08:10:00 7.3 C 94 % 6.4 C
3556 15-03-2019 08:15:00 7.3 C 94 % 6.4 C
3557 15-03-2019 08:20:00 7.4 C 94 % 6.5 C
3558 15-03-2019 08:25:00 7.4 C 94 % 6.5 C
3559 15-03-2019 08:30:00 7.5 C 94 % 6.6 C
3560 15-03-2019 08:35:00 7.6 C 94 % 6.7 C
3561 15-03-2019 08:40:00 7.6 C 94 % 6.7 C
3562 15-03-2019 08:45:00 7.7 C 94 % 6.8 C
3563 15-03-2019 08:50:00 7.7 C 94 % 6.8 C
3564 15-03-2019 08:55:00 7.8 C 94 % 6.9 C
3565 15-03-2019 09:00:00 7.8 C 94 % 6.9 C
3566 15-03-2019 09:05:00 7.8 C 94 % 6.9 C
3567 15-03-2019 09:10:00 7.9 C 94 % 7 C
3568 15-03-2019 09:15:00 7.9 C 94 % 7 C
3569 15-03-2019 09:20:00 8 C 94 % 7.09 C
3570 15-03-2019 09:25:00 8.1 C 94 % 7.19 C
3571 15-03-2019 09:30:00 8.2 C 94 % 7.29 C
3572 15-03-2019 09:35:00 8.3 C 94 % 7.39 C
3573 15-03-2019 09:40:00 8.4 C 94 % 7.49 C
3574 15-03-2019 09:45:00 8.5 C 94 % 7.59 C
3575 15-03-2019 09:50:00 8.7 C 94 % 7.79 C
Sensor: Nr:Datum:Temp:Feuchte:Taupunkt:
Aussen-T/F 3576 15-03-2019 09:55:00 8.8 C 94 % 7.89 C
3577 15-03-2019 10:00:00 8.8 C 94 % 7.89 C
3578 15-03-2019 10:05:00 8.9 C 94 % 7.99 C
3579 15-03-2019 10:10:00 9 C 94 % 8.09 C
3580 15-03-2019 10:15:00 9.1 C 94 % 8.19 C
3581 15-03-2019 10:20:00 9.2 C 94 % 8.29 C
3582 15-03-2019 10:25:00 9.3 C 94 % 8.39 C
3583 15-03-2019 10:30:00 9.5 C 94 % 8.58 C
3584 15-03-2019 10:35:00 9.6 C 94 % 8.68 C
3585 15-03-2019 10:40:00 9.7 C 94 % 8.78 C
3586 15-03-2019 10:45:00 9.7 C 94 % 8.78 C
3587 15-03-2019 10:50:00 9.8 C 94 % 8.88 C
3588 15-03-2019 10:55:00 9.9 C 94 % 8.98 C
3589 15-03-2019 11:00:00 10.1 C 94 % 9.18 C
3590 15-03-2019 11:05:00 10.2 C 93 % 9.12 C
3591 15-03-2019 11:10:00 10.4 C 93 % 9.32 C
3592 15-03-2019 11:15:00 10.7 C 93 % 9.62 C
3593 15-03-2019 11:20:00 10.8 C 92 % 9.55 C
3594 15-03-2019 11:25:00 10.9 C 92 % 9.65 C
3595 15-03-2019 11:30:00 11.1 C 91 % 9.69 C
3596 15-03-2019 11:35:00 11.3 C 91 % 9.89 C
3597 15-03-2019 11:40:00 11.6 C 91 % 10.18 C
3598 15-03-2019 11:45:00 11.7 C 90 % 10.12 C
3599 15-03-2019 11:50:00 11.8 C 89 % 10.05 C
3600 15-03-2019 11:55:00 12 C 90 % 10.41 C
Sensor: Nr:Datum:Temp:Feuchte:Taupunkt:
Aussen-T/F 3601 15-03-2019 12:00:00 12.1 C 89 % 10.34 C
3602 15-03-2019 12:05:00 12.2 C 89 % 10.44 C
3603 15-03-2019 12:10:00 12.2 C 89 % 10.44 C
3604 15-03-2019 12:15:00 12.2 C 88 % 10.27 C
3605 15-03-2019 12:20:00 12.2 C 89 % 10.44 C
3606 15-03-2019 12:25:00 12.2 C 89 % 10.44 C
3607 15-03-2019 12:30:00 12.3 C 89 % 10.54 C
3608 15-03-2019 12:35:00 12.4 C 89 % 10.64 C
3609 15-03-2019 12:40:00 12.6 C 89 % 10.84 C
3610 15-03-2019 12:45:00 12.7 C 88 % 10.77 C
3611 15-03-2019 12:50:00 12.7 C 87 % 10.59 C
3612 15-03-2019 12:55:00 12.8 C 87 % 10.69 C
3613 15-03-2019 13:00:00 12.8 C 87 % 10.69 C
3614 15-03-2019 13:05:00 12.8 C 87 % 10.69 C
3615 15-03-2019 13:10:00 12.9 C 86 % 10.62 C
3616 15-03-2019 13:15:00 12.9 C 85 % 10.44 C
3617 15-03-2019 13:20:00 13.1 C 86 % 10.81 C
3618 15-03-2019 13:25:00 13.1 C 85 % 10.64 C
3619 15-03-2019 13:30:00 13.1 C 84 % 10.46 C
3620 15-03-2019 13:35:00 13.2 C 84 % 10.56 C
3621 15-03-2019 13:40:00 13.3 C 84 % 10.66 C
3622 15-03-2019 13:45:00 13.3 C 83 % 10.48 C
3623 15-03-2019 13:50:00 13.4 C 82 % 10.39 C
3624 15-03-2019 13:55:00 13.5 C 82 % 10.49 C
3625 15-03-2019 14:00:00 13.6 C 81 % 10.4 C
Sensor: Nr:Datum:Temp:Feuchte:Taupunkt:
Aussen-T/F 3626 15-03-2019 14:05:00 13.7 C 81 % 10.5 C
3627 15-03-2019 14:10:00 13.8 C 81 % 10.6 C
3628 15-03-2019 14:15:00 13.8 C 80 % 10.41 C
3629 15-03-2019 14:20:00 13.8 C 81 % 10.6 C
3630 15-03-2019 14:25:00 13.7 C 80 % 10.32 C
3631 15-03-2019 14:30:00 13.7 C 80 % 10.32 C
3632 15-03-2019 14:35:00 13.7 C 81 % 10.5 C
3633 15-03-2019 14:40:00 13.6 C 81 % 10.4 C
3634 15-03-2019 14:45:00 13.6 C 81 % 10.4 C
3635 15-03-2019 14:50:00 13.5 C 82 % 10.49 C
3636 15-03-2019 14:55:00 13.5 C 82 % 10.49 C
3637 15-03-2019 15:00:00 13.6 C 83 % 10.77 C
3638 15-03-2019 15:05:00 13.6 C 83 % 10.77 C
3639 15-03-2019 15:10:00 13.7 C 83 % 10.87 C
3640 15-03-2019 15:15:00 13.7 C 83 % 10.87 C
3641 15-03-2019 15:20:00 13.7 C 83 % 10.87 C
3642 15-03-2019 15:25:00 13.6 C 82 % 10.59 C
3643 15-03-2019 15:30:00 13.5 C 82 % 10.49 C
3644 15-03-2019 15:35:00 13.4 C 82 % 10.39 C
3645 15-03-2019 15:40:00 13.4 C 83 % 10.57 C
3646 15-03-2019 15:45:00 13.4 C 83 % 10.57 C
3647 15-03-2019 15:50:00 13.3 C 83 % 10.48 C
3648 15-03-2019 15:55:00 13.3 C 83 % 10.48 C
3649 15-03-2019 16:00:00 13.3 C 83 % 10.48 C
3650 15-03-2019 16:05:00 13.4 C 82 % 10.39 C
Sensor: Nr:Datum:Temp:Feuchte:Taupunkt:
Aussen-T/F 3651 15-03-2019 16:10:00 13.4 C 82 % 10.39 C
3652 15-03-2019 16:15:00 13.4 C 82 % 10.39 C
3653 15-03-2019 16:20:00 13.4 C 82 % 10.39 C
3654 15-03-2019 16:25:00 13.4 C 82 % 10.39 C
3655 15-03-2019 16:30:00 13.4 C 82 % 10.39 C
3656 15-03-2019 16:35:00 13.4 C 81 % 10.21 C
3657 15-03-2019 16:40:00 13.4 C 82 % 10.39 C
3658 15-03-2019 16:45:00 13.4 C 82 % 10.39 C
3659 15-03-2019 16:50:00 13.4 C 82 % 10.39 C
3660 15-03-2019 16:55:00 13.3 C 82 % 10.3 C
3661 15-03-2019 17:00:00 13.3 C 82 % 10.3 C
3662 15-03-2019 17:05:00 13.2 C 81 % 10.01 C
3663 15-03-2019 17:10:00 13.2 C 82 % 10.2 C
3664 15-03-2019 17:15:00 13.2 C 82 % 10.2 C
3665 15-03-2019 17:20:00 13.2 C 82 % 10.2 C
3666 15-03-2019 17:25:00 13.1 C 82 % 10.1 C
3667 15-03-2019 17:30:00 13.1 C 83 % 10.28 C
3668 15-03-2019 17:35:00 12.9 C 83 % 10.09 C
3669 15-03-2019 17:40:00 12.9 C 84 % 10.26 C
3670 15-03-2019 17:45:00 12.8 C 84 % 10.17 C
3671 15-03-2019 17:50:00 12.8 C 84 % 10.17 C
3672 15-03-2019 17:55:00 12.7 C 84 % 10.07 C
3673 15-03-2019 18:00:00 12.7 C 84 % 10.07 C
3674 15-03-2019 18:05:00 12.7 C 85 % 10.25 C
3675 15-03-2019 18:10:00 12.7 C 85 % 10.25 C
Sensor: Nr:Datum:Temp:Feuchte:Taupunkt:
Aussen-T/F 3676 15-03-2019 18:15:00 12.7 C 85 % 10.25 C
3677 15-03-2019 18:20:00 12.7 C 85 % 10.25 C
3678 15-03-2019 18:25:00 12.7 C 84 % 10.07 C
3679 15-03-2019 18:30:00 12.7 C 84 % 10.07 C
3680 15-03-2019 18:35:00 12.7 C 84 % 10.07 C
3681 15-03-2019 18:40:00 12.7 C 84 % 10.07 C
3682 15-03-2019 18:45:00 12.7 C 84 % 10.07 C
3683 15-03-2019 18:50:00 12.7 C 84 % 10.07 C
3684 15-03-2019 18:55:00 12.8 C 83 % 9.99 C
3685 15-03-2019 19:00:00 12.8 C 83 % 9.99 C
3686 15-03-2019 19:05:00 12.8 C 83 % 9.99 C
3687 15-03-2019 19:10:00 12.8 C 84 % 10.17 C
3688 15-03-2019 19:15:00 12.7 C 84 % 10.07 C
3689 15-03-2019 19:20:00 12.7 C 84 % 10.07 C
3690 15-03-2019 19:25:00 12.6 C 85 % 10.15 C
3691 15-03-2019 19:30:00 12.6 C 85 % 10.15 C
3692 15-03-2019 19:35:00 12.6 C 85 % 10.15 C
3693 15-03-2019 19:40:00 12.6 C 85 % 10.15 C
3694 15-03-2019 19:45:00 12.6 C 85 % 10.15 C
3695 15-03-2019 19:50:00 12.5 C 86 % 10.22 C
3696 15-03-2019 19:55:00 12.4 C 86 % 10.13 C
3697 15-03-2019 20:00:00 12.4 C 86 % 10.13 C
3698 15-03-2019 20:05:00 12.4 C 86 % 10.13 C
3699 15-03-2019 20:10:00 12.4 C 87 % 10.3 C
3700 15-03-2019 20:15:00 12.3 C 88 % 10.37 C
Sensor: Nr:Datum:Temp:Feuchte:Taupunkt:
Aussen-T/F 3701 15-03-2019 20:20:00 12.2 C 88 % 10.27 C
3702 15-03-2019 20:25:00 12.1 C 88 % 10.17 C
3703 15-03-2019 20:30:00 12 C 89 % 10.25 C
3704 15-03-2019 20:35:00 11.9 C 89 % 10.15 C
3705 15-03-2019 20:40:00 11.9 C 89 % 10.15 C
3706 15-03-2019 20:45:00 11.9 C 89 % 10.15 C
3707 15-03-2019 20:50:00 11.9 C 89 % 10.15 C
3708 15-03-2019 20:55:00 11.9 C 89 % 10.15 C
3709 15-03-2019 21:00:00 12 C 88 % 10.08 C
3710 15-03-2019 21:05:00 12.1 C 88 % 10.17 C
3711 15-03-2019 21:10:00 12.2 C 87 % 10.1 C
3712 15-03-2019 21:15:00 12.2 C 87 % 10.1 C
3713 15-03-2019 21:20:00 12.2 C 87 % 10.1 C
3714 15-03-2019 21:25:00 12.2 C 87 % 10.1 C
3715 15-03-2019 21:30:00 12.3 C 86 % 10.03 C
3716 15-03-2019 21:35:00 12.3 C 86 % 10.03 C
3717 15-03-2019 21:40:00 12.3 C 86 % 10.03 C
3718 15-03-2019 21:45:00 12.4 C 86 % 10.13 C
3719 15-03-2019 21:50:00 12.4 C 86 % 10.13 C
3720 15-03-2019 21:55:00 12.4 C 86 % 10.13 C
3721 15-03-2019 22:00:00 12.4 C 86 % 10.13 C
3722 15-03-2019 22:05:00 12.4 C 85 % 9.95 C
3723 15-03-2019 22:10:00 12.4 C 86 % 10.13 C
3724 15-03-2019 22:15:00 12.4 C 86 % 10.13 C
3725 15-03-2019 22:20:00 12.3 C 86 % 10.03 C
Sensor: Nr:Datum:Temp:Feuchte:Taupunkt:
Aussen-T/F 3726 15-03-2019 22:25:00 12.4 C 85 % 9.95 C
3727 15-03-2019 22:30:00 12.4 C 85 % 9.95 C
3728 15-03-2019 22:35:00 12.3 C 85 % 9.85 C
3729 15-03-2019 22:40:00 12.3 C 85 % 9.85 C
3730 15-03-2019 22:45:00 12.4 C 84 % 9.78 C
3731 15-03-2019 22:50:00 12.6 C 84 % 9.97 C
3732 15-03-2019 22:55:00 12.5 C 85 % 10.05 C
3733 15-03-2019 23:00:00 12.3 C 85 % 9.85 C
3734 15-03-2019 23:05:00 12.1 C 86 % 9.83 C
3735 15-03-2019 23:10:00 11.9 C 87 % 9.81 C
3736 15-03-2019 23:15:00 11.8 C 87 % 9.71 C
3737 15-03-2019 23:20:00 11.9 C 87 % 9.81 C
3738 15-03-2019 23:25:00 11.9 C 88 % 9.98 C
3739 15-03-2019 23:30:00 11.8 C 88 % 9.88 C
3740 15-03-2019 23:35:00 11.8 C 89 % 10.05 C
3741 15-03-2019 23:40:00 11.8 C 89 % 10.05 C
3742 15-03-2019 23:45:00 11.7 C 89 % 9.95 C
3743 15-03-2019 23:50:00 11.7 C 89 % 9.95 C
3744 15-03-2019 23:55:00 11.6 C 90 % 10.02 C
3745 16-03-2019 00:00:00 11.6 C 90 % 10.02 C
3746 16-03-2019 00:05:00 11.6 C 90 % 10.02 C
3747 16-03-2019 00:10:00 11.7 C 89 % 9.95 C
3748 16-03-2019 00:15:00 11.7 C 89 % 9.95 C
3749 16-03-2019 00:20:00 11.7 C 89 % 9.95 C
3750 16-03-2019 00:25:00 11.7 C 88 % 9.78 C
Sensor: Nr:Datum:Temp:Feuchte:Taupunkt:
Aussen-T/F 3751 16-03-2019 00:30:00 11.7 C 88 % 9.78 C
3752 16-03-2019 00:35:00 11.8 C 88 % 9.88 C
3753 16-03-2019 00:40:00 11.8 C 88 % 9.88 C
3754 16-03-2019 00:45:00 11.7 C 87 % 9.61 C
3755 16-03-2019 00:50:00 11.1 C 87 % 9.02 C
3756 16-03-2019 00:55:00 10.8 C 89 % 9.06 C
3757 16-03-2019 01:00:00 10.5 C 90 % 8.93 C
3758 16-03-2019 01:05:00 10.3 C 91 % 8.9 C
3759 16-03-2019 01:10:00 10.2 C 91 % 8.8 C
3760 16-03-2019 01:15:00 10.1 C 92 % 8.86 C
3761 16-03-2019 01:20:00 10.1 C 92 % 8.86 C
3762 16-03-2019 01:25:00 10 C 92 % 8.76 C
3763 16-03-2019 01:30:00 9.8 C 93 % 8.72 C
3764 16-03-2019 01:35:00 9.6 C 92 % 8.37 C
3765 16-03-2019 01:40:00 9.3 C 92 % 8.07 C
3766 16-03-2019 01:45:00 9.3 C 92 % 8.07 C
3767 16-03-2019 01:50:00 9.2 C 92 % 7.97 C
3768 16-03-2019 01:55:00 9.1 C 92 % 7.87 C
3769 16-03-2019 02:00:00 9.1 C 93 % 8.03 C
3770 16-03-2019 02:05:00 9.1 C 93 % 8.03 C
3771 16-03-2019 02:10:00 9.1 C 92 % 7.87 C
3772 16-03-2019 02:15:00 9.1 C 92 % 7.87 C
3773 16-03-2019 02:20:00 9 C 92 % 7.77 C
3774 16-03-2019 02:25:00 9 C 92 % 7.77 C
3775 16-03-2019 02:30:00 8.9 C 92 % 7.67 C
Sensor: Nr:Datum:Temp:Feuchte:Taupunkt:
Aussen-T/F 3776 16-03-2019 02:35:00 8.9 C 92 % 7.67 C
3777 16-03-2019 02:40:00 8.8 C 92 % 7.57 C
3778 16-03-2019 02:45:00 8.8 C 92 % 7.57 C
3779 16-03-2019 02:50:00 8.7 C 92 % 7.47 C
3780 16-03-2019 02:55:00 8.7 C 92 % 7.47 C
3781 16-03-2019 03:00:00 8.7 C 93 % 7.63 C
3782 16-03-2019 03:05:00 8.6 C 93 % 7.53 C
3783 16-03-2019 03:10:00 8.5 C 93 % 7.43 C
3784 16-03-2019 03:15:00 8.5 C 93 % 7.43 C
3785 16-03-2019 03:20:00 8.4 C 94 % 7.49 C
3786 16-03-2019 03:25:00 8.4 C 94 % 7.49 C
3787 16-03-2019 03:30:00 8.4 C 94 % 7.49 C
3788 16-03-2019 03:35:00 8.3 C 94 % 7.39 C
3789 16-03-2019 03:40:00 8.3 C 94 % 7.39 C
3790 16-03-2019 03:45:00 8.3 C 94 % 7.39 C
3791 16-03-2019 03:50:00 8.3 C 94 % 7.39 C
3792 16-03-2019 03:55:00 8.3 C 95 % 7.55 C
3793 16-03-2019 04:00:00 8.3 C 95 % 7.55 C
3794 16-03-2019 04:05:00 8.3 C 95 % 7.55 C
3795 16-03-2019 04:10:00 8.3 C 95 % 7.55 C
3796 16-03-2019 04:15:00 8.3 C 95 % 7.55 C
3797 16-03-2019 04:20:00 8.3 C 95 % 7.55 C
3798 16-03-2019 04:25:00 8.3 C 95 % 7.55 C
3799 16-03-2019 04:30:00 8.3 C 95 % 7.55 C
3800 16-03-2019 04:35:00 8.3 C 95 % 7.55 C
Sensor: Nr:Datum:Temp:Feuchte:Taupunkt:
Aussen-T/F 3801 16-03-2019 04:40:00 8.3 C 95 % 7.55 C
3802 16-03-2019 04:45:00 8.3 C 95 % 7.55 C
3803 16-03-2019 04:50:00 8.3 C 95 % 7.55 C
3804 16-03-2019 04:55:00 8.3 C 95 % 7.55 C
3805 16-03-2019 05:00:00 8.3 C 95 % 7.55 C
3806 16-03-2019 05:05:00 8.3 C 95 % 7.55 C
3807 16-03-2019 05:10:00 8.3 C 95 % 7.55 C
3808 16-03-2019 05:15:00 8.3 C 95 % 7.55 C
3809 16-03-2019 05:20:00 8.3 C 95 % 7.55 C
3810 16-03-2019 05:25:00 8.3 C 95 % 7.55 C
3811 16-03-2019 05:30:00 8.3 C 95 % 7.55 C
3812 16-03-2019 05:35:00 8.3 C 95 % 7.55 C
3813 16-03-2019 05:40:00 8.3 C 95 % 7.55 C
3814 16-03-2019 05:45:00 8.3 C 95 % 7.55 C
3815 16-03-2019 05:50:00 8.3 C 95 % 7.55 C
3816 16-03-2019 05:55:00 8.3 C 96 % 7.7 C
3817 16-03-2019 06:00:00 8.3 C 96 % 7.7 C
3818 16-03-2019 06:05:00 8.3 C 96 % 7.7 C
3819 16-03-2019 06:10:00 8.3 C 96 % 7.7 C
3820 16-03-2019 06:15:00 8.3 C 96 % 7.7 C
3821 16-03-2019 06:20:00 8.3 C 96 % 7.7 C
3822 16-03-2019 06:25:00 8.4 C 96 % 7.8 C
3823 16-03-2019 06:30:00 8.7 C 96 % 8.1 C
3824 16-03-2019 06:35:00 8.8 C 96 % 8.2 C
3825 16-03-2019 06:40:00 9.1 C 97 % 8.65 C
Sensor: Nr:Datum:Temp:Feuchte:Taupunkt:
Aussen-T/F 3826 16-03-2019 06:45:00 9.3 C 97 % 8.85 C
3827 16-03-2019 06:50:00 9.4 C 97 % 8.95 C
3828 16-03-2019 06:55:00 9.6 C 97 % 9.15 C
3829 16-03-2019 07:00:00 9.7 C 96 % 9.09 C
3830 16-03-2019 07:05:00 9.7 C 96 % 9.09 C
3831 16-03-2019 07:10:00 9.7 C 96 % 9.09 C
3832 16-03-2019 07:15:00 9.8 C 96 % 9.19 C
3833 16-03-2019 07:20:00 9.8 C 96 % 9.19 C
3834 16-03-2019 07:25:00 9.8 C 95 % 9.04 C
3835 16-03-2019 07:30:00 9.9 C 95 % 9.14 C
3836 16-03-2019 07:35:00 9.9 C 95 % 9.14 C
3837 16-03-2019 07:40:00 10 C 94 % 9.08 C
3838 16-03-2019 07:45:00 10.1 C 94 % 9.18 C
3839 16-03-2019 07:50:00 10.1 C 94 % 9.18 C
3840 16-03-2019 07:55:00 10.1 C 94 % 9.18 C
3841 16-03-2019 08:00:00 10.2 C 94 % 9.28 C
3842 16-03-2019 08:05:00 10.2 C 94 % 9.28 C
3843 16-03-2019 08:10:00 10.2 C 93 % 9.12 C
3844 16-03-2019 08:15:00 10.3 C 93 % 9.22 C
3845 16-03-2019 08:20:00 10.3 C 93 % 9.22 C
3846 16-03-2019 08:25:00 10.3 C 93 % 9.22 C
3847 16-03-2019 08:30:00 10.4 C 93 % 9.32 C
3848 16-03-2019 08:35:00 10.4 C 93 % 9.32 C
3849 16-03-2019 08:40:00 10.5 C 93 % 9.42 C
3850 16-03-2019 08:45:00 10.5 C 93 % 9.42 C
Sensor: Nr:Datum:Temp:Feuchte:Taupunkt:
Aussen-T/F 3851 16-03-2019 08:50:00 10.6 C 93 % 9.52 C
3852 16-03-2019 08:55:00 10.6 C 93 % 9.52 C
3853 16-03-2019 09:00:00 10.7 C 93 % 9.62 C
3854 16-03-2019 09:05:00 10.7 C 92 % 9.45 C
3855 16-03-2019 09:10:00 10.7 C 92 % 9.45 C
3856 16-03-2019 09:15:00 10.7 C 92 % 9.45 C
3857 16-03-2019 09:20:00 10.7 C 92 % 9.45 C
3858 16-03-2019 09:25:00 10.7 C 92 % 9.45 C
3859 16-03-2019 09:30:00 10.7 C 92 % 9.45 C
3860 16-03-2019 09:35:00 10.7 C 92 % 9.45 C
3861 16-03-2019 09:40:00 10.7 C 92 % 9.45 C
3862 16-03-2019 09:45:00 10.7 C 91 % 9.29 C
3863 16-03-2019 09:50:00 10.8 C 91 % 9.39 C
3864 16-03-2019 09:55:00 10.8 C 90 % 9.23 C
3865 16-03-2019 10:00:00 10.8 C 90 % 9.23 C
3866 16-03-2019 10:05:00 10.9 C 90 % 9.33 C
3867 16-03-2019 10:10:00 10.9 C 90 % 9.33 C
3868 16-03-2019 10:15:00 10.9 C 90 % 9.33 C
3869 16-03-2019 10:20:00 10.9 C 90 % 9.33 C
3870 16-03-2019 10:25:00 10.8 C 90 % 9.23 C
3871 16-03-2019 10:30:00 10.9 C 90 % 9.33 C
3872 16-03-2019 10:35:00 10.9 C 89 % 9.16 C
3873 16-03-2019 10:40:00 10.9 C 90 % 9.33 C
3874 16-03-2019 10:45:00 10.8 C 90 % 9.23 C
3875 16-03-2019 10:50:00 10.7 C 90 % 9.13 C
Sensor: Nr:Datum:Temp:Feuchte:Taupunkt:
Aussen-T/F 3876 16-03-2019 10:55:00 10.7 C 91 % 9.29 C
3877 16-03-2019 11:00:00 10.7 C 91 % 9.29 C
3878 16-03-2019 11:05:00 10.7 C 91 % 9.29 C
3879 16-03-2019 11:10:00 10.7 C 91 % 9.29 C
3880 16-03-2019 11:15:00 10.7 C 91 % 9.29 C
3881 16-03-2019 11:20:00 10.7 C 90 % 9.13 C
3882 16-03-2019 11:25:00 10.7 C 90 % 9.13 C
3883 16-03-2019 11:30:00 10.8 C 89 % 9.06 C
3884 16-03-2019 11:35:00 10.8 C 88 % 8.89 C
3885 16-03-2019 11:40:00 10.9 C 88 % 8.99 C
3886 16-03-2019 11:45:00 11 C 88 % 9.09 C
3887 16-03-2019 11:50:00 11.1 C 87 % 9.02 C
3888 16-03-2019 11:55:00 11.1 C 87 % 9.02 C
3889 16-03-2019 12:00:00 11.1 C 87 % 9.02 C
3890 16-03-2019 12:05:00 11.2 C 86 % 8.95 C
3891 16-03-2019 12:10:00 11.2 C 86 % 8.95 C
3892 16-03-2019 12:15:00 11.2 C 85 % 8.77 C
3893 16-03-2019 12:20:00 11.3 C 85 % 8.87 C
3894 16-03-2019 12:25:00 11.4 C 84 % 8.8 C
3895 16-03-2019 12:30:00 11.6 C 84 % 8.99 C
3896 16-03-2019 12:35:00 11.7 C 83 % 8.91 C
3897 16-03-2019 12:40:00 11.8 C 82 % 8.83 C
3898 16-03-2019 12:45:00 11.8 C 82 % 8.83 C
3899 16-03-2019 12:50:00 11.7 C 82 % 8.73 C
3900 16-03-2019 12:55:00 11.6 C 82 % 8.64 C
Sensor: Nr:Datum:Temp: